Wetterstation Wolfshagen (Froggit GW1000 Wifi)=> Waldbrandrisiko
´╗┐

A Fire Weather Index for personal weather stations

(See below the table for background)
Legend:
Low (0-210)
Very High (490 - 630)

Moderate (210 - 350)
Extreme (630+)

High (350 - 490)


Flame  Flame
237.6
Date Temp. (°C) Wind Speed (km/h) Rain (mm) RH Days since Rain pwsFWI
Prediction is active (including today!), values are above red line.
18/06/21 32.0 12.0 0.0 0.38 2 286.3
17/06/21 30.0 15.0 0.0 0.41 1 264.7
16/06/21 26.0 11.0 0.2 0.51 0 241.0
15/06/21 22.0 11.0 0.0 0.51 9 261.4
14/06/21 25.0 11.0 0.0 0.48 8 259.9
13/06/21 19.0 17.0 0.0 0.49 7 237.6
12/06/21 21.3 23.0 0.0 0.57 6 205.0
11/06/21 26.2 14.0 0.0 0.45 5 147.6
10/06/21 24.1 15.0 0.0 0.47 4 100.8
09/06/21 25.0 9.0 0.0 0.51 3 91.2
08/06/21 22.2 9.0 0.0 0.69 2 100.7
07/06/21 17.6 8.0 0.0 0.80 1 154.0
06/06/21 16.9 11.0 17.2 0.95 0 221.1
05/06/21 23.0 8.0 18.2 0.72 0 296.1
04/06/21 26.5 12.0 0.2 0.53 0 334.8
03/06/21 27.0 9.0 0.0 0.40 6 325.9
02/06/21 32.9 9.0 0.0 0.23 5 286.5
01/06/21 31.2 11.0 0.0 0.26 4 216.3
31/05/21 29.3 11.0 0.0 0.20 3 141.5
30/05/21 23.7 12.0 0.0 0.39 2 68.9
29/05/21 20.2 10.0 0.0 0.49 1 115.4
28/05/21 18.0 19.0 2.7 0.49 0 20.0
27/05/21 14.7 11.0 9.1 0.71 0 93.9
26/05/21 17.1 16.0 2.3 0.50 0 153.9
25/05/21 12.9 18.0 6.5 0.64 0 196.5
24/05/21 26.7 17.0 0.3 0.24 0 190.1
23/05/21 19.4 16.0 5.4 0.39 0 114.4
22/05/21 14.7 17.0 6.1 0.57 0 108.0
21/05/21 20.1 16.0 0.6 0.36 0 99.8
20/05/21 21.3 16.0 0.2 0.36 0 51.8
19/05/21 19.4 21.0 4.4 0.42 0 53.0
18/05/21 13.7 13.0 7.7 0.67 0 58.9
17/05/21 22.5 17.0 6.8 0.43 0 43.2
16/05/21 22.8 12.0 2.8 0.37 0 46.6
15/05/21 16.6 13.0 10.2 0.61 0 32.0
14/05/21 17.8 14.0 0.1 0.55 0 144.5
13/05/21 16.3 15.0 0.0 0.48 1 176.8
12/05/21 13.7 13.0 5.5 0.77 0 122.0
11/05/21 14.5 8.0 2.5 0.78 0 121.8
10/05/21 26.6 14.0 1.4 0.34 0 151.0
09/05/21 33.0 16.0 0.0 0.26 1 119.9
08/05/21 17.8 10.0 0.1 0.31 0 65.2
07/05/21 10.7 22.0 7.4 0.42 0 67.2
06/05/21 11.5 13.0 2.4 0.45 0 78.5
05/05/21 9.1 27.0 2.3 0.57 0 93.2
04/05/21 14.4 23.0 3.1 0.41 0 91.1
03/05/21 16.3 15.0 0.0 0.33 1 114.0
02/05/21 9.1 23.0 1.0 0.64 0 129.1
01/05/21 13.4 10.0 0.1 0.59 0 143.5
30/04/21 10.6 13.0 0.3 0.67 0 178.2
29/04/21 15.8 17.0 11.7 0.44 0 206.8
28/04/21 21.8 11.0 0.0 0.23 10 239.2
27/04/21 17.8 17.0 0.0 0.23 9 228.3
26/04/21 15.6 13.0 0.0 0.27 8 222.7
25/04/21 13.1 17.0 0.0 0.29 7 227.8
24/04/21 13.2 15.0 0.0 0.38 6 203.3
23/04/21 13.4 19.0 0.0 0.42 5 174.2
22/04/21 10.2 25.0 0.0 0.45 4 154.9
21/04/21 15.0 22.0 0.0 0.35 3 144.4
20/04/21 18.3 15.0 0.0 0.37 2 109.4
19/04/21 14.1 10.0 0.0 0.60 1 92.4
18/04/21 12.1 11.0 3.2 0.68 0 105.2
17/04/21 10.8 12.0 0.3 0.50 0 122.9
16/04/21 11.2 15.0 0.0 0.38 2 109.3
15/04/21 6.8 14.0 0.0 0.47 1 83.6
14/04/21 8.1 22.0 0.3 0.50 0 94.7
13/04/21 7.1 25.0 0.5 0.57 0 83.0
12/04/21 9.2 18.0 0.9 0.46 0 61.3
11/04/21 13.0 15.0 4.6 0.69 0 63.1
10/04/21 9.4 10.0 10.7 0.68 0 58.7
09/04/21 13.4 15.0 0.0 0.42 1 70.3
08/04/21 6.0 15.0 0.4 0.57 0 73.5
07/04/21 5.5 27.0 3.2 0.68 0 88.2
06/04/21 4.2 24.0 0.0 0.56 1 136.8
05/04/21 4.2 37.0 3.7 0.54 0 187.0
04/04/21 6.7 16.0 0.0 0.58 8 236.8
03/04/21 10.2 20.0 0.0 0.38 7 274.0
02/04/21 8.1 22.0 0.0 0.60 6 261.7
01/04/21 17.2 24.0 0.0 0.41 5 222.2
31/03/21 25.1 11.0 0.0 0.22 4 189.4
30/03/21 22.3 13.0 0.0 0.20 3 154.8
29/03/21 21.2 14.0 0.0 0.27 2 124.1
28/03/21 12.2 14.0 0.0 0.51 1 102.5
27/03/21 9.7 22.0 7.5 0.60 0 108.6
26/03/21 15.8 11.0 0.0 0.40 5 124.9
25/03/21 15.3 11.0 0.0 0.45 4 117.0
24/03/21 17.1 11.0 0.0 0.39 3 108.6
23/03/21 10.7 10.0 0.0 0.56 2 90.8
22/03/21 7.7 19.0 0.0 0.51 1 91.3
21/03/21 6.0 28.0 0.7 0.65 0 85.3
20/03/21 4.8 15.0 0.0 0.35 5 57.5
19/03/21 6.1 16.0 0.0 0.55 4 39.7
18/03/21 5.5 14.0 0.0 0.63 3 25.2
17/03/21 6.6 14.0 0.0 0.53 2 14.8
16/03/21 6.7 20.0 0.0 0.63 1 15.5
15/03/21 6.8 26.0 7.5 0.71 0 5.0
14/03/21 7.5 13.0 1.8 0.70 0 4.0
13/03/21 6.8 26.0 16.1 0.69 0 18.0
12/03/21 11.5 33.0 14.7 0.49 0 36.7
11/03/21 12.2 58.0 13.8 0.55 0 55.5
10/03/21 10.1 16.0 3.6 0.59 0 58.3
09/03/21 3.3 9.0 1.8 0.54 0 61.6
08/03/21 4.8 13.0 0.6 0.43 0 96.4
07/03/21 2.9 15.0 0.0 0.61 2 94.1
06/03/21 6.1 12.0 0.0 0.59 1 99.3
05/03/21 8.1 18.0 0.6 0.50 0 104.1
04/03/21 8.8 18.0 0.3 0.80 0 87.3
03/03/21 19.2 13.0 0.0 0.34 1 80.2
02/03/21 21.1 12.0 0.6 0.86 0 41.1
01/03/21 12.0 8.5 0.3 0.37 0 75.4
28/02/21 10.0 15.0 0.3 0.59 0 108.3
27/02/21 4.4 11.2 0.0 0.86 1 164.0
26/02/21 13.4 11.2 2.4 0.58 0 204.1
25/02/21 21.0 25.0 5.4 0.45 0 244.4
24/02/21 20.6 17.3 0.0 0.49 5 226.7
23/02/21 19.3 17.3 0.0 0.38 4 206.0
22/02/21 24.6 13.3 0.0 0.15 3 157.1
21/02/21 19.6 14.3 0.0 0.44 2 103.6
20/02/21 14.4 15.8 0.0 0.52 1 92.1
19/02/21 9.4 18.4 1.8 0.52 0 89.3
18/02/21 11.1 19.4 0.9 0.55 0 66.3
17/02/21 7.6 18.4 4.5 0.77 0 51.4
16/02/21 8.4 24.5 0.3 0.68 0 56.5
15/02/21 2.3 23.4 0.0 0.23 2 41.4
14/02/21 4.1 11.2 0.0 0.31 1 27.3
13/02/21 2.0 15.0 5.7 0.40 0 22.1
12/02/21 -1.0 15.0 0.0 0.78 7 30.5
11/02/21 -0.6 21.0 0.0 0.61 6 26.8
10/02/21 -4.8 0.0 0.0 0.73 5 15.2
09/02/21 -8.4 0.0 0.0 0.67 4 15.1
08/02/21 -8.0 32.0 0.0 0.79 3 12.8
07/02/21 -3.0 35.0 0.0 0.83 2 7.7
06/02/21 0.4 5.0 0.0 0.83 1 7.2
05/02/21 3.1 6.1 5.4 0.90 0 6.0
04/02/21 8.8 20.9 7.8 0.68 0 10.8
03/02/21 9.9 37.8 12.6 0.81 0 11.6
02/02/21 8.0 22.0 3.3 0.84 0 9.5
01/02/21 2.2 13.3 0.0 0.73 1 6.7
31/01/21 3.5 0.0 0.6 0.62 0 0.6
30/01/21 5.0 20.0 1.5 0.72 0 9.3
29/01/21 6.0 19.4 15.9 0.87 0 6.0
28/01/21 2.9 11.2 3.9 0.88 0 5.4
27/01/21 2.0 12.2 1.8 0.88 0 7.3
27/01/21 2.8 22.0 1.8 0.67 0 22.7
26/01/21 1.2 15.8 0.0 0.79 1 18.3
25/01/21 -0.5 9.7 1.5 0.80 0 14.0
25/01/21 6.0 13.3 1.5 0.54 0 63.5
24/01/21 1.1 9.7 0.0 0.86 2 14.9
23/01/21 5.1 15.8 0.0 0.60 1 12.1
22/01/21 9.7 41.8 3.0 0.73 0 17.2
21/01/21 10.2 34.2 1.8 0.50 0 29.2
20/01/21 10.1 35.0 0.0 0.48 1 58.3
19/01/21 5.1 30.6 15.6 0.79 0 17.3
18/01/21 3.1 22.0 4.5 0.81 0 16.7
17/01/21 0.6 8.6 0.0 0.67 4 17.5
16/01/21 -0.4 12.2 0.0 0.70 3 25.1
15/01/21 -0.7 17.3 0.0 0.78 2 26.3
14/01/21 -0.1 8.6 0.0 0.89 1 23.4
13/01/21 1.9 23.0 1.2 0.82 0 27.4
12/01/21 2.4 26.7 17.7 0.82 0 30.2
11/01/21 3.5 24.3 0.3 0.68 0 24.5
10/01/21 2.8 14.6 0.3 0.70 0 12.3
09/01/21 0.5 14.3 0.0 0.86 3 9.8
08/01/21 1.4 16.9 0.0 0.86 2 10.6
07/01/21 3.5 12.6 0.0 0.83 1 16.5
06/01/21 0.5 14.6 5.1 0.92 0 17.7
05/01/21 0.7 12.0 1.8 0.94 0 26.2
04/01/21 0.0 14.3 0.0 0.94 3 28.7
03/01/21 1.3 16.9 0.0 0.81 2 32.7
02/01/21 4.0 11.9 0.0 0.65 1 27.3
01/01/21 2.9 12.0 0.6 0.72 0 19.6
31/12/20 3.1 18.7 0.0 0.70 1 27.0
30/12/20 4.0 17.8 2.4 0.73 0 29.0
29/12/20 3.3 15.4 0.6 0.75 0 17.4
28/12/20 5.2 29.1 3.0 0.76 0 25.3
27/12/20 4.1 29.8 5.4 0.70 0 16.3
26/12/20 2.5 27.0 0.0 0.71 1 12.5
25/12/20 2.5 20.2 0.3 0.74 0 23.6
24/12/20 10.6 27.8 6.9 0.78 0 49.5
23/12/20 11.7 17.8 6.0 0.88 0 57.8
22/12/20 13.0 27.2 12.3 0.81 0 75.3
21/12/20 7.5 19.4 1.5 0.76 0 82.3
20/12/20 9.9 18.7 0.6 0.65 0 101.9
19/12/20 11.4 29.3 0.0 0.64 3 110.0
18/12/20 8.9 18.1 0.0 0.72 2 83.8
17/12/20 10.6 18.0 0.0 0.69 1 71.2
16/12/20 11.3 9.8 0.3 0.72 0 61.0
15/12/20 11.5 21.5 0.6 0.58 0 53.7
14/12/20 10.1 22.4 0.0 0.62 1 30.2
13/12/20 7.3 12.0 0.3 0.87 0 8.2
12/12/20 5.3 11.9 1.8 0.81 0 13.3
11/12/20 3.1 13.1 0.0 0.75 1 13.9
10/12/20 2.0 7.2 4.2 0.91 0 15.7
09/12/20 2.7 6.1 6.3 0.89 0 8.2
08/12/20 8.3 3.5 6.9 0.75 0 20.5
07/12/20 5.4 17.6 0.9 0.80 0 7.9
06/12/20 4.1 7.0 0.0 0.86 2 3.6
05/12/20 4.6 15.4 0.0 0.72 1 20.5
04/12/20 10.2 20.0 6.3 0.56 0 19.5
03/12/20 2.4 22.8 0.0 0.64 1 26.6
02/12/20 7.3 10.9 5.1 0.76 0 15.4
01/12/20 8.7 22.8 1.5 0.83 0 18.0
30/11/20 2.9 19.3 0.6 0.58 0 31.0
29/11/20 9.4 9.8 2.4 0.61 0 34.9
28/11/20 4.2 10.9 0.3 0.92 0 47.5
27/11/20 9.7 9.6 4.8 0.68 0 61.8
26/11/20 10.8 21.5 5.7 0.77 0 78.1
25/11/20 10.0 19.1 0.0 0.63 3 86.7
24/11/20 9.3 17.8 0.0 0.72 2 68.4
23/11/20 8.1 28.3 0.0 0.72 1 86.7
22/11/20 8.2 22.2 0.3 0.75 0 37.6
21/11/20 6.1 23.9 0.3 0.65 0 25.5
20/11/20 9.7 20.4 0.6 0.80 0 9.8
19/11/20 12.7 34.1 4.5 0.60 0 40.6
18/11/20 13.3 25.4 0.0 0.60 1 69.1
17/11/20 10.4 21.3 5.4 0.60 0 54.2
16/11/20 11.3 17.8 1.8 0.67 0 57.1
15/11/20 17.5 27.4 1.5 0.58 0 77.6
14/11/20 16.5 17.2 0.0 0.68 1 58.3
13/11/20 12.3 18.7 0.6 0.69 0 45.7
12/11/20 10.0 17.6 0.3 0.77 0 58.9
11/11/20 13.2 4.8 0.0 0.85 1 59.1
10/11/20 4.1 40.7 0.3 0.92 0 70.3
09/11/20 7.6 7.2 0.0 0.82 4 95.5
08/11/20 20.0 3.5 0.0 0.45 3 115.9
07/11/20 18.8 11.1 0.0 0.38 2 106.0
06/11/20 13.6 12.2 0.0 0.76 1 75.2
05/11/20 12.2 13.3 0.3 0.62 0 85.1
04/11/20 13.8 17.6 0.0 0.52 2 52.7
03/11/20 15.0 15.4 0.0 0.54 1 45.2
02/11/20 21.3 32.8 3.3 0.60 0 78.7
01/11/20 17.3 22.8 3.0 0.69 0 81.4
31/10/20 18.2 17.8 0.9 0.73 0 45.6
30/10/20 13.0 18.0 18.6 0.91 0 55.1
29/10/20 11.0 21.1 12.6 0.71 0 84.9
28/10/20 15.1 23.3 0.6 0.68 0 53.5
27/10/20 11.0 26.1 0.0 0.68 1 50.9
26/10/20 11.7 20.6 6.6 0.81 0 73.0
25/10/20 15.8 21.1 0.6 0.63 0 69.4
24/10/20 17.6 18.0 0.0 0.64 1 77.5
23/10/20 16.3 12.6 15.9 0.84 0 53.0
22/10/20 21.2 30.4 2.7 0.57 0 83.3
21/10/20 17.6 21.5 0.3 0.52 0 50.5
20/10/20 14.7 20.9 2.4 0.56 0 24.4
19/10/20 14.2 8.5 0.6 0.67 0 9.1
18/10/20 10.6 16.3 1.8 0.77 0 4.8
17/10/20 10.0 8.3 4.2 0.95 0 0.5
16/10/20 8.6 13.1 8.7 0.84 0 1.6
15/10/20 8.2 24.4 23.1 0.97 0 28.1
14/10/20 9.5 26.5 16.2 0.89 0 2.3
13/10/20 15.1 14.3 2.4 0.60 0 37.4
12/10/20 16.5 18.0 1.2 0.62 0 12.8
11/10/20 15.7 20.9 2.7 0.52 0 45.4
10/10/20 14.5 17.8 0.9 0.53 0 71.2
09/10/20 18.7 21.7 5.7 0.55 0 100.6
08/10/20 13.9 23.9 6.6 0.86 0 128.4
07/10/20 15.9 20.4 12.3 0.79 0 167.7
06/10/20 14.4 21.1 8.4 0.74 0 168.5
05/10/20 19.2 18.9 0.6 0.48 0 172.2
04/10/20 17.1 23.0 0.0 0.52 2 156.4
03/10/20 24.2 14.1 0.0 0.55 1 146.2
02/10/20 21.0 18.1 0.6 0.58 0 125.2
01/10/20 22.4 13.1 1.5 0.42 0 89.8
30/09/20 18.6 8.7 0.0 0.74 3 72.2
29/09/20 19.7 12.0 0.0 0.53 2 61.5
28/09/20 20.0 13.9 0.0 0.48 1 103.0
27/09/20 16.1 12.2 0.3 0.59 0 154.6
26/09/20 10.4 18.1 34.8 0.78 0 223.8
25/09/20 19.1 29.3 2.7 0.39 0 335.9
24/09/20 22.0 20.6 2.1 0.37 0 330.7
23/09/20 27.5 13.5 0.0 0.31 4 352.6
22/09/20 29.0 12.0 0.0 0.29 3 346.5
21/09/20 27.3 17.6 0.0 0.34 2 406.1
20/09/20 24.1 16.7 0.0 0.24 1 321.0
19/09/20 25.7 20.6 3.3 0.25 0 395.9
18/09/20 21.5 15.2 0.0 0.33 3 408.8
17/09/20 20.1 20.7 0.0 0.35 2 444.2
16/09/20 32.0 19.1 0.0 0.29 1 445.5
15/09/20 35.3 13.0 3.3 0.28 0 369.2
14/09/20 33.8 13.0 0.0 0.26 4 319.8
13/09/20 28.3 13.0 0.0 0.39 3 281.1
12/09/20 26.7 23.0 0.0 0.45 2 275.2
11/09/20 24.5 18.1 0.0 0.41 1 228.1
10/09/20 24.6 21.5 3.3 0.38 0 160.4
09/09/20 25.2 24.4 3.3 0.55 0 185.0
08/09/20 24.7 18.9 0.0 0.46 3 122.3
07/09/20 23.2 17.6 0.0 0.44 2 128.0
06/09/20 21.2 15.6 0.0 0.46 1 168.2
05/09/20 17.5 9.6 8.7 0.75 0 128.1
04/09/20 24.0 15.6 0.3 0.67 0 155.5
03/09/20 23.5 22.4 6.3 0.38 0 192.5
02/09/20 22.8 21.1 0.0 0.40 2 167.7
01/09/20 21.0 18.1 0.0 0.39 1 165.0
31/08/20 25.2 17.2 4.2 0.51 0 136.2
30/08/20 21.9 13.9 5.4 0.52 0 120.9
29/08/20 22.9 14.1 0.3 0.48 0 198.8
28/08/20 22.9 22.0 3.0 0.50 0 280.3
27/08/20 21.2 29.6 0.3 0.54 0 376.9
26/08/20 20.2 31.5 4.2 0.54 0 452.9
25/08/20 24.0 14.3 1.8 0.47 0 523.1
24/08/20 23.8 28.2 0.0 0.46 5 586.9
23/08/20 25.2 24.3 0.0 0.41 4 496.4
22/08/20 28.6 26.7 0.0 0.39 3 403.7
21/08/20 33.4 17.6 0.0 0.39 2 275.5
20/08/20 31.0 16.3 0.0 0.44 1 215.7
19/08/20 29.5 15.7 0.3 0.37 0 81.4
18/08/20 27.3 15.7 4.2 0.52 0 86.9
17/08/20 33.5 12.6 7.2 0.41 0 209.1
16/08/20 28.8 15.2 11.1 0.53 0 292.3
15/08/20 28.7 11.1 0.6 0.41 0 324.9
14/08/20 33.5 26.3 10.2 0.63 0 469.0
13/08/20 31.9 10.9 0.0 0.42 3 569.7
12/08/20 35.1 15.9 0.0 0.31 2 651.8
11/08/20 32.5 14.4 0.0 0.36 1 691.1
10/08/20 31.6 13.1 4.8 0.48 0 467.5
09/08/20 37.8 17.2 0.0 0.28 4 507.4
08/08/20 38.3 13.0 0.0 0.25 3 388.2
07/08/20 33.2 21.3 0.0 0.34 2 212.2
06/08/20 32.6 22.0 0.0 0.24 1 378.0
05/08/20 30.4 17.8 6.3 0.25 0 340.9
04/08/20 23.5 19.8 0.0 0.41 2 404.5
03/08/20 23.2 13.1 0.0 0.41 1 485.6
02/08/20 26.8 20.6 12.6 0.55 0 594.7
01/08/20 34.2 20.2 0.0 0.33 6 619.0
31/07/20 29.6 16.9 0.0 0.36 5 432.6
30/07/20 26.6 20.9 0.0 0.31 4 430.0
29/07/20 24.5 27.8 0.0 0.38 3 456.3
28/07/20 28.3 26.5 0.0 0.35 2 427.2
27/07/20 25.6 11.1 0.0 0.45 1 389.3
26/07/20 26.8 19.1 18.3 0.48 0 446.1
25/07/20 28.3 19.4 0.0 0.41 5 427.8
24/07/20 27.9 25.0 0.0 0.32 4 437.1
23/07/20 27.0 15.6 0.0 0.30 3 360.5
22/07/20 23.5 16.5 0.0 0.42 2 344.2
21/07/20 23.7 19.6 0.0 0.35 1 287.9
20/07/20 22.7 24.1 2.7 0.42 0 250.9
19/07/20 31.3 15.6 0.0 0.31 2 323.2
18/07/20 27.8 10.7 0.0 0.35 1 272.3
17/07/20 26.2 14.6 0.3 0.37 0 293.5
16/07/20 20.9 11.1 1.2 0.64 0 309.5
15/07/20 20.8 16.1 17.7 0.64 0 309.1
14/07/20 29.3 19.1 0.9 0.30 0 299.6
13/07/20 25.2 11.1 0.3 0.32 0 190.9
12/07/20 24.0 20.4 0.3 0.39 0 142.6
11/07/20 23.0 19.1 0.0 0.36 1 69.5
10/07/20 26.3 31.3 4.2 0.56 0 47.0
09/07/20 23.4 17.0 1.8 0.71 0 140.4
08/07/20 19.1 9.4 4.5 0.71 0 195.4
07/07/20 23.6 24.3 1.5 0.39 0 301.0
06/07/20 22.9 30.6 4.5 0.47 0 234.6
05/07/20 26.4 18.3 3.9 0.57 0 321.1
04/07/20 27.6 27.2 0.0 0.37 2 392.4
03/07/20 23.0 23.0 0.0 0.51 1 345.6
02/07/20 27.0 16.9 0.3 0.43 0 449.5
01/07/20 25.2 35.6 8.4 0.57 0 506.3
30/06/20 24.6 26.5 0.0 0.36 7 561.5
29/06/20 25.2 23.9 0.0 0.37 6 553.7
28/06/20 26.9 23.7 0.0 0.52 5 529.7
27/06/20 31.5 18.3 0.0 0.41 4 518.7
26/06/20 31.1 16.3 0.0 0.37 3 490.6
25/06/20 27.8 16.7 0.0 0.35 2 397.0
24/06/20 25.8 25.9 0.0 0.43 1 315.1
23/06/20 25.9 16.9 0.3 0.35 0 216.2
22/06/20 25.0 18.0 0.3 0.38 0 143.0
21/06/20 27.0 16.7 0.0 0.39 1 73.5
20/06/20 23.3 24.8 2.1 0.48 0 79.6
19/06/20 24.4 20.4 1.8 0.55 0 28.0
18/06/20 19.8 11.7 30.6 0.82 0 46.0
17/06/20 26.6 13.9 2.7 0.53 0 65.5
16/06/20 24.4 11.1 6.0 0.66 0 50.5
15/06/20 25.6 17.2 0.0 0.62 1 106.0
14/06/20 19.5 13.0 29.4 0.45 0 73.0
13/06/20 27.1 17.0 66.9 0.65 0 126.4
12/06/20 27.1 18.0 3.6 0.43 0 217.8
11/06/20 19.4 14.3 3.6 0.44 0 130.2
10/06/20 21.7 20.7 0.6 0.42 0 181.1
09/06/20 20.6 17.0 2.1 0.49 0 71.0
08/06/20 22.5 15.6 0.0 0.41 2 120.9
07/06/20 21.1 23.0 0.0 0.40 1 168.2
06/06/20 19.5 18.7 7.5 0.42 0 203.4
05/06/20 18.1 28.9 14.7 0.44 0 210.0
04/06/20 18.1 16.9 7.5 0.77 0 221.2
03/06/20 29.1 19.3 9.0 0.32 0 277.0
02/06/20 28.1 18.0 0.0 0.28 49 350.9
01/06/20 24.8 20.6 0.0 0.31 48 303.1
04/05/20 9.2 3.5 0.0 0.93 47 257.0
03/05/20 15.5 19.1 0.0 0.58 46 299.8
02/05/20 13.5 30.0 0.0 0.72 45 383.0
01/05/20 18.0 25.6 0.0 0.43 44 415.2
30/04/20 18.3 25.6 0.0 0.52 43 400.6
29/04/20 18.9 23.3 0.0 0.57 42 443.8
28/04/20 21.9 13.0 0.0 0.35 41 467.4
27/04/20 24.0 23.9 0.0 0.21 40 491.5
26/04/20 19.0 19.3 0.0 0.30 39 451.1
25/04/20 15.9 22.6 0.0 0.43 38 460.9
24/04/20 21.7 27.6 0.0 0.33 37 466.5
23/04/20 21.2 19.4 0.0 0.30 36 424.3
22/04/20 19.0 22.0 0.0 0.28 35 394.4
21/04/20 17.1 28.0 0.0 0.33 34 380.1
20/04/20 15.7 28.5 0.0 0.31 33 380.5
19/04/20 15.4 21.1 0.0 0.28 32 347.0
18/04/20 20.7 17.8 0.0 0.37 31 346.3
17/04/20 18.3 17.0 0.0 0.45 30 395.9
16/04/20 22.0 15.9 0.0 0.33 29 397.9
15/04/20 18.1 23.3 0.0 0.23 28 395.9
14/04/20 10.5 22.8 0.0 0.35 27 399.8
13/04/20 11.9 30.4 0.0 0.37 26 399.7
12/04/20 23.7 22.8 0.0 0.21 25 403.5
11/04/20 18.5 14.4 0.0 0.31 24 391.3
10/04/20 15.5 21.5 0.0 0.27 23 413.1
09/04/20 23.9 18.1 0.0 0.26 22 396.6
08/04/20 24.0 8.5 0.0 0.24 21 344.7
07/04/20 19.4 20.2 0.0 0.36 20 345.0
06/04/20 25.3 17.2 0.0 0.15 19 321.2
05/04/20 20.5 16.7 0.0 0.19 18 251.0
04/04/20 14.7 16.7 0.0 0.29 17 207.1
03/04/20 10.6 20.2 0.0 0.45 16 191.6
02/04/20 9.6 29.8 0.0 0.44 15 202.7
01/04/20 11.1 19.4 0.0 0.31 14 212.4
31/03/20 6.9 17.6 0.0 0.29 13 217.3
30/03/20 4.8 21.1 0.0 0.39 12 231.2
29/03/20 3.8 28.0 0.0 0.44 11 241.7
28/03/20 13.7 20.2 0.0 0.36 10 252.9
27/03/20 16.3 20.7 0.0 0.34 9 243.8
26/03/20 10.4 24.8 0.0 0.34 8 214.8
25/03/20 9.2 21.9 0.0 0.22 7 179.3
24/03/20 10.9 17.0 0.0 0.24 6 183.5
23/03/20 8.4 21.5 0.0 0.21 5 148.9
22/03/20 6.4 23.7 0.0 0.29 4 177.2
21/03/20 5.5 26.5 0.0 0.53 3 200.7
20/03/20 8.0 12.2 0.0 0.74 2 219.8
19/03/20 18.6 17.2 0.0 0.39 1 239.5
18/03/20 17.9 20.9 2.1 0.31 0 248.6
17/03/20 16.5 24.4 0.0 0.27 7 316.3
16/03/20 18.4 20.4 0.0 0.34 6 278.5
15/03/20 14.8 19.8 0.0 0.36 5 220.7
14/03/20 12.6 14.3 0.0 0.34 4 200.3
13/03/20 6.5 38.7 0.0 0.66 3 198.4
12/03/20 11.4 47.2 0.0 0.29 2 194.6
11/03/20 11.7 42.0 0.0 0.74 1 111.3
10/03/20 11.3 28.7 2.1 0.73 0 110.2
09/03/20 12.0 19.3 0.0 0.57 9 117.6
08/03/20 12.1 21.9 0.0 0.57 8 126.3
07/03/20 7.7 29.1 0.0 0.63 7 126.7
06/03/20 7.4 20.4 0.0 0.81 6 130.1
05/03/20 11.0 15.2 0.0 0.51 5 121.1
04/03/20 6.3 14.8 0.0 0.69 4 100.6
03/03/20 9.3 26.5 0.0 0.47 3 101.4
02/03/20 11.8 19.1 0.0 0.47 2 75.4
01/03/20 10.8 20.9 0.0 0.50 1 84.6
29/02/20 13.3 28.7 2.7 0.58 0 92.7
28/02/20 8.0 24.6 5.4 0.58 0 81.7
27/02/20 6.1 16.9 0.0 0.67 4 133.6
26/02/20 3.8 21.5 0.0 0.77 3 158.4
25/02/20 9.0 32.6 0.0 0.49 2 166.4
24/02/20 8.7 23.3 0.0 0.66 1 144.0
23/02/20 11.2 53.7 3.6 0.73 0 173.3
22/02/20 11.2 32.0 0.0 0.35 6 204.7
21/02/20 8.2 38.0 0.0 0.56 5 148.5
20/02/20 8.4 24.8 0.0 0.69 4 141.7
19/02/20 5.4 28.3 0.0 0.67 3 131.9
18/02/20 8.7 29.8 0.0 0.57 2 124.2
17/02/20 11.0 34.8 0.0 0.51 1 120.1
16/02/20 16.0 37.0 2.7 0.43 0 87.0
15/02/20 12.3 24.3 0.0 0.56 2 76.5
14/02/20 7.4 17.2 0.0 0.77 1 44.9
13/02/20 4.6 18.5 0.9 0.68 0 65.1
12/02/20 4.7 35.9 0.0 0.58 1 66.2
11/02/20 5.2 32.4 17.1 0.59 0 54.6
10/02/20 11.8 43.2 58.5 0.68 0 219.6
09/02/20 12.1 38.9 2.4 0.52 0 242.1
08/02/20 10.2 23.1 0.0 0.49 4 234.3
07/02/20 11.3 8.5 0.0 0.55 3 204.0
06/02/20 4.8 15.6 0.0 0.73 2 192.8
05/02/20 6.4 92.6 0.0 0.10 1 184.6
04/02/20 5.8 27.0 0.9 0.82 0 36.7
03/02/20 9.3 27.0 0.0 0.77 1 40.4
02/02/20 8.4 29.1 1.8 0.71 0 34.1
01/02/20 11.1 29.3 10.8 0.68 0 41.0
31/01/20 12.3 36.7 22.8 0.66 0 57.4
30/01/20 7.6 23.5 0.6 0.73 0 51.2
29/01/20 4.3 24.1 0.0 0.71 1 48.7
28/01/20 6.2 29.3 3.0 0.71 0 55.2
27/01/20 7.7 20.9 0.3 0.82 0 60.5
26/01/20 8.7 20.4 0.3 0.72 0 75.4
25/01/20 2.8 14.4 0.0 0.74 8 77.0
24/01/20 5.4 14.4 0.0 0.62 7 73.8
23/01/20 9.3 10.9 0.0 0.57 6 72.1
22/01/20 3.7 18.3 0.0 0.54 5 83.6
21/01/20 9.4 15.6 0.0 0.38 4 112.5
20/01/20 7.4 9.8 0.0 0.68 3 131.9
19/01/20 4.1 12.2 0.0 0.83 2 81.3
18/01/20 6.8 18.5 0.0 0.75 1 88.9
17/01/20 12.4 18.5 0.3 0.56 0 66.8
16/01/20 14.1 30.0 0.3 0.55 0 43.4
15/01/20 13.9 25.7 0.3 0.47 0 55.4
14/01/20 10.4 28.7 27.6 0.63 0 29.4
13/01/20 8.2 21.3 0.3 0.74 0 54.7
12/01/20 5.8 24.4 14.7 0.72 0 68.8
11/01/20 5.8 23.5 4.5 0.71 0 49.0
10/01/20 10.7 31.7 0.0 0.85 2 53.1
09/01/20 11.0 22.4 0.0 0.86 1 39.9
08/01/20 8.7 28.3 0.6 0.65 0 30.7
07/01/20 5.7 28.5 0.6 0.58 0 65.3
06/01/20 6.3 26.3 15.6 0.57 0 76.1
05/01/20 5.0 16.7 0.3 0.71 0 101.6
04/01/20 5.8 28.0 3.0 0.75 0 155.2
03/01/20 7.4 32.4 7.2 0.84 0 96.7
02/01/20 8.6 19.8 0.0 0.21 1 94.9
01/01/20 7.9 15.2 0.3 0.21 0 61.5
31/12/19 9.4 17.8 0.0 0.22 2 43.2
30/12/19 11.3 26.3 0.0 0.21 1 69.8
29/12/19 7.7 19.4 6.0 0.21 0 34.5
28/12/19 1.8 3.7 0.0 0.86 6 36.2
27/12/19 2.6 10.2 0.0 0.83 5 47.6
26/12/19 6.1 13.9 0.0 0.80 4 54.3
25/12/19 6.8 20.0 0.0 0.88 3 92.7
24/12/19 7.6 26.7 0.0 0.81 2 114.1
23/12/19 6.7 23.1 0.0 0.86 1 102.5
22/12/19 9.4 23.3 0.3 0.76 0 95.2
21/12/19 8.7 19.8 0.0 0.77 1 96.3
20/12/19 17.4 16.3 0.3 0.31 0 85.0
19/12/19 15.9 13.7 0.0 0.45 1 41.4
18/12/19 13.7 23.9 1.2 0.58 0 41.0
17/12/19 15.0 21.1 14.1 0.52 0 44.7
16/12/19 10.5 16.9 0.3 0.69 0 25.3
15/12/19 8.1 27.4 2.7 0.60 0 31.7
14/12/19 5.0 29.3 3.3 0.75 0 18.4
13/12/19 4.9 20.4 0.3 0.66 0 12.0
12/12/19 3.9 18.1 0.0 0.73 1 16.9
11/12/19 4.2 21.5 78.6 0.61 0 4.6
10/12/19 3.8 22.8 18.0 0.69 0 26.8
09/12/19 7.1 25.7 9.0 0.72 0 40.1
08/12/19 9.7 22.8 3.3 0.72 0 46.3
07/12/19 8.0 20.7 0.6 0.82 0 49.6
06/12/19 5.5 29.6 42.3 0.54 0 50.2
05/12/19 7.0 20.9 0.0 0.45 7 53.5
04/12/19 10.6 13.7 0.0 0.65 6 43.7
03/12/19 5.4 12.4 0.0 0.85 5 16.3
02/12/19 3.9 15.9 0.0 0.88 4 26.1
01/12/19 2.5 3.0 0.0 0.91 3 27.8
30/11/19 4.4 14.8 0.0 0.82 2 27.0
29/11/19 8.0 25.4 0.0 0.74 1 21.9
28/11/19 10.7 21.3 6.0 0.74 0 12.1
27/11/19 10.9 21.7 9.3 0.67 0 21.9
26/11/19 9.7 14.3 0.0 0.83 1 19.4
25/11/19 4.6 8.3 0.3 0.96 0 14.7
24/11/19 4.0 5.0 0.0 0.96 8 35.9
23/11/19 5.6 6.5 0.0 0.95 7 38.9
22/11/19 10.3 12.8 0.0 0.74 6 42.4
21/11/19 5.6 11.5 0.0 0.87 5 39.7
20/11/19 5.2 9.3 0.0 0.87 4 39.6
19/11/19 7.0 23.0 0.0 0.70 3 51.6
18/11/19 5.8 18.0 0.0 0.87 2 48.0
17/11/19 13.6 8.7 0.0 0.81 1 31.5
16/11/19 5.8 12.8 0.3 0.72 0 36.5
15/11/19 6.4 17.0 0.0 0.89 3 48.0
14/11/19 11.0 11.1 0.0 0.48 2 49.3
13/11/19 7.5 15.0 0.0 0.64 1 37.4
12/11/19 8.9 18.3 15.3 0.60 0 39.7
11/11/19 9.0 14.6 5.4 0.57 0 42.0
10/11/19 12.3 9.8 0.0 0.46 14 57.9
09/11/19 9.7 9.4 0.0 0.74 13 59.5
08/11/19 8.5 8.3 0.0 0.77 12 62.9
07/11/19 12.9 10.7 0.0 0.72 11 76.0
06/11/19 8.4 11.5 0.0 0.88 10 76.1
05/11/19 11.6 10.7 0.0 0.77 9 80.5
04/11/19 15.9 12.0 0.0 0.59 8 81.4
03/11/19 14.2 13.3 0.0 0.76 7 74.2
02/11/19 15.2 18.3 0.0 0.71 6 76.2
01/11/19 9.4 15.7 0.0 0.73 5 84.8
31/10/19 8.0 11.3 0.0 0.65 4 116.7
30/10/19 9.4 10.7 0.0 0.66 3 134.1
29/10/19 10.6 12.6 0.0 0.64 2 147.9
28/10/19 13.1 12.6 0.0 0.65 1 147.5
27/10/19 16.2 21.1 0.3 0.64 0 148.8
26/10/19 20.4 18.7 0.0 0.52 1 145.9
25/10/19 17.4 15.4 0.6 0.56 0 106.6
24/10/19 17.9 14.6 0.0 0.61 4 79.1
23/10/19 19.1 8.9 0.0 0.69 3 59.5
22/10/19 16.2 13.7 0.0 0.69 2 72.4
21/10/19 20.9 13.9 0.0 0.65 1 76.2
20/10/19 15.9 8.7 0.3 0.85 0 104.8
19/10/19 16.4 15.6 6.9 0.69 0 147.2
18/10/19 19.6 36.5 18.9 0.64 0 201.6
17/10/19 19.9 14.8 0.6 0.62 0 141.2
16/10/19 16.6 15.9 0.0 0.66 4 159.6
15/10/19 28.4 12.2 0.0 0.43 3 150.1
14/10/19 24.1 14.6 0.0 0.53 2 120.6
13/10/19 24.3 15.9 0.0 0.58 1 89.6
12/10/19 20.3 16.3 5.1 0.59 0 73.8
11/10/19 16.6 20.9 8.4 0.64 0 81.6
10/10/19 12.3 19.8 0.0 0.79 9 100.8
09/10/19 15.3 22.0 0.0 0.67 8 94.9
08/10/19 13.5 18.9 0.0 0.81 7 81.2
07/10/19 14.0 10.7 0.0 0.56 6 112.6
06/10/19 11.4 10.4 0.0 0.68 5 96.6
05/10/19 12.9 18.9 0.0 0.65 4 114.1
04/10/19 10.9 12.2 0.0 0.78 3 101.1
03/10/19 13.7 25.0 0.0 0.84 2 94.6
02/10/19 14.9 30.6 0.0 0.58 1 84.0
01/10/19 17.4 19.4 1.8 0.82 0 89.1
30/09/19 19.9 18.5 0.3 0.68 0 39.5
29/09/19 19.9 11.1 0.0 0.85 2 50.2
28/09/19 17.5 12.0 0.0 0.97 1 65.1
27/09/19 16.7 12.8 0.3 0.94 0 120.5
26/09/19 27.8 13.0 0.0 0.56 1 210.2
25/09/19 19.3 11.5 10.2 0.76 0 207.5
24/09/19 24.2 10.7 0.0 0.44 7 242.5
23/09/19 17.0 12.0 0.0 0.49 6 244.5
22/09/19 28.9 10.7 0.0 0.32 5 219.9
21/09/19 25.6 11.5 0.0 0.35 4 161.1
20/09/19 19.3 13.1 0.0 0.37 3 214.3
19/09/19 15.6 18.5 0.0 0.51 2 214.5
18/09/19 15.9 21.3 0.0 0.49 1 181.4
17/09/19 16.4 32.4 1.2 0.62 0 199.9
16/09/19 15.5 15.6 12.6 0.93 0 178.2
15/09/19 25.6 20.2 0.0 0.22 2 242.7
14/09/19 20.9 14.3 0.0 0.46 1 156.3
13/09/19 21.6 18.9 1.5 0.62 0 165.5
12/09/19 25.1 12.2 0.9 0.54 0 147.0
11/09/19 23.4 18.7 2.7 0.36 0 196.8
10/09/19 21.1 22.4 0.0 0.43 2 235.6
09/09/19 15.2 12.0 0.0 0.57 1 263.6
08/09/19 19.4 14.4 0.9 0.54 0 292.2
07/09/19 17.0 11.9 3.6 0.53 0 329.1
06/09/19 21.9 15.0 0.0 0.35 1 398.2
05/09/19 21.6 25.6 0.3 0.46 0 417.5
04/09/19 25.4 23.5 0.0 0.39 6 390.9
03/09/19 20.9 17.8 0.0 0.46 5 258.5
02/09/19 22.4 17.8 0.0 0.42 4 210.1
01/09/19 24.8 26.9 0.0 0.53 3 153.3
31/08/19 34.6 10.0 0.0 0.35 2 184.3
30/08/19 28.5 11.3 0.0 0.56 1 231.0
29/08/19 28.7 15.0 7.2 0.53 0 287.7
28/08/19 35.8 14.8 2.7 0.32 0 438.9
27/08/19 34.1 12.6 6.0 0.40 0 494.7
26/08/19 33.8 16.5 0.0 0.36 8 545.1
25/08/19 31.8 15.6 0.0 0.45 7 497.0
24/08/19 29.8 14.3 0.0 0.35 6 495.8
23/08/19 31.6 15.9 0.0 0.25 5 336.7
22/08/19 29.8 14.4 0.0 0.27 4 296.0
21/08/19 25.0 17.4 0.0 0.37 3 289.5
20/08/19 25.4 15.9 0.0 0.38 2 136.7
19/08/19 26.0 19.3 0.0 0.38 1 222.5
18/08/19 26.7 54.1 13.5 0.58 0 267.2
17/08/19 27.4 16.5 0.0 0.41 2 216.2
16/08/19 25.4 20.9 0.0 0.39 1 359.9
15/08/19 22.8 16.7 6.6 0.46 0 381.9
14/08/19 24.8 17.6 0.0 0.36 2 367.2
13/08/19 22.9 22.2 0.0 0.41 1 437.9
12/08/19 28.1 15.0 3.0 0.33 0 484.9
11/08/19 29.4 22.6 0.0 0.28 1 533.7
10/08/19 27.3 21.9 0.3 0.44 0 455.5
09/08/19 30.7 14.4 4.2 0.39 0 445.6
08/08/19 28.5 26.9 0.3 0.32 0 366.7
07/08/19 26.2 22.2 0.0 0.45 2 303.2
06/08/19 28.3 19.3 0.0 0.42 1 288.0
05/08/19 29.1 12.2 0.6 0.43 0 276.2
04/08/19 25.7 11.5 0.3 0.47 0 337.3
03/08/19 27.1 18.0 19.2 0.44 0 244.3
02/08/19 28.7 16.5 0.0 0.41 4 224.3
01/08/19 27.9 14.1 0.0 0.35 3 253.6
31/07/19 29.1 16.1 0.0 0.42 2 285.6
30/07/19 31.4 13.1 0.0 0.36 1 452.5
29/07/19 23.7 13.1 9.9 0.78 0 516.0
28/07/19 30.5 15.4 4.5 0.45 0 669.6
27/07/19 30.1 19.3 0.0 0.35 6 778.4
26/07/19 32.9 15.2 0.0 0.33 5 749.1
25/07/19 39.3 15.6 0.0 0.25 4 567.8
24/07/19 38.5 13.5 0.0 0.26 3 454.0
23/07/19 36.8 14.1 0.0 0.30 2 415.9
22/07/19 30.9 24.1 0.0 0.35 1 353.3
21/07/19 27.8 18.5 0.3 0.43 0 303.6
20/07/19 33.0 16.9 16.5 0.36 0 286.1
19/07/19 28.0 12.6 0.3 0.44 0 266.4
18/07/19 29.6 17.8 0.0 0.33 3 216.1
17/07/19 27.9 13.5 0.0 0.40 2 203.1
16/07/19 16.8 17.0 0.0 0.81 1 141.4
15/07/19 15.8 14.8 0.6 0.53 0 176.1
14/07/19 18.2 14.1 0.3 0.72 0 151.2
13/07/19 20.1 16.7 1.2 0.81 0 142.2
12/07/19 27.2 21.9 0.9 0.45 0 193.0
11/07/19 24.4 12.2 2.1 0.54 0 65.2
10/07/19 23.2 15.4 0.3 0.45 0 169.7
09/07/19 18.3 15.4 2.7 0.58 0 216.4
08/07/19 18.4 21.9 7.8 0.55 0 293.0
07/07/19 20.2 23.7 0.0 0.48 1 447.4
06/07/19 28.5 27.0 11.1 0.40 0 558.5
05/07/19 27.2 25.6 0.0 0.34 4 521.3
04/07/19 26.0 17.8 0.0 0.32 3 398.0
03/07/19 23.6 20.2 0.0 0.35 2 316.5
02/07/19 23.6 27.6 0.0 0.32 1 342.1
01/07/19 28.8 25.4 0.3 0.36 0 284.8
21/06/19 16.5 4.6 0.0 0.96 1 104.6
20/06/19 27.2 20.2 12.6 0.49 0 243.9
19/06/19 34.8 24.3 15.6 0.29 0 386.6
18/06/19 32.8 15.7 0.0 0.34 2 394.9
17/06/19 28.4 12.2 0.0 0.44 1 343.7
16/06/19 23.1 14.6 5.1 0.59 0 301.3
15/06/19 29.7 25.4 0.0 0.45 3 352.5
14/06/19 31.0 15.4 0.0 0.25 2 308.3
13/06/19 26.8 16.1 0.0 0.38 1 203.7
12/06/19 21.4 11.1 3.6 0.41 0 149.2
11/06/19 26.9 14.3 10.8 0.52 0 220.4
10/06/19 28.1 13.3 0.0 0.41 2 292.4
09/06/19 25.9 16.1 0.0 0.32 1 295.2
08/06/19 21.8 22.0 4.2 0.36 0 194.6
07/06/19 28.5 28.7 10.5 0.37 0 310.7
06/06/19 25.4 20.9 0.0 0.47 2 366.9
05/06/19 32.7 14.8 0.0 0.41 1 352.1
04/06/19 28.6 15.9 0.3 0.49 0 385.8
03/06/19 34.0 21.5 13.5 0.31 0 417.9
02/06/19 32.4 15.6 0.0 0.30 4 326.5
01/06/19 29.5 19.8 0.0 0.38 3 219.5
31/05/19 27.4 15.6 0.0 0.49 2 189.6
30/05/19 21.7 20.2 0.0 0.45 1 150.3
29/05/19 19.1 16.5 0.3 0.41 0 215.2
28/05/19 18.7 12.2 16.2 0.53 0 260.8
27/05/19 22.5 18.3 2.1 0.47 0 315.1
26/05/19 23.4 21.3 0.0 0.41 5 257.5
25/05/19 15.8 14.8 0.0 0.63 4 220.5
24/05/19 25.6 18.9 0.0 0.35 3 266.9
23/05/19 24.5 17.0 0.0 0.23 2 233.3
22/05/19 16.9 22.4 0.0 0.58 1 174.3
21/05/19 18.6 22.2 5.4 0.85 0 119.6
20/05/19 23.4 24.4 51.0 0.59 0 179.3
19/05/19 25.2 16.9 0.0 0.38 1 205.6
18/05/19 21.5 19.1 0.3 0.51 0 199.0
17/05/19 16.4 13.9 0.0 0.57 1 212.3
16/05/19 9.3 15.4 14.1 0.47 0 157.5
15/05/19 14.2 21.9 0.0 0.36 3 154.1
14/05/19 15.0 20.7 0.0 0.37 2 107.8
13/05/19 16.7 22.8 0.0 0.29 1 62.4
12/05/19 14.5 20.2 0.3 0.43 0 37.9
11/05/19 9.8 17.8 6.6 0.64 0 55.5
10/05/19 17.4 21.5 3.6 0.56 0 102.6
09/05/19 20.9 17.8 2.7 0.42 0 75.8
08/05/19 16.6 18.3 3.6 0.35 0 105.8
07/05/19 16.7 22.2 2.7 0.34 0 111.1
06/05/19 19.7 20.0 0.6 0.45 0 144.0
05/05/19 13.2 18.1 0.9 0.39 0 162.9
04/05/19 11.3 25.7 5.7 0.45 0 106.2
03/05/19 11.8 21.3 0.3 0.44 0 93.6
02/05/19 16.0 22.8 1.8 0.60 0 77.2
01/05/19 20.3 22.8 0.0 0.44 1 61.7
30/04/19 18.2 19.1 0.3 0.55 0 111.6
29/04/19 9.4 19.8 5.4 0.83 0 78.4
28/04/19 15.5 15.0 1.8 0.50 0 152.3
27/04/19 19.6 21.3 5.4 0.47 0 250.8
26/04/19 20.3 18.7 8.4 0.38 0 332.5
25/04/19 26.3 14.6 0.9 0.24 0 399.6
24/04/19 27.7 18.7 1.5 0.27 0 461.8
23/04/19 20.1 24.1 0.0 0.44 8 499.3
22/04/19 21.4 24.8 0.0 0.25 7 510.3
21/04/19 23.2 18.9 0.0 0.25 6 472.1
20/04/19 23.0 20.9 0.0 0.27 5 424.2
19/04/19 22.5 21.7 0.0 0.26 4 304.2
18/04/19 20.5 22.2 0.0 0.25 3 249.4
17/04/19 18.1 23.3 0.0 0.22 2 177.6
16/04/19 16.8 22.8 0.0 0.34 1 128.2
15/04/19 13.8 16.9 0.3 0.37 0 97.7
14/04/19 3.4 11.1 9.0 0.85 0 91.4
13/04/19 5.3 14.4 12.0 0.75 0 157.2
12/04/19 5.2 13.9 0.3 0.62 0 203.6
11/04/19 9.0 20.9 0.0 0.44 6 245.3
10/04/19 10.3 20.0 0.0 0.44 5 218.0
09/04/19 12.8 17.2 0.0 0.48 4 193.2
08/04/19 20.7 18.9 0.0 0.30 3 161.6
07/04/19 19.7 18.3 0.0 0.42 2 136.4
06/04/19 20.4 16.5 0.0 0.43 1 125.6
05/04/19 8.2 8.9 0.3 0.97 0 106.3
04/04/19 8.8 13.3 0.3 0.86 0 186.5
03/04/19 17.3 20.9 6.3 0.53 0 231.1
02/04/19 19.7 13.3 0.6 0.34 0 237.9
01/04/19 12.1 20.0 0.0 0.31 6 228.3
31/03/19 12.3 18.3 0.0 0.49 5 201.1
30/03/19 20.8 23.3 0.0 0.33 4 160.8
29/03/19 19.1 14.3 0.0 0.43 3 105.8
28/03/19 13.3 17.0 0.0 0.62 2 103.4
27/03/19 11.3 20.9 0.0 0.56 1 113.0
26/03/19 6.7 23.1 0.3 0.72 0 139.6
25/03/19 6.6 27.0 6.9 0.66 0 168.6
24/03/19 13.2 16.9 0.0 0.56 1 191.1
23/03/19 17.8 16.7 0.3 0.49 0 197.0
22/03/19 19.5 15.2 0.6 0.56 0 162.4
21/03/19 19.4 15.7 0.0 0.44 3 135.2
20/03/19 15.1 18.0 0.0 0.42 2 94.6
19/03/19 9.1 23.3 0.0 0.49 1 57.9
18/03/19 8.3 30.6 0.6 0.56 0 29.4
17/03/19 9.3 33.0 4.5 0.73 0 10.4
16/03/19 9.8 27.0 4.5 0.69 0 10.1
15/03/19 10.0 37.2 6.0 0.62 0 11.6
14/03/19 6.2 32.8 26.4 0.81 0 3.9
13/03/19 7.9 35.4 12.6 0.52 0 12.1
12/03/19 8.6 21.5 1.2 0.36 0 15.4
11/03/19 3.3 33.2 13.2 0.79 0 28.2
10/03/19 8.0 48.5 13.2 0.77 0 8.0
09/03/19 14.6 47.2 12.6 0.40 0 56.0
08/03/19 8.2 29.8 5.7 0.68 0 43.9
07/03/19 13.9 26.9 2.1 0.48 0 67.2
06/03/19 12.6 18.0 0.6 0.53 0 45.0
05/03/19 6.8 24.3 6.6 0.66 0 69.4
04/03/19 12.3 51.7 9.3 0.61 0 143.8
03/03/19 10.7 21.9 0.9 0.78 0 172.7
02/03/19 7.8 13.5 0.0 0.72 1 205.5
01/03/19 8.8 22.4 1.2 0.81 0 241.2
28/02/19 13.7 21.1 0.6 0.34 0 251.1
27/02/19 21.1 15.0 0.0 0.19 4 211.5
26/02/19 20.1 12.2 0.0 0.16 3 149.8
25/02/19 21.4 10.6 0.0 0.18 2 118.9
24/02/19 16.5 13.3 0.0 0.20 1 101.2
23/02/19 9.7 11.1 0.3 0.45 0 104.5
22/02/19 8.2 18.9 1.8 0.76 0 148.8
21/02/19 11.2 18.3 1.8 0.66 0 218.8
20/02/19 10.3 16.9 0.0 0.57 1 248.1
19/02/19 10.4 24.8 0.3 0.56 0 265.6
18/02/19 20.1 11.9 0.0 0.21 6 251.9
17/02/19 18.9 15.9 0.0 0.22 5 227.2
16/02/19 19.8 18.1 0.0 0.20 4 172.2
15/02/19 20.2 9.8 0.0 0.21 3 104.5
14/02/19 16.2 12.8 0.0 0.22 2 66.9
13/02/19 7.3 15.9 0.0 0.76 1 43.7
12/02/19 7.0 23.7 0.6 0.57 0 61.8
11/02/19 5.7 32.0 4.5 0.64 0 76.7
10/02/19 8.1 23.9 27.6 0.70 0 86.9
09/02/19 8.4 27.8 8.7 0.58 0 111.6
08/02/19 7.0 24.1 0.3 0.70 0 103.1
07/02/19 7.4 19.8 0.0 0.34 3 92.7
06/02/19 7.6 22.0 0.0 0.46 2 70.7
05/02/19 4.3 20.9 0.0 0.55 1 57.1
04/02/19 3.9 28.7 0.3 0.54 0 45.8
03/02/19 1.6 19.8 3.6 0.77 0 37.7
02/02/19 1.7 8.3 0.9 0.90 0 34.6
01/02/19 7.6 7.2 0.0 0.61 1 34.5
31/01/19 6.4 11.7 0.3 0.46 0 27.6
30/01/19 2.9 9.8 0.0 0.64 1 23.6
29/01/19 3.7 20.6 0.3 0.69 0 19.0
28/01/19 3.1 28.7 2.1 0.78 0 17.6
27/01/19 5.9 19.1 12.6 0.81 0 27.8
26/01/19 5.1 23.3 29.7 0.86 0 27.6
25/01/19 -0.4 18.9 0.0 0.68 6 34.2
24/01/19 -3.7 6.9 0.0 0.73 5 31.9
23/01/19 -3.7 13.3 0.0 0.67 4 44.7
22/01/19 5.0 11.3 0.0 0.35 3 24.3
21/01/19 -8.1 0.0 0.0 0.81 2 18.2
20/01/19 4.0 3.5 0.0 0.55 1 17.1
19/01/19 4.7 8.7 0.3 0.61 0 13.5
18/01/19 4.2 23.5 0.3 0.60 0 23.2
17/01/19 5.1 23.0 9.9 0.74 0 11.2
16/01/19 5.5 20.4 0.0 0.79 1 8.7
15/01/19 5.5 25.0 1.2 0.73 0 10.3
14/01/19 5.5 44.1 1.2 0.66 0 28.8
13/01/19 7.5 46.1 17.4 0.77 0 11.6
12/01/19 5.1 31.7 10.8 0.83 0 18.4
11/01/19 5.2 21.5 4.8 0.83 0 7.5
10/01/19 1.8 13.3 0.0 0.77 2 17.2
09/01/19 1.6 33.3 0.0 0.76 1 12.0
08/01/19 5.8 38.2 18.3 0.82 0 13.5
07/01/19 5.3 20.7 7.5 0.91 0 33.8
06/01/19 5.4 17.8 5.7 0.98 0 32.9
05/01/19 6.6 29.4 11.1 0.93 0 36.0
04/01/19 4.6 20.9 3.3 0.74 0 40.9
03/01/19 4.8 13.5 0.0 0.60 2 53.8
02/01/19 3.0 31.5 0.0 0.51 1 57.2
01/01/19 11.6 41.3 2.1 0.70 0 74.8
31/12/18 11.6 7.2 0.0 0.90 5 70.2
30/12/18 8.8 7.2 0.0 0.90 4 72.9
29/12/18 7.1 12.2 0.0 0.37 3 64.6
28/12/18 7.3 10.7 0.0 0.37 2 53.8
27/12/18 7.0 16.7 0.0 0.25 1 33.3
26/12/18 5.1 17.2 0.6 0.76 0 13.0
25/12/18 4.4 16.3 0.6 0.79 0 10.6
24/12/18 4.2 24.3 8.7 0.86 0 24.3
23/12/18 6.5 16.5 18.9 0.87 0 30.3
22/12/18 8.2 29.1 24.6 0.82 0 37.0
21/12/18 10.6 28.9 18.0 0.76 0 49.3
20/12/18 6.7 13.9 0.6 0.82 0 46.1
19/12/18 5.9 18.9 0.0 0.50 1 44.7
18/12/18 4.9 15.0 0.3 0.75 0 28.1
17/12/18 4.8 15.4 0.3 0.84 0 21.6
16/12/18 9.6 12.6 0.0 0.66 4 21.4
15/12/18 -0.9 8.0 0.0 0.70 3 10.1
14/12/18 0.3 11.1 0.0 0.82 2 6.4
13/12/18 0.9 13.3 0.0 0.89 1 2.9
12/12/18 2.7 15.9 2.1 0.80 0 2.4
11/12/18 4.1 28.3 1.2 0.76 0 5.6
10/12/18 4.8 29.6 3.0 0.76 0 17.4
09/12/18 7.4 31.1 13.5 0.79 0 4.5
08/12/18 7.0 21.5 13.8 0.81 0 14.0
07/12/18 11.0 37.2 8.4 0.85 0 4.9
06/12/18 10.3 20.0 2.1 0.82 0 14.5
05/12/18 6.2 15.7 0.3 0.62 0 44.7
04/12/18 10.3 24.6 7.8 0.68 0 75.4
03/12/18 11.9 17.6 12.6 0.80 0 83.2
02/12/18 11.9 20.2 11.4 0.79 0 85.4
01/12/18 7.7 20.6 0.0 0.77 2 81.9
30/11/18 9.2 19.4 0.0 0.48 1 71.6
29/11/18 11.1 22.8 0.6 0.41 0 46.5
28/11/18 4.6 18.1 0.6 0.64 0 17.3
27/11/18 0.9 8.3 0.0 0.86 1 9.8
26/11/18 3.3 11.9 5.7 0.97 0 9.3
25/11/18 7.1 9.4 0.6 0.97 0 14.8
24/11/18 2.4 15.4 7.2 0.85 0 10.2
23/11/18 11.2 13.1 0.0 0.82 3 12.1
22/11/18 1.4 9.3 0.0 0.92 2 5.4
21/11/18 0.6 14.1 0.0 0.90 1 4.5
20/11/18 1.0 24.4 0.3 0.84 0 8.0
19/11/18 2.8 18.7 8.7 0.50 0 8.6
18/11/18 0.0 0.0 1.5 0.50 0 3.2
17/11/18 0.0 0.0 0.6 0.50 0 32.8
16/11/18 8.7 0.0 0.0 0.50 3 5.2
15/11/18 8.7 0.0 0.0 0.50 2 27.0
14/11/18 8.7 0.0 0.0 0.50 1 35.1
13/11/18 13.5 27.2 6.0 0.50 0 61.0
12/11/18 17.5 16.7 0.9 0.55 0 125.7
11/11/18 14.7 17.8 6.0 0.68 0 135.8
10/11/18 15.6 15.0 0.0 0.55 11 144.3
09/11/18 16.8 7.2 0.0 0.67 10 123.3
08/11/18 15.6 12.4 0.0 0.68 9 122.7
07/11/18 21.6 14.8 0.0 0.36 8 128.4
06/11/18 20.6 14.8 0.0 0.53 7 90.1
05/11/18 13.9 5.9 0.0 0.79 6 92.9
04/11/18 15.0 6.7 0.0 0.83 5 50.5
03/11/18 12.0 9.1 0.0 0.63 4 83.1
02/11/18 12.1 19.4 0.0 0.62 3 72.6
01/11/18 11.7 13.0 0.0 0.68 2 75.9
31/10/18 14.6 20.9 0.0 0.46 1 38.4
30/10/18 12.2 27.0 5.7 0.69 0 7.9
29/10/18 3.6 17.0 9.3 0.97 0 0.3
28/10/18 4.0 14.3 1.8 0.90 0 1.2
27/10/18 8.4 20.7 0.3 0.45 0 25.1
26/10/18 11.4 16.1 6.6 0.60 0 23.0
25/10/18 11.8 27.0 1.5 0.85 0 48.4
24/10/18 12.9 37.2 6.9 0.45 0 63.1
23/10/18 10.9 33.3 1.8 0.82 0 62.4
22/10/18 13.9 15.9 5.1 0.75 0 95.8
21/10/18 17.2 9.8 0.0 0.55 2 126.8
20/10/18 16.2 14.8 0.0 0.53 1 174.1
19/10/18 17.5 9.8 1.2 0.54 0 231.5
18/10/18 16.2 13.3 0.0 0.76 8 325.5
17/10/18 24.0 12.2 0.0 0.49 7 385.1
16/10/18 25.5 9.8 0.0 0.48 6 415.7
15/10/18 29.7 11.1 0.0 0.29 5 417.0
14/10/18 31.3 11.1 0.0 0.26 4 383.2
13/10/18 30.2 14.8 0.0 0.25 3 345.1
12/10/18 29.0 13.5 0.0 0.33 2 277.7
11/10/18 27.6 13.3 0.0 0.30 1 257.8
10/10/18 25.2 10.9 0.3 0.49 0 225.1
09/10/18 24.6 10.2 0.0 0.48 7 207.7
08/10/18 21.1 13.3 0.0 0.43 6 213.0
07/10/18 18.2 18.1 0.0 0.62 5 135.1
06/10/18 26.2 13.1 0.0 0.40 4 105.5
05/10/18 25.7 8.5 0.0 0.34 3 110.6
04/10/18 13.8 15.4 0.0 0.77 2 116.8
03/10/18 13.5 33.2 0.0 0.62 1 188.1
02/10/18 11.0 25.7 7.2 0.52 0 229.7
01/10/18 13.5 29.1 1.5 0.67 0 283.4
30/09/18 22.4 14.1 0.0 0.22 6 312.2
29/09/18 19.1 15.4 0.0 0.35 5 214.1
28/09/18 16.2 20.9 0.0 0.42 4 206.6
27/09/18 26.8 14.8 0.0 0.32 3 161.0
26/09/18 18.9 17.0 0.0 0.33 2 89.3
25/09/18 21.6 13.3 0.0 0.45 1 141.6
24/09/18 14.8 32.6 6.9 0.63 0 246.6
23/09/18 11.1 27.2 27.3 0.95 0 342.0
22/09/18 17.4 20.0 3.6 0.50 0 430.6
21/09/18 26.4 31.1 6.0 0.42 0 527.8
20/09/18 28.9 20.9 0.0 0.38 6 547.9
19/09/18 30.4 23.1 0.0 0.35 5 501.0
18/09/18 32.4 14.6 0.0 0.24 4 369.9
17/09/18 29.2 11.7 0.0 0.26 3 386.4
16/09/18 26.1 16.5 0.0 0.32 2 432.8
15/09/18 22.1 20.9 0.0 0.50 1 451.6
14/09/18 23.8 15.9 0.3 0.39 0 454.2
13/09/18 14.0 12.2 3.0 0.95 0 469.2
12/09/18 28.9 25.4 0.0 0.38 4 539.6
11/09/18 27.7 23.3 0.0 0.32 3 346.1
10/09/18 28.0 18.1 0.0 0.30 2 287.8
09/09/18 26.3 13.3 0.0 0.35 1 289.5
08/09/18 23.5 18.1 0.3 0.32 0 281.2
07/09/18 24.5 20.7 0.0 0.47 1 305.5
06/09/18 29.2 23.7 18.9 0.38 0 328.5
05/09/18 26.1 16.5 0.0 0.46 5 343.8
04/09/18 28.9 20.6 0.0 0.40 4 232.8
03/09/18 26.7 13.0 0.0 0.43 3 133.6
02/09/18 20.3 13.9 0.0 0.59 2 150.2
01/09/18 22.8 16.1 0.0 0.42 1 165.8
31/08/18 21.4 16.9 0.3 0.42 0 242.8
30/08/18 21.2 27.0 12.0 0.55 0 213.3
29/08/18 31.9 17.0 1.8 0.26 0 252.3
28/08/18 25.4 16.5 0.0 0.35 3 358.3
27/08/18 21.3 15.7 0.0 0.45 2 410.1
26/08/18 23.4 19.6 0.0 0.29 1 435.0
25/08/18 19.2 28.7 1.8 0.43 0 423.4
24/08/18 22.6 23.3 3.0 0.32 0 577.6
23/08/18 33.8 22.4 0.0 0.31 9 691.2
22/08/18 33.6 15.7 0.0 0.25 8 643.5
21/08/18 28.4 15.0 0.0 0.40 7 649.6
20/08/18 23.8 15.6 0.0 0.64 6 636.4
19/08/18 32.3 19.3 0.0 0.21 5 545.1
18/08/18 29.9 24.4 0.0 0.28 4 515.3
17/08/18 29.1 24.8 0.0 0.42 3 475.3
16/08/18 32.6 19.1 0.0 0.31 2 358.7
15/08/18 26.8 14.8 0.0 0.45 1 392.3
14/08/18 21.8 13.5 6.3 0.68 0 234.8
13/08/18 31.7 16.7 0.0 0.24 2 469.8
12/08/18 30.3 15.6 0.0 0.19 1 597.8
11/08/18 24.5 29.6 1.2 0.31 0 695.4
10/08/18 26.4 21.3 0.3 0.27 0 849.1
09/08/18 33.8 15.0 5.7 0.33 0 910.8
08/08/18 36.5 27.4 0.0 0.28 7 1029.7
07/08/18 39.0 20.6 0.0 0.14 6 894.7
06/08/18 33.4 17.2 0.0 0.18 5 756.8
05/08/18 27.7 22.4 0.0 0.34 4 912.4
04/08/18 33.2 20.2 0.0 0.35 3 934.6
03/08/18 34.9 20.9 0.0 0.37 2 948.8
02/08/18 32.7 18.3 0.0 0.41 1 652.2
01/08/18 30.9 18.5 0.9 0.33 0 682.1
31/07/18 39.6 24.3 0.0 0.14 2 738.1
30/07/18 37.9 13.1 0.0 0.23 1 620.1
29/07/18 34.0 18.9 0.6 0.26 0 768.7
28/07/18 36.6 32.4 9.0 0.27 0 819.3
27/07/18 34.1 17.4 0.0 0.26 4 726.6
26/07/18 34.7 20.4 0.0 0.27 3 665.8
25/07/18 36.1 20.9 0.0 0.26 2 598.6
24/07/18 35.1 16.7 0.0 0.29 1 528.5
23/07/18 32.3 15.6 0.3 0.32 0 517.6
22/07/18 31.3 19.3 3.9 0.42 0 651.9
21/07/18 30.4 12.8 0.0 0.30 9 732.4
20/07/18 30.8 15.4 0.0 0.28 8 747.2
19/07/18 28.8 20.0 0.0 0.27 7 714.2
18/07/18 27.2 26.5 0.0 0.35 6 686.0
17/07/18 32.7 24.1 0.0 0.22 5 561.0
16/07/18 31.9 18.3 0.0 0.29 4 410.6
15/07/18 27.7 18.0 0.0 0.30 3 287.0
14/07/18 26.6 18.0 0.0 0.47 2 281.1
13/07/18 28.3 19.8 0.0 0.42 1 302.9
12/07/18 27.3 20.9 3.0 0.44 0 360.8
11/07/18 23.6 12.2 0.3 0.49 0 414.7
10/07/18 16.7 15.4 2.4 0.71 0 507.2
09/07/18 25.9 23.3 0.0 0.43 13 666.7
08/07/18 27.8 18.1 0.0 0.34 12 696.8
07/07/18 26.2 24.1 0.0 0.36 11 714.8
06/07/18 24.7 22.8 0.0 0.32 10 711.9
05/07/18 31.3 20.6 0.0 0.36 9 711.0
04/07/18 32.8 20.0 0.0 0.22 8 718.2
03/07/18 31.0 16.9 0.0 0.21 7 658.2
02/07/18 25.8 20.9 0.0 0.22 6 602.3
01/07/18 24.1 22.0 0.0 0.22 5 493.3
30/06/18 25.1 20.2 0.0 0.25 4 426.9
29/06/18 29.9 21.5 0.0 0.29 3 329.6
28/06/18 27.4 20.9 0.0 0.37 2 200.1
27/06/18 26.1 15.0 0.0 0.36 1 103.2
26/06/18 23.8 13.3 1.5 0.52 0 56.2
25/06/18 21.5 18.3 0.6 0.60 0 118.0
24/06/18 15.8 14.6 2.7 0.70 0 133.2
23/06/18 14.6 23.3 2.1 0.69 0 208.5
22/06/18 18.2 29.8 9.9 0.52 0 310.4
21/06/18 25.1 34.3 5.4 0.44 0 425.8
20/06/18 30.4 15.0 0.0 0.38 5 390.0
19/06/18 26.5 13.5 0.0 0.52 4 393.7
18/06/18 26.4 18.5 0.0 0.44 3 374.0
17/06/18 26.2 22.0 0.0 0.37 2 325.2
16/06/18 30.3 15.9 0.0 0.31 1 275.3
15/06/18 23.8 13.3 2.4 0.56 0 236.5
14/06/18 25.1 20.0 0.0 0.33 7 312.3
13/06/18 16.9 18.9 0.0 0.64 6 296.2
12/06/18 17.9 15.0 0.0 0.62 5 322.3
11/06/18 23.8 13.7 0.0 0.44 4 352.7
10/06/18 25.8 16.1 0.0 0.63 3 350.5
09/06/18 31.8 14.1 0.0 0.35 2 365.1
08/06/18 30.5 12.2 0.0 0.34 1 323.6
07/06/18 29.3 11.9 0.9 0.45 0 272.1
06/06/18 26.5 13.9 0.0 0.43 5 204.2
05/06/18 24.2 14.3 0.0 0.49 4 219.8
04/06/18 26.6 16.5 0.0 0.52 3 250.3
03/06/18 26.9 11.5 0.0 0.44 2 273.3
02/06/18 22.6 12.4 0.0 0.71 1 316.7
01/06/18 26.9 10.4 20.1 0.63 0 357.1
10/05/18 28.2 14.6 0.9 0.36 0 409.3
09/05/18 26.7 18.3 0.0 0.41 12 396.2
08/05/18 25.6 18.0 0.0 0.33 11 368.9
07/05/18 24.4 17.2 0.0 0.33 10 331.7
06/05/18 23.0 15.2 0.0 0.39 9 321.8
05/05/18 20.3 17.2 0.0 0.25 8 332.0
04/05/18 18.9 17.4 0.0 0.39 7 338.0
03/05/18 17.7 18.7 0.0 0.35 6 346.7
02/05/18 18.3 15.0 0.0 0.32 5 339.5
01/05/18 16.2 23.5 0.0 0.29 4 295.7
30/04/18 20.1 21.7 0.0 0.38 3 233.4
29/04/18 24.9 12.8 0.0 0.15 2 206.6
28/04/18 20.9 18.3 0.0 0.38 1 137.3
27/04/18 18.8 14.8 0.6 0.33 0 80.3
26/04/18 14.9 22.2 2.4 0.55 0 105.1
25/04/18 17.9 35.9 2.4 0.61 0 212.0
24/04/18 18.5 17.6 0.0 0.50 1 240.0
23/04/18 21.2 27.8 3.3 0.46 0 306.9
22/04/18 28.7 20.4 8.7 0.37 0 370.9
21/04/18 22.5 17.0 0.0 0.45 5 342.2
20/04/18 30.2 14.8 0.0 0.25 4 290.4
19/04/18 27.6 12.0 0.0 0.37 3 194.3
18/04/18 26.1 16.7 0.0 0.40 2 137.6
17/04/18 24.6 16.7 0.0 0.34 1 94.9
16/04/18 19.9 11.1 2.7 0.58 0 10.8
15/04/18 19.6 14.8 2.4 0.65 0 56.7
14/04/18 18.1 22.2 4.2 0.61 0 134.4
13/04/18 16.2 22.2 25.2 0.79 0 193.6
12/04/18 20.2 14.8 0.3 0.63 0 287.0
11/04/18 16.6 14.8 9.9 0.69 0 307.7
10/04/18 22.0 16.7 0.0 0.49 5 349.6
09/04/18 25.1 14.8 0.0 0.24 4 261.0
08/04/18 25.3 14.8 0.0 0.25 3 235.9
07/04/18 25.8 13.0 0.0 0.15 2 187.2
06/04/18 15.8 14.8 0.0 0.23 1 125.8
05/04/18 13.7 33.3 0.6 0.59 0 113.9
04/04/18 21.9 20.4 6.3 0.38 0 132.3
03/04/18 20.0 18.5 0.0 0.45 1 111.2
02/04/18 12.6 14.8 0.3 0.45 0 62.8
01/04/18 5.4 20.4 0.0 0.65 1 68.4
31/03/18 6.7 11.1 5.7 0.53 0 83.5
30/03/18 15.4 16.7 0.3 0.33 0 102.3
29/03/18 8.3 31.5 1.8 0.62 0 86.5
28/03/18 9.4 13.0 6.9 0.77 0 93.3
27/03/18 10.3 11.1 0.6 0.44 0 90.9
26/03/18 10.0 20.4 0.0 0.49 1 98.7
25/03/18 11.3 14.8 0.3 0.44 0 72.2
24/03/18 9.5 9.3 0.0 0.54 2 70.4
23/03/18 12.4 13.0 0.0 0.53 1 78.0
22/03/18 3.9 22.2 2.7 0.68 0 73.6
21/03/18 7.4 16.7 0.0 0.35 1 73.9
20/03/18 4.6 24.1 1.2 0.41 0 86.6
19/03/18 1.5 18.5 0.0 0.27 1 75.5
18/03/18 -1.3 25.9 0.3 0.34 0 56.1
17/03/18 -4.1 24.1 0.0 0.60 1 38.3
16/03/18 2.4 20.4 0.6 0.83 0 54.8
15/03/18 11.2 16.7 0.6 0.46 0 49.8
14/03/18 4.8 13.0 1.2 0.67 0 50.6
13/03/18 10.2 25.9 6.0 0.78 0 30.6
12/03/18 10.8 14.8 13.2 0.80 0 44.1
11/03/18 18.1 13.0 0.0 0.52 1 42.6
10/03/18 17.2 13.0 4.2 0.58 0 55.1
09/03/18 10.1 18.5 0.0 0.54 1 87.5
08/03/18 10.2 24.1 17.1 0.54 0 89.3
07/03/18 10.8 14.8 0.3 0.59 0 92.2
06/03/18 7.5 9.3 1.2 0.47 0 95.8
05/03/18 13.7 16.7 0.9 0.45 0 96.8
04/03/18 11.1 14.8 0.0 0.46 16 89.7
03/03/18 -0.9 20.4 0.0 0.37 15 78.3
02/03/18 -2.6 20.4 0.0 0.40 14 71.4
01/03/18 -3.7 24.1 0.0 0.34 13 75.0
28/02/18 -8.1 18.5 0.0 0.47 12 79.2
27/02/18 -3.7 11.1 0.0 0.43 11 85.5
26/02/18 -3.3 22.2 0.0 0.48 10 90.2
25/02/18 -3.1 14.8 0.0 0.38 9 88.6
24/02/18 0.8 20.4 0.0 0.37 8 88.2
23/02/18 5.6 18.5 0.0 0.42 7 84.1
22/02/18 2.1 20.4 0.0 0.54 6 68.5
21/02/18 3.3 16.7 0.0 0.56 5 67.4
20/02/18 3.6 16.7 0.0 0.62 4 55.0
19/02/18 5.3 11.1 0.0 0.53 3 67.4
18/02/18 8.0 11.1 0.0 0.43 2 73.6
17/02/18 4.6 9.3 0.0 0.69 1 69.5
16/02/18 6.5 16.7 0.3 0.59 0 63.6
15/02/18 2.9 29.6 4.8 0.42 0 68.4
14/02/18 8.2 14.8 0.0 0.27 1 64.2
13/02/18 6.5 16.7 0.6 0.49 0 42.3
12/02/18 3.8 18.5 0.3 0.65 0 32.4
11/02/18 3.2 20.4 3.3 0.67 0 30.1
10/02/18 2.2 13.0 0.6 0.72 0 28.6
09/02/18 0.6 16.7 0.0 0.64 2 25.4
08/02/18 -0.4 7.4 0.0 0.71 1 25.5
07/02/18 1.7 13.0 0.3 0.63 0 13.2
06/02/18 0.8 5.6 0.0 0.61 2 22.4
05/02/18 0.6 11.1 0.0 0.74 1 22.0
04/02/18 1.7 14.8 3.3 0.65 0 20.8
03/02/18 3.6 18.5 0.3 0.70 0 26.0
02/02/18 2.5 18.5 7.8 0.74 0 21.6
01/02/18 5.0 22.2 0.0 0.64 1 20.3
24/01/18 7.0 18.5 0.3 0.91 0 11.9
23/01/18 6.5 18.5 1.5 0.79 0 5.8
22/01/18 4.4 18.5 5.1 0.76 0 7.1
21/01/18 2.4 9.3 0.3 0.85 0 2.0
20/01/18 2.6 11.1 2.1 0.75 0 4.7
19/01/18 3.1 18.5 0.0 0.77 1 17.5
18/01/18 5.2 53.7 81.9 0.73 0 20.4
17/01/18 1.4 13.0 0.3 0.85 0 12.5
16/01/18 4.5 20.4 16.2 0.83 0 14.4
15/01/18 4.5 24.1 6.3 0.65 0 23.3
14/01/18 3.9 13.0 0.0 0.65 2 27.3
13/01/18 4.6 11.1 0.0 0.90 1 24.9
12/01/18 3.0 5.6 0.3 0.92 0 16.1
11/01/18 7.8 7.4 0.0 0.84 2 25.2
10/01/18 7.6 14.8 0.0 0.80 1 21.7
09/01/18 7.1 18.5 0.6 0.82 0 14.5
08/01/18 1.3 14.8 0.0 0.70 1 14.8
07/01/18 3.1 16.7 8.7 0.88 0 8.8
06/01/18 7.5 13.0 0.0 0.71 1 8.8
05/01/18 7.6 25.9 1.8 0.71 0 7.8
04/01/18 8.0 29.6 13.2 0.81 0 4.0
03/01/18 6.8 31.5 35.4 0.76 0 17.4
02/01/18 5.2 16.7 11.4 0.85 0 13.9
01/01/18 11.7 24.1 9.9 0.69 0 19.3
08/12/17 4.9 24.1 2.4 0.73 0 23.1
07/12/17 6.3 24.1 5.4 0.69 0 22.2
06/12/17 6.5 22.2 0.0 0.71 1 21.3
05/12/17 5.7 20.4 4.5 0.83 0 16.7
04/12/17 4.9 24.1 6.3 0.86 0 20.1
03/12/17 1.9 22.2 0.3 0.84 0 18.1
02/12/17 2.3 11.1 1.5 0.84 0 14.4
01/12/17 2.9 7.4 0.0 0.74 3 16.2
30/11/17 2.8 13.0 0.0 0.71 2 12.3
29/11/17 4.6 13.0 0.0 0.79 1 5.6
28/11/17 5.1 24.1 3.3 0.81 0 4.0
27/11/17 7.4 24.1 9.6 0.78 0 21.7
26/11/17 3.2 18.5 2.7 0.82 0 2.6
25/11/17 4.9 14.8 24.9 0.85 0 19.3
24/11/17 11.7 24.1 14.7 0.83 0 3.7
23/11/17 13.3 22.2 4.5 0.55 0 15.2
22/11/17 11.1 16.7 0.3 0.59 0 18.1
21/11/17 10.2 20.4 18.6 0.91 0 13.4
20/11/17 4.2 20.4 10.5 0.87 0 21.0
19/11/17 5.0 29.6 12.3 0.84 0 34.7
18/11/17 8.0 22.2 4.2 0.72 0 49.8
17/11/17 11.9 11.1 1.8 0.59 0 49.5
16/11/17 10.5 16.7 0.0 0.72 2 45.2
15/11/17 9.8 16.7 0.0 0.81 1 32.3
14/11/17 7.4 24.1 0.3 0.75 0 28.4
13/11/17 9.5 14.8 0.9 0.68 0 17.1
12/11/17 6.9 13.0 4.8 0.75 0 10.5
11/11/17 5.8 24.1 7.5 0.86 0 20.3
10/11/17 7.1 29.6 9.0 0.83 0 10.6
09/11/17 8.1 13.0 0.3 0.83 0 20.2
08/11/17 6.5 9.3 0.0 0.94 1 27.2
07/11/17 5.7 11.1 0.6 0.93 0 40.8
06/11/17 11.7 11.1 0.0 0.64 1 51.4
05/11/17 12.6 22.2 11.1 0.82 0 50.4
04/11/17 13.6 14.8 0.0 0.72 2 75.4
03/11/17 12.4 11.1 0.0 0.66 1 34.6
02/11/17 12.7 16.7 0.9 0.68 0 49.6
01/11/17 11.7 20.4 1.8 0.73 0 41.5
31/10/17 8.9 14.8 0.3 0.79 0 49.0
30/10/17 10.5 24.1 0.6 0.56 0 65.5
29/10/17 11.6 51.9 41.4 0.70 0 52.7
28/10/17 10.9 24.1 5.7 0.76 0 43.6
27/10/17 12.1 27.8 2.1 0.78 0 47.2
26/10/17 15.3 16.7 0.0 0.74 1 39.6
25/10/17 16.9 20.4 0.6 0.70 0 67.3
24/10/17 14.8 14.8 1.5 0.78 0 88.5
23/10/17 10.6 18.5 11.1 0.86 0 105.9
22/10/17 16.0 14.8 2.7 0.74 0 146.6
21/10/17 15.9 14.8 2.1 0.64 0 209.6
20/10/17 19.9 18.5 0.0 0.49 1 252.5
19/10/17 26.0 9.3 0.3 0.37 0 249.4
18/10/17 23.3 9.3 0.3 0.61 0 235.3
17/10/17 22.4 13.0 0.0 0.49 5 219.6
16/10/17 24.9 18.5 0.0 0.48 4 197.2
15/10/17 26.3 13.0 0.0 0.42 3 121.3
14/10/17 23.2 16.7 0.0 0.56 2 92.5
13/10/17 18.9 14.8 0.0 0.61 1 26.1
12/10/17 15.9 31.5 1.8 0.58 0 47.5
11/10/17 15.9 16.7 0.3 0.76 0 38.1
10/10/17 14.0 14.8 12.0 0.86 0 25.8
09/10/17 16.0 14.8 0.3 0.56 0 48.6
08/10/17 14.6 18.5 12.6 0.60 0 48.6
07/10/17 11.8 18.5 13.8 0.78 0 45.1
06/10/17 11.6 25.9 4.5 0.82 0 47.7
05/10/17 14.4 48.2 27.9 0.74 0 55.0
04/10/17 13.1 25.9 0.0 0.68 3 71.5
03/10/17 16.2 22.2 0.0 0.81 2 49.0
02/10/17 16.2 1.9 0.0 0.87 1 36.2
01/10/17 16.2 7.4 3.0 0.87 0 49.7
30/09/17 23.8 20.4 18.3 0.63 0 62.7
29/09/17 25.1 9.3 0.3 0.54 0 48.8
28/09/17 18.6 5.6 0.6 0.86 0 45.4
27/09/17 16.1 7.4 0.0 0.86 1 64.8
26/09/17 18.4 11.1 0.9 0.71 0 85.4
25/09/17 16.5 7.4 4.8 0.92 0 104.1
24/09/17 13.3 7.4 0.9 0.96 0 129.5
23/09/17 20.7 11.1 0.3 0.56 0 128.6
22/09/17 21.4 9.3 0.3 0.54 0 104.8
21/09/17 21.3 9.3 0.0 0.46 1 121.1
20/09/17 17.6 20.4 0.3 0.62 0 94.7
19/09/17 19.9 13.0 0.0 0.56 1 64.6
18/09/17 20.4 11.1 2.1 0.48 0 50.8
17/09/17 21.2 9.3 5.7 0.45 0 45.6
16/09/17 19.6 14.8 0.0 0.45 1 67.7
15/09/17 18.8 24.1 2.1 0.57 0 81.9
14/09/17 15.3 33.3 14.1 0.72 0 40.4
13/09/17 20.0 24.1 11.1 0.55 0 71.6
12/09/17 20.9 27.8 4.2 0.53 0 87.0
11/09/17 19.6 16.7 0.6 0.61 0 54.8
10/09/17 21.1 13.0 0.0 0.54 1 91.1
09/09/17 20.1 14.8 5.7 0.66 0 126.1
08/09/17 18.0 18.5 0.9 0.67 0 151.9
07/09/17 20.2 20.4 3.3 0.58 0 177.0
06/09/17 22.3 25.9 7.5 0.74 0 188.7
05/09/17 24.5 13.0 0.0 0.56 1 157.8
04/09/17 23.8 16.7 0.3 0.41 0 203.2
03/09/17 21.4 13.0 0.3 0.49 0 210.0
02/09/17 21.2 13.0 0.6 0.54 0 237.0
01/09/17 19.9 9.3 0.0 0.54 1 280.0
31/08/17 23.0 20.4 6.0 0.73 0 309.9
30/08/17 32.0 14.8 0.3 0.42 0 362.4
29/08/17 31.3 11.1 0.0 0.36 1 342.9
28/08/17 26.6 14.8 0.3 0.41 0 322.1
27/08/17 23.8 18.5 0.0 0.52 4 305.0
26/08/17 27.2 14.8 0.0 0.62 3 294.4
25/08/17 24.9 18.5 0.0 0.46 2 252.9
24/08/17 25.7 18.5 0.0 0.50 1 189.2
23/08/17 26.4 11.1 0.6 0.41 0 127.2
22/08/17 21.0 14.8 0.0 0.46 1 123.6
21/08/17 21.5 18.5 0.3 0.55 0 82.9
20/08/17 20.7 33.3 3.3 0.53 0 169.7
19/08/17 21.2 20.4 1.5 0.55 0 196.3
18/08/17 25.1 13.0 18.0 0.67 0 225.8
17/08/17 27.7 11.1 0.6 0.51 0 216.8
16/08/17 26.6 13.0 1.5 0.48 0 199.9
15/08/17 32.0 14.8 0.0 0.35 1 177.4
14/08/17 26.9 11.1 0.3 0.47 0 137.8
13/08/17 25.0 13.0 0.6 0.47 0 162.0
12/08/17 19.0 14.8 3.3 0.68 0 198.0
11/08/17 15.2 18.5 31.5 0.97 0 251.7
10/08/17 18.3 13.0 5.7 0.74 0 192.4
09/08/17 26.4 13.0 0.0 0.41 4 263.7
08/08/17 28.8 13.0 0.0 0.36 3 210.1
07/08/17 28.4 13.0 0.0 0.31 2 213.2
06/08/17 23.6 18.5 0.0 0.41 1 136.5
05/08/17 21.8 11.1 15.0 0.72 0 170.1
04/08/17 24.8 22.2 0.0 0.48 1 247.1
03/08/17 28.2 18.5 1.5 0.52 0 280.6
02/08/17 29.3 14.8 0.0 0.42 1 368.9
01/08/17 28.4 16.7 8.7 0.55 0 356.5
31/07/17 30.4 16.7 0.0 0.36 1 299.1
30/07/17 31.1 14.8 0.3 0.39 0 244.6
29/07/17 27.7 18.5 0.0 0.47 1 125.1
28/07/17 25.0 14.8 0.3 0.45 0 90.5
27/07/17 25.0 16.7 0.0 0.63 1 40.1
26/07/17 21.1 27.8 43.5 0.73 0 58.6
25/07/17 14.3 20.4 77.7 0.97 0 82.9
24/07/17 17.7 16.7 38.4 0.79 0 50.8
23/07/17 24.4 20.4 9.3 0.46 0 135.9
22/07/17 29.0 13.0 6.3 0.53 0 62.3
21/07/17 26.6 13.0 0.0 0.49 1 82.1
20/07/17 28.1 11.1 0.9 0.57 0 36.2
19/07/17 34.6 25.9 7.8 0.35 0 61.6
18/07/17 28.4 14.8 0.0 0.41 1 118.3
17/07/17 24.0 14.8 6.3 0.47 0 15.6
16/07/17 24.1 13.0 0.0 0.55 1 118.8
15/07/17 23.4 14.8 5.7 0.52 0 13.6
14/07/17 25.7 14.8 4.8 0.33 0 32.7
13/07/17 21.9 16.7 0.0 0.43 1 127.0
12/07/17 17.6 35.2 24.3 0.84 0 180.9
11/07/17 26.5 22.2 0.0 0.46 1 325.7
10/07/17 24.4 13.0 7.2 0.71 0 301.5
09/07/17 25.4 14.8 2.7 0.65 0 373.7
08/07/17 28.7 16.7 0.0 0.42 5 442.1
07/07/17 30.1 20.4 0.0 0.44 4 365.0
06/07/17 29.9 14.8 0.0 0.45 3 266.7
05/07/17 24.4 18.5 0.0 0.54 2 221.2
04/07/17 22.6 22.2 0.0 0.48 1 144.3
03/07/17 25.6 20.4 0.3 0.40 0 104.1
02/07/17 22.0 18.5 2.4 0.64 0 80.7
01/07/17 17.9 14.8 9.0 0.77 0 67.8
30/06/17 21.5 13.0 0.3 0.64 0 117.4
29/06/17 22.7 16.7 11.7 0.69 0 158.8
28/06/17 25.4 9.3 7.5 0.62 0 253.1
27/06/17 23.8 14.8 0.0 0.55 1 150.3
26/06/17 24.3 18.5 3.9 0.48 0 199.3
25/06/17 23.5 24.1 0.0 0.61 3 257.6
24/06/17 25.6 16.7 0.0 0.49 2 287.5
23/06/17 26.2 27.8 0.0 0.49 1 369.4
22/06/17 35.5 35.2 7.5 0.34 0 405.2
21/06/17 26.2 16.7 0.0 0.47 5 320.9
20/06/17 30.3 18.5 0.0 0.47 4 259.8
19/06/17 31.9 14.8 0.0 0.39 3 234.5
18/06/17 26.6 13.0 0.0 0.53 2 187.2
17/06/17 21.7 22.2 0.0 0.62 1 242.1
16/06/17 20.3 27.8 3.9 0.62 0 305.1
15/06/17 30.3 38.9 5.4 0.35 0 414.2
14/06/17 25.0 16.7 0.0 0.43 2 282.0
13/06/17 20.4 18.5 0.0 0.56 1 282.4
12/06/17 23.2 31.5 0.3 0.45 0 242.5
11/06/17 30.8 14.8 0.3 0.37 0 144.2
10/06/17 26.0 14.8 0.6 0.38 0 105.5
09/06/17 27.8 24.1 7.5 0.31 0 41.3
08/06/17 22.9 14.8 5.7 0.46 0 58.8
07/06/17 20.3 20.4 3.0 0.44 0 142.3
06/06/17 24.6 22.2 3.3 0.45 0 249.7
05/06/17 23.1 13.0 0.0 0.40 1 263.2
04/06/17 22.5 25.9 11.1 0.42 0 346.0
03/06/17 28.7 11.1 5.1 0.48 0 411.3
02/06/17 27.4 14.8 0.0 0.34 7 512.0
01/06/17 25.8 18.5 0.0 0.21 6 555.6
31/05/17 23.5 18.5 0.0 0.53 5 342.0
30/05/17 29.4 24.1 0.0 0.49 4 334.5
29/05/17 32.7 14.8 0.0 0.47 3 284.9
28/05/17 32.7 16.7 0.0 0.34 2 345.4
27/05/17 31.3 16.7 0.0 0.24 1 394.3
26/05/17 26.4 14.8 7.5 0.45 0 352.2
25/05/17 20.7 20.4 0.0 0.56 5 338.6
24/05/17 19.4 22.2 0.0 0.48 4 293.9
23/05/17 27.0 31.5 0.0 0.38 3 241.0
22/05/17 24.0 11.1 0.0 0.35 2 180.9
21/05/17 23.4 14.8 0.0 0.34 1 184.4
20/05/17 21.2 18.5 1.8 0.44 0 214.5
19/05/17 24.8 18.5 9.6 0.56 0 273.5
18/05/17 31.3 22.2 1.2 0.36 0 393.3
17/05/17 30.2 14.8 0.0 0.37 3 259.5
16/05/17 25.4 11.1 0.0 0.34 2 254.0
15/05/17 22.6 16.7 0.0 0.33 1 253.0
14/05/17 24.6 16.7 0.6 0.34 0 216.1
13/05/17 26.0 18.5 0.6 0.42 0 235.8
12/05/17 22.7 11.1 16.8 0.51 0 222.7
11/05/17 24.1 18.5 0.0 0.32 2 233.2
10/05/17 17.3 20.4 0.0 0.41 1 156.9
09/05/17 12.0 14.8 0.3 0.39 0 108.5
08/05/17 11.7 18.5 0.0 0.69 3 104.7
07/05/17 20.8 18.5 0.0 0.46 2 69.5
06/05/17 16.2 14.8 0.0 0.66 1 51.5
05/05/17 8.7 9.3 2.1 0.97 0 86.0
04/05/17 10.3 14.8 8.4 0.88 0 117.9
03/05/17 16.2 14.8 0.3 0.66 0 173.7
02/05/17 11.6 14.8 26.7 0.62 0 193.5
01/05/17 17.0 14.8 0.0 0.44 2 232.4
30/04/17 17.2 18.5 0.0 0.26 1 157.4
29/04/17 12.1 18.5 0.6 0.41 0 173.9
28/04/17 14.4 18.5 0.0 0.36 3 75.0
27/04/17 12.9 16.7 0.0 0.33 2 35.2
26/04/17 13.6 18.5 0.0 0.27 1 82.6
25/04/17 11.9 31.5 5.4 0.37 0 88.7
24/04/17 16.3 29.6 0.0 0.35 1 165.1
23/04/17 9.4 29.6 11.4 0.55 0 103.4
22/04/17 10.2 27.8 3.3 0.54 0 108.8
21/04/17 15.1 24.1 0.0 0.52 3 160.3
20/04/17 10.6 16.7 0.0 0.28 2 119.7
19/04/17 7.1 20.4 0.0 0.45 1 127.3
18/04/17 5.1 20.4 2.1 0.72 0 108.7
17/04/17 12.5 24.1 2.1 0.46 0 122.5
16/04/17 12.8 35.2 0.3 0.38 0 136.5
15/04/17 12.2 27.8 1.8 0.56 0 152.6
14/04/17 14.9 20.4 0.0 0.43 1 203.6
13/04/17 11.0 27.8 2.4 0.70 0 183.0
12/04/17 15.4 29.6 5.7 0.55 0 205.6
11/04/17 11.4 25.9 0.0 0.53 2 227.6
10/04/17 18.9 25.9 0.0 0.44 1 229.5
09/04/17 23.7 16.7 0.3 0.31 0 191.5
08/04/17 14.2 9.3 0.3 0.71 0 128.6
07/04/17 12.3 20.4 0.0 0.69 4 152.4
06/04/17 12.0 25.9 0.0 0.51 3 104.9
05/04/17 14.4 25.9 0.0 0.58 2 96.8
04/04/17 14.7 16.7 0.0 0.53 1 31.7
03/04/17 9.6 11.1 0.3 0.83 0 4.5
02/04/17 16.7 16.7 0.6 0.55 0 28.5
01/04/17 22.3 16.7 8.4 0.32 0 44.2
02/03/17 6.3 40.7 7.8 0.86 0 44.4
01/03/17 5.6 24.1 13.5 0.78 0 27.1
28/02/17 9.9 20.4 3.6 0.46 0 54.2
27/02/17 14.3 20.4 3.9 0.47 0 41.5
26/02/17 11.4 18.5 0.0 0.52 2 25.9
25/02/17 6.8 20.4 0.0 0.58 1 17.9
24/02/17 5.4 35.2 9.6 0.56 0 9.3
23/02/17 8.4 29.6 27.6 0.79 0 12.3
22/02/17 9.9 33.3 20.7 0.76 0 6.5
21/02/17 9.5 27.8 2.7 0.67 0 36.7
20/02/17 9.5 20.4 7.5 0.82 0 59.9
19/02/17 7.2 20.4 4.8 0.65 0 74.3
18/02/17 6.5 14.8 0.0 0.73 1 85.0
17/02/17 6.4 14.8 7.8 0.81 0 80.8
16/02/17 13.2 18.5 0.0 0.54 2 83.2
15/02/17 16.5 11.1 0.0 0.25 1 60.3
14/02/17 10.5 7.4 0.6 0.46 0 28.5
13/02/17 4.9 13.0 0.0 0.59 4 22.6
12/02/17 -0.1 9.3 0.0 0.76 3 12.6
11/02/17 0.2 9.3 0.0 0.81 2 8.9
10/02/17 -2.5 14.8 0.0 0.74 1 5.7
09/02/17 -0.6 0.0 0.3 0.67 0 18.5
08/02/17 -2.1 0.0 0.0 0.73 2 27.7
07/02/17 -1.0 0.0 0.0 0.83 1 26.4
06/02/17 2.0 9.3 1.2 0.87 0 28.0
05/02/17 6.2 11.1 1.5 0.76 0 29.7
04/02/17 11.5 14.8 0.0 0.56 1 28.2
03/02/17 9.8 13.0 0.6 0.76 0 25.3
02/02/17 10.8 16.7 1.5 0.71 0 51.0
01/02/17 3.6 7.4 0.6 0.83 0 48.3
31/01/17 1.7 16.7 1.2 0.88 0 51.9
30/01/17 5.2 16.7 9.6 0.74 0 55.3
29/01/17 7.7 16.7 0.0 0.55 1 54.8
28/01/17 10.0 20.4 0.9 0.46 0 39.5
27/01/17 8.3 3.7 0.3 0.56 0 12.5
26/01/17 5.5 5.6 0.3 0.59 0 9.0
25/01/17 0.9 7.4 0.0 0.77 1 11.1
24/01/17 1.3 5.6 0.3 0.85 0 7.9
23/01/17 -2.2 5.6 0.0 0.74 1 8.7
22/01/17 2.8 3.7 1.2 0.65 0 10.0
21/01/17 6.2 1.9 1.2 0.60 0 12.8
20/01/17 10.8 3.7 0.6 0.45 0 17.7
19/01/17 5.4 1.9 1.5 0.59 0 22.0
18/01/17 -2.8 3.7 0.0 0.72 4 16.4
17/01/17 -1.0 9.3 0.0 0.74 3 14.4
16/01/17 -0.7 9.3 0.0 0.71 2 10.7
15/01/17 0.9 20.4 0.0 0.79 1 17.8
14/01/17 1.2 33.3 0.3 0.80 0 26.3
13/01/17 2.9 31.5 10.2 0.80 0 20.6
12/01/17 4.1 25.9 3.9 0.71 0 39.6
11/01/17 3.2 27.8 12.0 0.74 0 44.3
10/01/17 3.4 18.5 0.9 0.61 0 53.3
09/01/17 1.3 18.5 0.0 0.75 1 30.3
08/01/17 1.4 9.3 4.2 0.89 0 36.6
07/01/17 -0.6 24.1 0.0 0.43 3 43.7
06/01/17 -1.5 13.0 0.0 0.49 2 49.2
05/01/17 -1.0 22.2 0.0 0.49 1 73.3
04/01/17 3.2 35.2 5.4 0.46 0 101.9
03/01/17 2.3 25.9 9.3 0.83 0 105.0
02/01/17 1.5 18.5 0.6 0.81 0 110.0
01/01/17 4.6 24.1 0.9 0.45 0 120.2
31/12/16 7.4 20.4 0.3 0.23 0 82.8
30/12/16 8.3 20.4 0.0 0.27 3 53.5
29/12/16 7.1 14.8 0.0 0.64 2 19.9
28/12/16 5.9 24.1 0.0 0.84 1 14.2
27/12/16 6.6 29.6 0.3 0.74 0 36.3
26/12/16 9.4 31.5 7.5 0.68 0 51.5
25/12/16 9.4 25.9 4.2 0.77 0 51.5
24/12/16 6.5 25.9 3.9 0.76 0 50.9
23/12/16 4.9 20.4 0.3 0.83 0 44.9
22/12/16 3.7 20.4 0.9 0.53 0 38.9
21/12/16 5.1 29.6 0.0 0.57 1 25.8
20/12/16 0.2 7.4 0.3 0.90 0 3.4
19/12/16 4.8 3.7 0.3 0.94 0 7.5
18/12/16 5.3 13.0 1.8 0.87 0 17.5
17/12/16 6.9 11.1 1.5 0.78 0 18.5
16/12/16 0.5 7.4 0.0 0.88 3 19.0
15/12/16 5.5 7.4 0.0 0.93 2 34.0
14/12/16 9.0 13.0 0.0 0.83 1 54.0
13/12/16 6.8 16.7 0.3 0.73 0 47.9
12/12/16 6.5 20.4 4.8 0.93 0 40.4
11/12/16 8.1 37.0 11.7 0.85 0 44.7
10/12/16 9.5 24.1 0.9 0.70 0 60.1
09/12/16 9.6 27.8 0.9 0.67 0 45.0
08/12/16 11.5 27.8 2.7 0.35 0 48.6
07/12/16 8.8 24.1 1.8 0.58 0 35.5
06/12/16 7.4 1.9 0.0 0.57 2 35.0
05/12/16 7.1 14.8 0.0 0.35 1 54.1
04/12/16 8.5 1.9 0.3 0.52 0 59.8
03/12/16 7.0 1.9 0.3 0.74 0 62.8
02/12/16 6.8 33.3 2.4 0.50 0 78.3
01/12/16 7.1 29.6 0.3 0.85 0 72.0
30/11/16 2.9 22.2 0.9 0.35 0 68.7
29/11/16 7.1 18.5 0.3 0.30 0 51.2
28/11/16 1.8 11.1 0.0 0.67 1 30.4
27/11/16 5.9 16.7 1.2 0.78 0 47.6
26/11/16 7.4 13.0 0.3 0.62 0 84.3
25/11/16 6.6 11.1 0.0 0.74 5 79.2
24/11/16 7.9 11.1 0.0 0.82 4 83.4
23/11/16 14.8 3.7 0.0 0.66 3 67.3
22/11/16 15.5 11.1 0.0 0.49 2 72.9
21/11/16 17.5 14.8 0.0 0.32 1 52.0
20/11/16 13.4 24.1 4.8 0.43 0 31.9
19/11/16 7.3 20.4 0.6 0.74 0 30.7
18/11/16 11.1 31.5 12.9 0.78 0 30.2
17/11/16 10.5 18.5 7.5 0.77 0 31.9
16/11/16 10.4 24.1 3.9 0.87 0 33.5
15/11/16 6.6 31.5 3.9 0.60 0 41.8
14/11/16 6.4 18.5 0.3 0.44 0 29.6
13/11/16 4.7 7.4 0.3 0.67 0 9.7
12/11/16 5.3 7.4 0.3 0.68 0 5.5
11/11/16 1.5 9.3 0.0 0.90 1 2.3
10/11/16 3.8 5.6 4.8 0.89 0 0.5
09/11/16 5.5 11.1 1.5 0.71 0 12.8
08/11/16 2.1 14.8 13.8 0.83 0 20.0
07/11/16 4.2 9.3 10.2 0.92 0 10.3
06/11/16 7.1 13.0 2.7 0.77 0 12.9
05/11/16 8.1 13.0 1.2 0.75 0 28.4
04/11/16 7.6 14.8 0.0 0.68 2 32.1
03/11/16 9.5 13.0 0.0 0.71 1 49.0
02/11/16 7.2 31.5 5.7 0.81 0 52.5
01/11/16 15.6 20.4 2.4 0.64 0 69.1
31/10/16 17.7 9.3 0.0 0.60 3 61.6
30/10/16 11.2 13.0 0.0 0.85 2 43.1
29/10/16 13.3 16.7 0.0 0.63 1 39.3
28/10/16 12.1 18.5 0.3 0.82 0 32.6
27/10/16 12.5 14.8 0.0 0.82 2 25.3
26/10/16 10.3 7.4 0.0 0.87 1 16.5
25/10/16 8.8 11.1 8.4 0.97 0 13.4
24/10/16 6.7 5.6 19.2 0.96 0 13.3
23/10/16 14.1 9.3 0.0 0.56 1 14.1
22/10/16 6.3 7.4 2.7 0.93 0 14.2
21/10/16 6.5 13.0 19.5 0.98 0 13.9
20/10/16 9.2 16.7 6.0 0.82 0 34.1
19/10/16 10.4 16.7 21.3 0.77 0 39.3
18/10/16 18.7 11.1 1.5 0.56 0 42.3
17/10/16 18.4 9.3 0.6 0.65 0 36.1
16/10/16 22.2 9.3 2.1 0.43 0 32.2
15/10/16 17.4 13.0 0.0 0.65 2 20.0
14/10/16 10.6 9.3 0.0 0.82 1 7.0
13/10/16 7.6 11.1 6.0 0.97 0 0.2
12/10/16 7.1 9.3 9.6 0.97 0 1.9
11/10/16 9.0 11.1 7.8 0.92 0 0.7
10/10/16 13.1 9.3 1.5 0.75 0 14.3
09/10/16 9.3 7.4 0.6 0.90 0 1.7
08/10/16 9.3 11.1 6.0 0.97 0 11.1
07/10/16 13.9 20.4 21.3 0.82 0 14.7
06/10/16 10.3 24.1 18.3 0.89 0 13.0
05/10/16 10.4 13.0 0.0 0.67 1 11.8
04/10/16 16.9 16.7 7.2 0.59 0 78.2
03/10/16 12.6 27.8 11.4 0.91 0 107.8
02/10/16 19.1 20.4 4.5 0.54 0 152.5
01/10/16 15.1 13.0 7.2 0.97 0 151.8
30/09/16 20.9 33.3 1.8 0.52 0 250.6
29/09/16 25.7 18.5 0.0 0.43 12 268.3
28/09/16 20.3 20.4 0.0 0.63 11 249.0
27/09/16 23.6 9.3 0.0 0.51 10 250.5
26/09/16 19.9 11.1 0.0 0.62 9 260.5
25/09/16 28.1 11.1 0.0 0.29 8 283.4
24/09/16 25.9 11.1 0.0 0.39 7 232.1
23/09/16 23.5 16.7 0.0 0.47 6 221.7
22/09/16 24.6 11.1 0.0 0.44 5 133.8
21/09/16 22.2 13.0 0.0 0.46 4 94.4
20/09/16 20.8 14.8 0.0 0.40 3 143.1
19/09/16 15.6 11.1 0.0 0.76 2 178.4
18/09/16 20.2 18.5 0.0 0.59 1 301.4
17/09/16 16.1 14.8 29.4 0.98 0 346.8
16/09/16 23.7 5.6 4.8 0.65 0 434.2
15/09/16 30.4 14.8 0.0 0.32 9 513.9
14/09/16 32.9 11.1 0.0 0.28 8 483.6
13/09/16 34.7 13.0 0.0 0.32 7 484.6
12/09/16 35.8 9.3 0.0 0.25 6 463.2
11/09/16 30.4 14.8 0.0 0.36 5 424.3
10/09/16 31.7 13.0 0.0 0.37 4 341.3
09/09/16 28.3 14.8 0.0 0.49 3 263.8
08/09/16 32.6 11.1 0.0 0.25 2 319.2
07/09/16 28.3 14.8 0.0 0.32 1 328.9
06/09/16 27.2 11.1 0.3 0.45 0 343.8
05/09/16 20.1 18.5 2.4 0.77 0 414.5
04/09/16 23.0 20.4 10.5 0.64 0 486.3
03/09/16 29.1 24.1 0.0 0.41 5 529.6
02/09/16 28.8 16.7 0.0 0.30 4 414.2
01/09/16 27.3 22.2 0.0 0.42 3 432.1
31/08/16 30.0 16.7 0.0 0.26 2 487.5
30/08/16 25.9 14.8 0.0 0.31 1 514.0
29/08/16 24.7 20.4 0.3 0.59 0 547.8
28/08/16 36.8 13.0 1.8 0.25 0 643.4
27/08/16 34.5 16.7 0.0 0.39 2 614.7
26/08/16 38.1 14.8 0.0 0.24 1 502.5
25/08/16 36.8 13.0 0.3 0.18 0 351.8
24/08/16 34.4 14.8 0.0 0.36 2 293.2
23/08/16 27.8 14.8 0.0 0.21 1 271.6
22/08/16 22.5 13.0 0.6 0.58 0 253.5
21/08/16 24.4 14.8 3.6 0.46 0 299.3
20/08/16 27.4 14.8 5.1 0.53 0 347.2
19/08/16 30.0 13.0 0.0 0.35 7 398.5
18/08/16 26.8 16.7 0.0 0.30 6 454.1
17/08/16 24.7 18.5 0.0 0.39 5 242.8
16/08/16 24.3 14.8 0.0 0.43 4 213.2
15/08/16 23.9 16.7 0.0 0.44 3 161.1
14/08/16 25.3 16.7 0.0 0.43 2 197.3
13/08/16 29.2 27.8 0.0 0.43 1 366.4
12/08/16 21.8 14.8 5.1 0.74 0 342.5
11/08/16 19.2 16.7 0.0 0.44 1 397.3
10/08/16 19.6 24.1 4.5 0.33 0 455.3
09/08/16 23.2 25.9 0.0 0.37 6 493.7
08/08/16 26.1 27.8 0.0 0.45 5 400.1
07/08/16 29.2 16.7 0.0 0.27 4 296.0
06/08/16 23.6 20.4 0.0 0.49 3 196.4
05/08/16 25.8 18.5 0.0 0.48 2 134.9
04/08/16 25.1 25.9 0.0 0.58 1 150.3
03/08/16 21.0 13.0 3.9 0.85 0 142.9
02/08/16 22.3 13.0 1.5 0.61 0 151.7
01/08/16 22.9 22.2 3.3 0.52 0 167.7
31/07/16 24.6 22.2 1.8 0.58 0 251.5
30/07/16 26.7 18.5 0.0 0.38 1 308.0
29/07/16 26.9 16.7 0.6 0.51 0 289.6
28/07/16 28.3 13.0 2.1 0.46 0 195.9
27/07/16 28.6 16.7 4.2 0.42 0 315.1
26/07/16 29.7 18.5 0.9 0.45 0 366.4
25/07/16 32.3 14.8 0.0 0.41 2 414.7
24/07/16 30.3 13.0 0.0 0.44 1 482.8
23/07/16 29.3 9.3 10.2 0.43 0 534.6
22/07/16 30.5 22.2 0.0 0.44 5 525.3
21/07/16 30.9 18.5 0.0 0.46 4 481.4
20/07/16 35.5 16.7 0.0 0.32 3 391.3
19/07/16 31.6 14.8 0.0 0.34 2 259.3
18/07/16 29.3 20.4 0.0 0.39 1 167.7
17/07/16 28.5 18.5 3.9 0.46 0 209.2
16/07/16 25.3 18.5 0.0 0.45 1 284.4
15/07/16 20.4 20.4 1.8 0.49 0 323.3
14/07/16 21.2 25.9 3.3 0.47 0 423.9
13/07/16 25.2 18.5 3.0 0.38 0 536.2
12/07/16 27.8 20.4 0.0 0.31 7 576.5
11/07/16 29.8 24.1 0.0 0.44 6 538.8
10/07/16 31.8 14.8 0.0 0.42 5 540.2
09/07/16 26.6 22.2 0.0 0.41 4 525.5
08/07/16 27.2 27.8 0.0 0.45 3 522.4
07/07/16 25.6 16.7 0.0 0.36 2 411.3
06/07/16 20.5 27.8 0.0 0.49 1 418.0
05/07/16 26.5 31.5 0.3 0.47 0 271.1
04/07/16 27.8 13.0 0.0 0.31 2 275.8
03/07/16 23.9 25.9 0.0 0.42 1 277.5
02/07/16 21.8 22.2 4.2 0.54 0 214.2
01/07/16 27.5 20.4 0.0 0.48 1 266.3
24/06/16 33.7 33.3 6.9 0.48 0 247.9
23/06/16 35.8 14.8 0.0 0.32 2 189.6
22/06/16 31.5 13.0 0.0 0.42 1 70.6
21/06/16 27.1 13.0 3.0 0.49 0 23.7
20/06/16 25.1 13.0 2.4 0.37 0 26.0
19/06/16 20.2 14.8 5.7 0.56 0 10.3
18/06/16 23.0 20.4 2.7 0.51 0 28.0
17/06/16 23.0 16.7 4.5 0.56 0 20.6
16/06/16 23.3 14.8 1.5 0.50 0 61.3
15/06/16 25.0 11.1 7.5 0.48 0 135.2
14/06/16 23.0 14.8 8.7 0.61 0 174.6
13/06/16 23.9 9.3 3.0 0.60 0 258.0
12/06/16 24.0 7.4 12.3 0.65 0 331.7
11/06/16 22.8 14.8 0.0 0.51 7 424.8
10/06/16 24.3 20.4 0.0 0.33 6 485.6
09/06/16 23.4 14.8 0.0 0.52 5 299.8
08/06/16 26.8 20.4 0.0 0.42 4 328.6
07/06/16 29.6 14.8 0.0 0.35 3 173.9
06/06/16 29.2 18.5 0.0 0.39 2 163.8
05/06/16 30.3 20.4 0.0 0.42 1 102.9
04/06/16 27.9 13.0 5.1 0.40 0 61.2
03/06/16 27.7 16.7 0.0 0.43 1 113.2
02/06/16 25.0 13.0 18.6 0.60 0 84.3
01/06/16 24.5 7.4 27.6 0.75 0 103.6
31/05/16 26.9 18.5 17.1 0.49 0 165.8
30/05/16 26.3 11.1 0.0 0.45 1 154.4
29/05/16 22.9 11.1 4.5 0.78 0 108.7
28/05/16 25.3 9.3 0.0 0.47 4 105.9
27/05/16 21.8 13.0 0.0 0.61 3 73.1
26/05/16 22.3 14.8 0.0 0.45 2 107.2
25/05/16 15.6 11.1 0.0 0.75 1 127.5
24/05/16 14.5 18.5 14.4 0.86 0 160.7
23/05/16 22.9 22.2 1.5 0.52 0 220.0
22/05/16 31.4 16.7 1.2 0.28 0 283.0
21/05/16 25.7 14.8 0.0 0.37 4 265.9
20/05/16 21.9 18.5 0.0 0.43 3 169.5
19/05/16 24.6 11.1 0.0 0.40 2 163.8
18/05/16 19.9 13.0 0.0 0.46 1 212.9
17/05/16 16.2 22.2 0.3 0.54 0 257.1
16/05/16 12.5 22.2 0.0 0.47 1 359.2
15/05/16 12.8 27.8 12.6 0.59 0 393.8
14/05/16 12.4 35.2 0.0 0.50 11 475.1
13/05/16 22.4 22.2 0.0 0.24 10 505.4
12/05/16 25.4 18.5 0.0 0.35 9 525.0
11/05/16 25.4 24.1 0.0 0.33 8 519.7
10/05/16 25.4 14.8 0.0 0.39 7 462.7
09/05/16 24.8 20.4 0.0 0.36 6 439.9
08/05/16 24.1 20.4 0.0 0.33 5 357.4
07/05/16 26.8 20.4 0.0 0.22 4 343.2
06/05/16 27.1 13.0 0.0 0.21 3 292.9
05/05/16 18.7 18.5 0.0 0.39 2 285.7
04/05/16 15.6 16.7 0.0 0.38 1 284.4
03/05/16 15.6 31.5 3.3 0.55 0 223.6
02/05/16 21.2 20.4 0.0 0.33 3 249.8
01/05/16 17.9 25.9 0.0 0.41 2 131.9
30/04/16 19.5 20.4 0.0 0.27 1 116.6
29/04/16 15.1 20.4 0.3 0.31 0 107.6
28/04/16 12.7 24.1 5.1 0.43 0 107.5
27/04/16 7.2 25.9 21.0 0.74 0 140.2
26/04/16 9.6 24.1 6.0 0.51 0 178.7
25/04/16 10.3 18.5 10.8 0.42 0 217.0
24/04/16 10.3 38.9 0.3 0.39 0 260.0
23/04/16 9.1 25.9 0.0 0.42 4 269.3
22/04/16 15.7 16.7 0.0 0.30 3 274.5
21/04/16 17.2 14.8 0.0 0.42 2 231.9
20/04/16 14.4 20.4 0.0 0.42 1 197.3
19/04/16 13.9 27.8 0.3 0.41 0 191.4
18/04/16 15.3 25.9 0.0 0.28 1 169.7
17/04/16 12.9 22.2 0.3 0.38 0 151.8
16/04/16 16.7 18.5 4.5 0.53 0 153.5
15/04/16 17.4 22.2 2.1 0.45 0 192.8
14/04/16 15.5 18.5 0.0 0.48 7 189.8
13/04/16 15.9 18.5 0.0 0.56 6 197.5
12/04/16 20.9 16.7 0.0 0.42 5 167.2
11/04/16 14.3 16.7 0.0 0.52 4 167.0
10/04/16 16.2 14.8 0.0 0.42 3 91.3
09/04/16 13.1 9.3 0.0 0.49 2 123.8
08/04/16 14.8 20.4 0.0 0.38 1 157.1
07/04/16 13.3 33.3 2.1 0.35 0 190.0
06/04/16 16.4 20.4 0.3 0.36 0 245.7
05/04/16 20.5 25.9 8.7 0.57 0 174.8
04/04/16 24.1 16.7 0.0 0.35 3 200.1
03/04/16 22.6 14.8 0.0 0.40 2 94.0
02/04/16 18.8 16.7 0.0 0.40 1 84.5
01/04/16 14.9 16.7 0.9 0.29 0 40.1
31/03/16 8.4 16.7 7.5 0.57 0 46.0
30/03/16 11.5 22.2 6.0 0.53 0 9.4
29/03/16 9.2 22.2 6.3 0.62 0 47.2
28/03/16 12.8 20.4 5.4 0.43 0 52.1
27/03/16 15.4 22.2 10.5 0.40 0 56.2
26/03/16 16.0 20.4 0.6 0.45 0 40.7
25/03/16 7.1 16.7 9.9 0.83 0 12.7
24/03/16 11.6 16.7 6.9 0.39 0 42.3
23/03/16 7.4 22.2 2.4 0.61 0 51.9
22/03/16 7.6 20.4 2.7 0.71 0 77.6
21/03/16 6.6 22.2 1.5 0.72 0 100.0
20/03/16 6.0 24.1 0.0 0.76 1 95.0
19/03/16 8.7 24.1 0.6 0.59 0 119.2
18/03/16 5.6 16.7 0.0 0.67 3 106.2
17/03/16 12.7 16.7 0.0 0.42 2 102.5
16/03/16 8.5 18.5 0.0 0.45 1 75.2
15/03/16 8.3 20.4 1.2 0.31 0 71.3
14/03/16 10.0 24.1 0.0 0.39 6 92.4
13/03/16 2.3 13.0 0.0 0.67 5 77.7
12/03/16 2.5 16.7 0.0 0.70 4 81.1
11/03/16 2.6 9.3 0.0 0.85 3 84.0
10/03/16 3.7 9.3 0.0 0.71 2 86.8
09/03/16 11.7 14.8 0.0 0.25 1 97.3
08/03/16 9.6 16.7 0.6 0.44 0 83.0
07/03/16 8.1 9.3 0.9 0.47 0 60.7
06/03/16 5.2 16.7 0.3 0.62 0 67.5
05/03/16 8.7 9.3 0.9 0.72 0 73.8
04/03/16 7.9 14.8 0.0 0.50 1 84.1
03/03/16 9.2 13.0 0.3 0.43 0 83.5
02/03/16 8.1 33.3 3.0 0.72 0 88.2
01/03/16 4.5 18.5 0.9 0.44 0 87.5
29/02/16 4.5 20.4 0.0 0.49 3 94.3
28/02/16 4.7 18.5 0.0 0.52 2 91.4
27/02/16 5.7 16.7 0.0 0.47 1 59.7
26/02/16 5.9 13.0 0.3 0.51 0 58.0
25/02/16 3.9 14.8 0.0 0.61 2 32.6
24/02/16 6.7 22.2 0.0 0.51 1 30.5
23/02/16 7.7 18.5 0.9 0.60 0 32.8
22/02/16 11.2 29.6 30.0 0.83 0 27.5
21/02/16 11.4 37.0 14.1 0.83 0 34.5
20/02/16 6.8 22.2 8.4 0.73 0 36.2
19/02/16 3.8 13.0 0.3 0.61 0 28.9
18/02/16 3.6 14.8 0.9 0.61 0 37.2
17/02/16 3.6 11.1 0.9 0.67 0 40.7
16/02/16 0.3 13.0 0.0 0.64 1 36.0
15/02/16 2.0 18.5 0.3 0.87 0 32.5
14/02/16 3.2 7.4 7.5 0.82 0 29.8
13/02/16 8.5 14.8 0.0 0.50 2 31.1
12/02/16 8.2 13.0 0.0 0.55 1 13.7
11/02/16 6.0 22.2 1.2 0.66 0 31.6
10/02/16 3.3 24.1 5.7 0.75 0 27.6
09/02/16 8.3 31.5 8.7 0.59 0 33.9
08/02/16 7.8 24.1 13.2 0.65 0 60.0
07/02/16 12.8 29.6 3.3 0.48 0 47.2
06/02/16 12.7 20.4 0.6 0.59 0 54.1
05/02/16 7.7 24.1 3.0 0.81 0 39.8
04/02/16 4.3 24.1 4.8 0.75 0 42.2
03/02/16 6.8 33.3 0.6 0.55 0 43.1
02/02/16 10.1 25.9 8.4 0.66 0 14.9
01/02/16 11.4 33.3 6.3 0.73 0 20.5
03/01/16 -1.6 24.1 0.0 0.79 1 18.6
02/01/16 1.2 11.1 0.3 0.85 0 23.0
01/01/16 5.4 20.4 0.0 0.84 1 52.4
31/12/15 5.6 18.5 6.3 0.54 0 77.6
30/12/15 8.6 7.4 0.0 0.71 1 73.5
29/12/15 9.2 13.0 0.6 0.83 0 82.5
28/12/15 13.4 14.8 0.0 0.76 3 80.4
27/12/15 11.6 25.9 0.0 0.65 2 85.9
26/12/15 14.0 24.1 0.0 0.65 1 42.7
25/12/15 11.5 37.0 3.3 0.72 0 52.2
24/12/15 11.4 20.4 0.6 0.73 0 56.5
23/12/15 11.6 24.1 1.8 0.62 0 54.1
22/12/15 11.9 24.1 0.3 0.74 0 59.1
21/12/15 11.0 24.1 9.3 0.76 0 56.2
20/12/15 13.5 20.4 0.0 0.63 2 59.4
19/12/15 12.8 22.2 0.0 0.72 1 38.8
18/12/15 13.7 18.5 3.9 0.72 0 27.6
17/12/15 13.5 22.2 1.5 0.74 0 28.4
16/12/15 10.6 18.5 0.6 0.80 0 19.5
15/12/15 8.0 14.8 0.0 0.80 1 31.8
14/12/15 8.4 9.3 0.6 0.82 0 3.7
13/12/15 9.5 37.0 3.3 0.78 0 42.6
12/12/15 8.2 20.4 2.4 0.77 0 46.7
11/12/15 5.1 24.1 7.2 0.54 0 39.4
10/12/15 7.2 22.2 0.0 0.54 1 63.3
09/12/15 9.5 18.5 9.6 0.72 0 45.7
08/12/15 15.8 16.7 0.0 0.45 1 63.6
07/12/15 11.7 16.7 0.6 0.81 0 43.2
06/12/15 9.5 22.2 7.8 0.51 0 43.1
05/12/15 9.0 31.5 12.6 0.49 0 68.5
04/12/15 8.8 24.1 4.8 0.56 0 100.9
03/12/15 11.1 18.5 0.0 0.57 1 107.9
02/12/15 10.4 18.5 0.3 0.71 0 85.9
01/12/15 10.5 33.3 1.2 0.75 0 130.1
05/11/15 21.0 9.3 0.0 0.53 3 143.7
04/11/15 20.6 13.0 0.0 0.48 2 126.9
03/11/15 21.4 5.6 0.0 0.37 1 93.8
02/11/15 21.8 7.4 2.4 0.36 0 94.2
01/11/15 22.7 13.0 0.0 0.34 3 97.2
30/10/15 17.4 13.0 0.0 0.59 2 58.5
29/10/15 13.6 11.1 0.0 0.83 1 55.5
28/10/15 7.7 5.6 0.6 0.95 0 48.6
27/10/15 15.9 5.6 0.3 0.65 0 48.0
26/10/15 15.8 11.1 0.3 0.69 0 52.3
25/10/15 12.6 14.8 0.0 0.78 1 29.6
24/10/15 18.3 9.3 0.3 0.51 0 30.5
23/10/15 15.6 13.0 3.0 0.61 0 34.5
22/10/15 11.9 22.2 1.2 0.81 0 34.0
21/10/15 13.1 11.1 0.3 0.66 0 28.1
20/10/15 9.5 9.3 5.1 0.95 0 17.1
19/10/15 8.1 9.3 6.6 0.97 0 17.0
18/10/15 12.5 11.1 0.3 0.56 0 20.8
17/10/15 9.6 7.4 0.9 0.85 0 21.5
16/10/15 6.5 9.3 2.1 0.98 0 39.7
15/10/15 6.0 11.1 13.8 0.95 0 50.5
14/10/15 2.1 9.3 7.5 0.93 0 39.8
13/10/15 3.4 11.1 0.0 0.77 4 47.3
12/10/15 10.5 11.1 0.0 0.47 3 42.3
11/10/15 10.2 14.8 0.0 0.44 2 26.4
10/10/15 12.4 9.3 0.0 0.60 1 43.1
09/10/15 12.9 9.3 9.9 0.97 0 70.1
08/10/15 15.1 7.4 0.3 0.85 0 97.8
07/10/15 20.4 7.4 3.0 0.72 0 128.9
06/10/15 20.6 9.3 1.8 0.67 0 165.9
05/10/15 22.7 9.3 0.0 0.46 4 201.8
04/10/15 21.1 16.7 0.0 0.54 3 196.2
03/10/15 22.9 9.3 0.0 0.46 2 156.8
02/10/15 21.5 9.3 0.0 0.37 1 159.7
01/10/15 18.1 13.0 0.3 0.36 0 157.1
30/09/15 17.8 16.7 0.3 0.42 0 94.3
29/09/15 18.1 11.1 0.3 0.50 0 90.2
28/09/15 18.3 16.7 2.1 0.44 0 86.8
27/09/15 18.1 14.8 0.0 0.48 1 68.2
26/09/15 18.9 14.8 0.3 0.56 0 84.4
25/09/15 22.3 11.1 6.6 0.46 0 66.7
24/09/15 20.1 16.7 0.0 0.55 1 104.7
23/09/15 18.3 11.1 3.3 0.56 0 125.9
22/09/15 20.5 16.7 1.2 0.54 0 86.9
21/09/15 19.6 11.1 0.3 0.59 0 115.7
20/09/15 16.6 22.2 4.2 0.69 0 128.7
19/09/15 23.0 16.7 0.0 0.49 2 97.0
18/09/15 22.5 16.7 0.0 0.48 1 48.2
17/09/15 21.5 20.4 6.3 0.62 0 13.2
16/09/15 20.1 27.8 6.0 0.67 0 34.5
15/09/15 15.7 16.7 0.3 0.65 0 77.2
14/09/15 21.5 13.0 9.0 0.67 0 99.2
13/09/15 25.1 11.1 4.5 0.57 0 144.4
12/09/15 23.1 11.1 6.9 0.60 0 100.2
11/09/15 19.6 13.0 0.0 0.66 4 133.2
10/09/15 20.2 16.7 0.0 0.54 3 74.7
09/09/15 19.8 14.8 0.0 0.48 2 86.7
08/09/15 21.6 14.8 0.0 0.51 1 87.6
07/09/15 18.9 20.4 9.0 0.54 0 107.4
06/09/15 15.4 31.5 5.4 0.81 0 56.2
05/09/15 16.2 22.2 6.0 0.77 0 157.9
04/09/15 20.6 18.5 0.0 0.45 1 233.9
03/09/15 22.8 14.8 3.6 0.49 0 248.0
02/09/15 22.6 14.8 0.3 0.45 0 228.1
01/09/15 25.3 29.6 16.5 0.49 0 259.4
31/08/15 36.1 13.0 0.0 0.34 2 292.7
30/08/15 34.9 13.0 0.0 0.44 1 230.1
29/08/15 26.7 11.1 0.3 0.44 0 147.8
28/08/15 22.9 14.8 5.7 0.56 0 184.7
27/08/15 23.3 14.8 13.2 0.44 0 256.5
26/08/15 28.0 14.8 0.0 0.43 1 315.1
25/08/15 21.9 18.5 0.9 0.58 0 275.8
24/08/15 28.1 14.8 1.2 0.46 0 289.2
23/08/15 25.7 16.7 0.0 0.38 2 237.0
22/08/15 27.4 13.0 0.0 0.28 1 191.7
21/08/15 28.9 13.0 0.3 0.29 0 98.7
20/08/15 23.7 11.1 0.0 0.61 1 106.0
19/08/15 22.3 11.1 0.3 0.60 0 879.9
18/08/15 16.8 11.1 13.8 0.93 0 1633.4
17/08/15 19.1 11.1 37.5 0.91 0 2410.3
16/08/15 21.9 13.0 17.1 0.78 0 3190.2
15/08/15 30.1 16.7 0.0 0.44 7 3209.2
14/08/15 36.8 87.0 0.0 0.28 6 3244.5
13/08/15 36.8 87.0 0.0 0.28 5 2467.1
12/08/15 36.8 87.0 0.0 0.28 4 1854.8
11/08/15 36.8 87.0 0.0 0.28 3 1205.4
10/08/15 36.8 1.9 0.0 0.28 2 533.5
09/08/15 36.8 13.0 0.0 0.28 1 715.7
08/08/15 36.8 20.4 3.6 0.28 0 710.9
07/08/15 36.8 18.5 0.0 0.28 4 651.1
06/08/15 37.6 13.0 0.0 0.24 3 512.2
05/08/15 34.3 14.8 0.0 0.34 2 472.8
04/08/15 35.5 24.1 0.0 0.28 1 513.1
03/08/15 19.5 13.0 0.6 0.64 0 471.8
02/08/15 19.5 16.7 0.0 0.64 3 541.2
01/08/15 19.5 16.7 0.0 0.64 2 585.1
04/07/15 37.1 11.1 0.0 0.36 1 556.9
03/07/15 33.8 24.1 0.6 0.42 0 466.4
02/07/15 37.0 18.5 0.0 0.31 2 336.6
01/07/15 32.5 13.0 0.0 0.31 1 210.9
03/06/15 20.7 29.6 0.6 0.50 0 203.6
02/06/15 24.8 20.4 2.7 0.39 0 323.6
01/06/15 19.8 22.2 6.9 0.47 0 371.1
15/05/15 14.9 11.1 0.0 0.60 3 440.0
14/05/15 18.2 14.8 0.0 0.43 2 424.0
13/05/15 22.0 24.1 0.0 0.36 1 424.9
12/05/15 28.0 33.3 0.6 0.39 0 387.2
11/05/15 25.7 14.8 0.0 0.30 2 324.9
10/05/15 18.6 33.3 0.0 0.41 1 394.5
09/05/15 21.1 27.8 1.2 0.48 0 345.5
08/05/15 19.5 13.0 0.0 0.37 1 310.4
07/05/15 18.3 22.2 0.9 0.52 0 316.3
06/05/15 21.3 24.1 0.9 0.27 0 309.2
05/05/15 27.5 29.6 0.9 0.36 0 182.7
04/05/15 23.7 16.7 1.5 0.45 0 118.0
03/05/15 20.4 13.0 8.4 0.46 0 102.3
02/05/15 16.1 18.5 0.0 0.35 1 92.2
01/05/15 14.5 20.4 0.3 0.44 0 84.9
30/04/15 16.1 25.9 6.3 0.47 0 63.9
29/04/15 16.4 16.7 0.3 0.24 0 138.9
28/04/15 13.6 27.8 1.2 0.28 0 174.2
27/04/15 9.8 14.8 35.4 0.97 0 169.5
26/04/15 21.4 13.0 3.0 0.55 0 294.4
25/04/15 20.0 24.1 3.9 0.42 0 384.5
24/04/15 22.7 22.2 0.0 0.25 2 400.7
23/04/15 19.1 18.5 0.0 0.37 1 350.5
22/04/15 13.7 18.5 0.3 0.55 0 325.9
21/04/15 20.8 27.8 0.0 0.19 8 342.8
20/04/15 19.6 24.1 0.0 0.34 7 382.3
19/04/15 17.6 18.5 0.0 0.37 6 359.9
18/04/15 15.1 18.5 0.0 0.33 5 372.4
17/04/15 11.0 20.4 0.0 0.48 4 400.7
16/04/15 14.6 18.5 0.0 0.43 3 464.4
15/04/15 23.8 33.3 0.0 0.23 2 491.6
14/04/15 19.6 20.4 0.0 0.45 1 373.0
13/04/15 12.3 35.2 0.6 0.40 0 320.9
12/04/15 17.2 24.1 0.0 0.24 1 298.6
11/04/15 21.0 29.6 0.9 0.37 0 265.3
10/04/15 24.4 14.8 0.0 0.30 2 209.6
09/04/15 20.2 13.0 0.0 0.46 1 184.9
08/04/15 12.4 18.5 1.2 0.62 0 180.9
07/04/15 11.9 22.2 0.0 0.40 2 152.7
06/04/15 12.0 20.4 0.0 0.31 1 114.7
05/04/15 11.4 18.5 0.3 0.30 0 74.3
04/04/15 11.6 24.1 0.0 0.40 1 40.4
03/04/15 9.4 16.7 0.9 0.49 0 20.1
02/04/15 3.7 31.5 12.0 0.74 0 35.4
01/04/15 5.7 38.9 3.9 0.66 0 43.1
31/03/15 8.5 55.6 31.2 0.64 0 55.9
30/03/15 7.0 40.7 4.8 0.62 0 106.2
29/03/15 9.6 44.4 25.5 0.84 0 111.1
28/03/15 13.8 16.7 0.3 0.41 0 133.0
27/03/15 7.2 27.8 1.5 0.77 0 108.4
26/03/15 7.5 16.7 0.9 0.71 0 101.9
25/03/15 20.9 14.8 0.0 0.32 2 137.0
24/03/15 13.3 9.3 0.0 0.48 1 120.4
23/03/15 13.9 16.7 0.3 0.48 0 142.8
22/03/15 7.9 14.8 1.8 0.51 0 152.7
21/03/15 8.3 18.5 12.3 0.74 0 169.7
20/03/15 15.6 16.7 0.0 0.27 4 148.9
19/03/15 14.7 16.7 0.0 0.39 3 104.8
18/03/15 17.3 16.7 0.0 0.42 2 87.8
17/03/15 18.4 13.0 0.0 0.46 1 55.3
16/03/15 14.1 13.0 0.3 0.49 0 65.9
15/03/15 4.7 14.8 11.1 0.93 0 53.2
14/03/15 3.0 11.1 3.0 0.74 0 84.0
13/03/15 8.4 16.7 0.0 0.51 3 181.4
12/03/15 5.5 14.8 0.0 0.75 2 213.4
11/03/15 9.2 20.4 0.0 0.58 1 214.5
10/03/15 8.9 16.7 0.3 0.79 0 210.5
09/03/15 16.1 14.8 0.0 0.46 4 206.5
08/03/15 20.0 25.9 0.0 0.20 3 176.3
07/03/15 16.2 20.4 0.0 0.32 2 78.6
06/03/15 6.3 14.8 0.0 0.69 1 26.7
05/03/15 5.8 29.6 0.9 0.69 0 48.3
04/03/15 3.7 24.1 4.5 0.73 0 5.2
03/03/15 8.4 29.6 4.8 0.56 0 39.2
02/03/15 8.1 27.8 3.3 0.43 0 65.6
01/03/15 7.9 33.3 8.1 0.57 0 75.1
28/02/15 10.4 20.4 0.0 0.39 1 80.9
27/02/15 5.5 16.7 8.1 0.49 0 75.1
26/02/15 11.2 16.7 0.0 0.44 2 96.1
25/02/15 10.5 16.7 0.0 0.44 1 70.3
24/02/15 6.6 22.2 0.3 0.62 0 85.7
23/02/15 3.0 24.1 5.1 0.59 0 100.8
22/02/15 7.1 20.4 0.0 0.48 1 100.0
21/02/15 7.3 29.6 0.3 0.60 0 80.3
20/02/15 9.1 20.4 3.3 0.59 0 68.1
19/02/15 8.7 18.5 0.0 0.43 1 78.6
18/02/15 10.9 14.8 0.3 0.31 0 69.4
17/02/15 3.3 9.3 0.0 0.78 1 44.9
16/02/15 6.5 5.6 0.3 0.75 0 46.0
15/02/15 2.3 7.4 0.0 0.79 2 45.3
14/02/15 13.2 11.1 0.0 0.43 1 42.0
13/02/15 13.2 9.3 0.9 0.45 0 54.9
12/02/15 0.7 7.4 0.6 0.88 0 39.4
11/02/15 7.0 9.3 0.0 0.72 1 46.8
10/02/15 4.8 20.4 2.4 0.87 0 47.4
09/02/15 4.7 24.1 5.4 0.86 0 53.6
08/02/15 2.9 33.3 0.0 0.34 1 62.7
07/02/15 3.7 27.8 2.7 0.57 0 47.3
06/02/15 0.5 14.8 0.0 0.60 4 49.7
05/02/15 -1.4 14.8 0.0 0.72 3 46.4
04/02/15 1.7 13.0 0.0 0.63 2 40.9
03/02/15 2.5 18.5 0.0 0.63 1 41.1
02/02/15 2.3 20.4 0.3 0.69 0 22.2
01/02/15 2.7 14.8 0.9 0.64 0 13.1
31/01/15 2.0 14.8 0.3 0.75 0 5.2
30/01/15 1.6 16.7 3.0 0.82 0 2.1
29/01/15 1.6 20.4 0.3 0.72 0 14.7
28/01/15 3.7 31.5 14.1 0.78 0 10.7
27/01/15 3.3 25.9 4.2 0.81 0 13.5
26/01/15 3.1 24.1 8.7 0.83 0 19.0
25/01/15 2.5 18.5 1.2 0.84 0 21.6
24/01/15 1.5 16.7 0.6 0.70 0 25.1
23/01/15 -1.2 0.0 0.0 0.86 6 35.5
22/01/15 -1.2 13.0 0.0 0.81 5 47.3
21/01/15 2.4 13.0 0.0 0.62 4 43.6
20/01/15 1.8 9.3 0.0 0.80 3 35.4
19/01/15 2.2 13.0 0.0 0.70 2 31.8
18/01/15 4.9 16.7 0.0 0.61 1 25.3
17/01/15 5.2 20.4 0.3 0.64 0 13.0
16/01/15 9.1 20.4 4.5 0.63 0 8.7
15/01/15 9.7 22.2 10.5 0.65 0 6.2
14/01/15 6.6 29.6 3.0 0.70 0 8.6
13/01/15 10.5 35.2 6.6 0.61 0 11.6
12/01/15 6.3 24.1 4.2 0.84 0 13.8
11/01/15 3.6 35.2 6.6 0.64 0 30.0
10/01/15 12.0 53.7 15.0 0.59 0 50.3
09/01/15 8.9 42.6 6.6 0.74 0 38.1
08/01/15 6.6 38.9 17.4 0.73 0 36.5
07/01/15 4.3 20.4 0.6 0.70 0 29.7
06/01/15 3.9 16.7 0.0 0.51 2 21.6
05/01/15 2.8 18.5 0.0 0.77 1 10.7
04/01/15 3.6 31.5 1.5 0.80 0 8.3
03/01/15 4.1 25.9 2.4 0.72 0 17.7
02/01/15 6.2 31.5 20.7 0.57 0 25.0
01/01/15 4.6 25.9 2.4 0.61 0 38.2
31/12/14 4.6 13.0 0.9 0.85 0 39.8
30/12/14 2.3 18.5 3.9 0.82 0 38.9
29/12/14 0.4 24.1 0.0 0.72 4 40.5
28/12/14 -2.4 16.7 0.0 0.72 3 31.0
27/12/14 1.0 22.2 0.0 0.55 2 25.3
26/12/14 3.4 16.7 0.0 0.61 1 11.2
25/12/14 4.2 29.6 2.7 0.73 0 6.6
24/12/14 8.9 27.8 11.7 0.71 0 6.1
23/12/14 10.2 31.5 10.5 0.75 0 6.5
22/12/14 10.0 27.8 12.9 0.89 0 2.5
21/12/14 6.6 27.8 5.1 0.82 0 8.4
20/12/14 5.6 42.6 5.4 0.74 0 11.9
19/12/14 11.3 35.2 26.1 0.74 0 18.6
18/12/14 11.7 33.3 2.1 0.88 0 24.7
17/12/14 7.8 18.5 7.8 0.76 0 13.6
16/12/14 4.8 16.7 0.6 0.82 0 19.2
15/12/14 5.2 22.2 4.5 0.64 0 12.3
14/12/14 5.1 11.1 0.0 0.73 1 16.4
13/12/14 5.4 22.2 0.9 0.78 0 18.9
12/12/14 8.1 29.6 24.3 0.76 0 15.3
11/12/14 5.1 25.9 6.0 0.82 0 15.3
10/12/14 3.2 29.6 6.0 0.70 0 17.1
09/12/14 3.6 22.2 0.0 0.71 1 14.3
08/12/14 3.5 16.7 2.1 0.73 0 7.6
07/12/14 6.3 16.7 10.5 0.67 0 10.3
06/12/14 4.7 9.3 0.6 0.85 0 10.7
05/12/14 2.8 11.1 1.8 0.87 0 10.0
04/12/14 0.3 5.6 0.0 0.90 6 16.2
03/12/14 -2.6 9.3 0.0 0.89 5 15.8
02/12/14 -0.8 9.3 0.0 0.75 4 15.3
01/12/14 -1.1 18.5 0.0 0.81 3 14.6
30/11/14 -0.3 11.1 0.0 0.95 2 14.8
29/11/14 0.8 7.4 0.0 0.87 1 13.2
28/11/14 1.7 7.4 0.3 0.87 0 56.5
27/11/14 4.0 5.6 0.3 0.84 0 59.2
26/11/14 8.0 5.6 0.0 0.75 1 59.1
25/11/14 8.4 13.0 0.3 0.82 0 55.3
24/11/14 14.2 25.9 2.1 0.56 0 68.5
23/11/14 19.6 16.7 0.3 0.40 0 50.1
22/11/14 10.0 7.4 0.3 0.78 0 15.3
21/11/14 5.5 3.7 0.0 0.94 1 1.5
20/11/14 5.5 7.4 0.3 0.99 0 1.7
19/11/14 5.0 11.1 2.7 0.99 0 11.2
18/11/14 6.8 13.0 17.4 0.98 0 14.5
17/11/14 15.5 9.3 0.0 0.67 1 26.7
16/11/14 8.5 11.1 9.9 0.93 0 22.8
15/11/14 11.7 5.6 0.0 0.90 3 33.0
14/11/14 14.6 9.3 0.0 0.69 2 47.8
13/11/14 11.7 7.4 0.0 0.84 1 56.3
12/11/14 9.4 5.6 0.3 0.96 0 84.2
11/11/14 13.2 9.3 0.0 0.74 4 100.5
10/11/14 11.5 11.1 0.0 0.74 3 95.3
09/11/14 15.6 11.1 0.0 0.56 2 83.4
08/11/14 14.2 14.8 0.0 0.60 1 65.1
07/11/14 14.4 18.5 0.3 0.47 0 84.2
06/11/14 12.5 11.1 0.0 0.60 1 121.1
05/11/14 9.6 13.0 0.6 0.90 0 151.5
04/11/14 16.6 29.6 8.1 0.61 0 121.8
03/11/14 15.2 20.4 3.9 0.66 0 160.4
02/11/14 20.9 18.5 0.0 0.57 3 182.5
01/11/14 26.5 16.7 0.0 0.41 2 163.5
31/10/14 21.9 16.7 0.0 0.53 1 121.1
30/10/14 12.5 7.4 6.9 0.86 0 92.4
29/10/14 11.3 18.5 6.9 0.62 0 123.8
28/10/14 18.3 14.8 0.3 0.50 0 141.3
27/10/14 20.3 9.3 0.0 0.52 1 87.4
26/10/14 16.0 16.7 0.3 0.56 0 89.0
25/10/14 14.5 13.0 0.0 0.71 3 81.0
24/10/14 17.0 13.0 0.0 0.48 2 67.6
23/10/14 14.6 16.7 0.0 0.57 1 67.0
22/10/14 8.5 33.3 24.3 0.88 0 67.5
21/10/14 13.1 25.9 10.5 0.74 0 71.3
20/10/14 14.9 18.5 0.6 0.75 0 85.7
19/10/14 23.9 46.3 4.2 0.54 0 159.1
18/10/14 20.3 13.0 0.3 0.57 0 96.1
17/10/14 19.7 14.8 0.9 0.67 0 104.3
16/10/14 16.9 11.1 4.2 0.75 0 96.9
15/10/14 17.8 13.0 0.0 0.60 2 114.5
14/10/14 21.1 11.1 0.0 0.53 1 71.4
13/10/14 21.7 13.0 1.2 0.65 0 56.2
12/10/14 19.5 16.7 0.0 0.54 3 47.4
11/10/14 18.1 11.1 0.0 0.79 2 41.5
10/10/14 19.3 13.0 0.0 0.64 1 63.0
09/10/14 21.1 16.7 12.3 0.73 0 110.4
08/10/14 17.6 14.8 4.2 0.64 0 144.5
07/10/14 16.5 20.4 14.4 0.75 0 161.3
06/10/14 22.8 9.3 0.3 0.42 0 181.0
05/10/14 18.8 7.4 0.0 0.65 1 176.3
04/10/14 25.6 11.1 0.3 0.15 0 200.4
03/10/14 25.2 9.3 0.0 0.48 1 171.5
02/10/14 21.6 11.1 0.3 0.63 0 175.0
01/10/14 24.4 9.3 0.3 0.54 0 153.9
30/09/14 22.1 13.0 0.9 0.65 0 127.8
29/09/14 25.9 11.1 0.0 0.51 1 118.5
28/09/14 25.1 9.3 0.3 0.46 0 110.5
27/09/14 21.9 13.0 0.0 0.48 1 79.5
26/09/14 15.0 13.0 2.4 0.83 0 46.9
25/09/14 17.9 22.2 1.2 0.61 0 60.8
24/09/14 16.0 9.3 0.0 0.59 2 45.1
23/09/14 16.1 16.7 0.0 0.52 1 68.3
22/09/14 14.2 38.9 4.8 0.64 0 100.8
21/09/14 17.0 16.7 9.3 0.80 0 116.3
20/09/14 23.6 13.0 3.6 0.71 0 147.9
19/09/14 23.5 5.6 7.5 0.75 0 114.7
18/09/14 27.4 11.1 0.3 0.53 0 137.0
17/09/14 25.0 14.8 0.3 0.57 0 106.7
16/09/14 27.3 11.1 0.3 0.58 0 58.7
15/09/14 25.3 11.1 0.3 0.65 0 25.0
14/09/14 20.3 11.1 5.1 0.72 0 33.8
13/09/14 15.2 13.0 13.2 0.95 0 88.3
12/09/14 16.3 13.0 0.3 0.84 0 134.9
11/09/14 16.5 13.0 5.7 0.78 0 91.2
10/09/14 17.6 16.7 2.1 0.68 0 134.5
09/09/14 19.3 18.5 0.0 0.65 1 164.5
08/09/14 25.4 18.5 0.6 0.51 0 166.1
07/09/14 24.3 20.4 0.6 0.68 0 115.5
06/09/14 29.4 11.1 7.8 0.57 0 89.0
05/09/14 28.5 11.1 0.3 0.58 0 75.9
04/09/14 24.8 14.8 0.0 0.57 1 40.7
03/09/14 22.7 13.0 0.3 0.56 0 31.5
02/09/14 17.1 13.0 6.9 0.96 0 60.0
01/09/14 20.5 16.7 4.2 0.65 0 115.4
31/08/14 21.7 16.7 16.2 0.62 0 70.3
30/08/14 22.4 14.8 1.8 0.62 0 116.5
29/08/14 25.4 14.8 3.9 0.55 0 122.9
28/08/14 27.3 13.0 0.3 0.37 0 101.4
27/08/14 23.5 13.0 0.3 0.44 0 42.1
26/08/14 17.7 11.1 10.8 0.71 0 45.5
25/08/14 21.7 13.0 10.2 0.47 0 53.0
24/08/14 20.2 24.1 1.8 0.49 0 70.2
23/08/14 20.7 11.1 3.3 0.56 0 119.6
22/08/14 22.3 20.4 6.6 0.41 0 183.3
21/08/14 21.3 14.8 0.3 0.45 0 161.7
20/08/14 21.0 20.4 3.9 0.46 0 147.9
19/08/14 20.9 18.5 21.0 0.52 0 135.2
18/08/14 19.8 27.8 0.6 0.48 0 120.6
17/08/14 21.1 20.4 0.0 0.47 1 55.0
16/08/14 21.8 24.1 3.0 0.55 0 93.7
15/08/14 22.4 20.4 2.4 0.61 0 21.5
14/08/14 24.1 20.4 3.6 0.52 0 122.9
13/08/14 26.2 14.8 14.1 0.44 0 168.4
12/08/14 24.9 20.4 4.5 0.39 0 218.5
11/08/14 24.7 18.5 0.9 0.43 0 288.3
10/08/14 27.5 14.8 8.4 0.56 0 195.4
09/08/14 25.4 27.8 0.0 0.48 1 223.8
08/08/14 30.8 11.1 0.3 0.43 0 85.9
07/08/14 25.6 11.1 0.0 0.59 1 98.8
06/08/14 28.8 9.3 0.3 0.41 0 180.2
05/08/14 24.9 13.0 37.8 0.59 0 217.9
04/08/14 27.9 18.5 5.4 0.55 0 157.6
03/08/14 26.6 11.1 26.1 0.63 0 216.2
02/08/14 30.5 13.0 0.0 0.40 3 294.0
01/08/14 31.3 11.1 0.0 0.32 2 322.2
31/07/14 27.9 14.8 0.0 0.37 1 319.6
30/07/14 22.6 14.8 34.5 0.80 0 186.9
29/07/14 26.3 18.5 57.6 0.74 0 256.2
28/07/14 28.8 13.0 0.3 0.18 0 362.3
27/07/14 32.4 16.7 0.0 0.40 1 374.7
26/07/14 30.2 16.7 0.9 0.53 0 248.1
25/07/14 20.6 9.3 32.7 0.93 0 256.4
24/07/14 26.9 16.7 0.3 0.46 0 180.8
23/07/14 30.2 20.4 0.0 0.33 2 193.5
22/07/14 31.2 18.5 0.0 0.43 1 255.9
21/07/14 26.2 11.1 5.4 0.70 0 213.4
20/07/14 35.6 9.3 0.0 0.31 1 306.2
19/07/14 35.9 13.0 29.1 0.28 0 317.1
18/07/14 34.8 14.8 27.6 0.31 0 268.5
17/07/14 32.2 13.0 0.0 0.32 3 288.3
16/07/14 28.2 11.1 0.0 0.45 2 202.5
15/07/14 29.3 18.5 0.0 0.34 1 154.9
14/07/14 26.1 16.7 0.9 0.56 0 104.2
13/07/14 24.9 13.0 10.2 0.56 0 66.6
12/07/14 25.4 14.8 0.0 0.43 1 96.0
11/07/14 27.8 18.5 3.6 0.40 0 41.4
10/07/14 27.6 25.9 6.6 0.56 0 28.0
09/07/14 26.1 13.0 20.7 0.70 0 107.4
08/07/14 18.8 11.1 10.8 0.94 0 200.2
07/07/14 24.3 14.8 0.6 0.55 0 278.2
06/07/14 33.0 13.0 9.6 0.37 0 301.9
05/07/14 29.9 14.8 3.9 0.44 0 310.1
04/07/14 32.9 13.0 0.0 0.24 5 280.2
03/07/14 28.8 14.8 0.0 0.14 4 180.6
02/07/14 21.2 14.8 0.0 0.48 3 126.4
01/07/14 21.5 13.0 0.0 0.45 2 128.1
06/06/14 10.5 1.9 0.0 0.84 1 123.8
05/06/14 20.0 13.0 1.8 0.43 0 209.3
04/06/14 25.4 13.0 6.6 0.36 0 246.1
03/06/14 23.8 13.0 0.0 0.38 5 233.2
02/06/14 21.1 14.8 0.0 0.44 4 184.8
01/06/14 17.8 16.7 0.0 0.51 3 142.4
31/05/14 19.9 22.2 0.0 0.32 2 174.2
30/05/14 19.2 14.8 0.0 0.45 1 37.1
29/05/14 12.7 7.4 2.4 0.72 0 69.2
28/05/14 11.5 9.3 19.5 0.98 0 66.3
27/05/14 17.5 9.3 7.5 0.72 0 159.8
26/05/14 26.3 16.7 0.0 0.42 1 226.2
25/05/14 22.3 16.7 13.2 0.40 0 258.5
24/05/14 23.6 16.7 8.7 0.55 0 289.5
23/05/14 19.0 13.0 4.8 0.78 0 281.2
22/05/14 28.9 16.7 0.0 0.32 4 298.9
21/05/14 30.3 11.1 0.0 0.28 3 238.4
20/05/14 30.0 14.8 0.0 0.35 2 216.9
19/05/14 23.8 13.0 0.0 0.55 1 134.4
18/05/14 17.2 18.5 1.5 0.62 0 112.8
17/05/14 16.9 14.8 0.0 0.65 2 101.0
16/05/14 16.9 16.7 0.0 0.52 1 80.1
15/05/14 20.0 18.5 0.3 0.44 0 48.3
14/05/14 12.8 25.9 3.6 0.60 0 15.3
13/05/14 14.2 18.5 1.5 0.57 0 12.9
12/05/14 15.8 22.2 3.0 0.58 0 16.7
11/05/14 15.8 16.7 4.5 0.52 0 14.4
10/05/14 15.2 14.8 7.8 0.64 0 36.6
09/05/14 18.9 18.5 20.4 0.54 0 57.2
08/05/14 16.2 13.0 5.1 0.55 0 94.6
07/05/14 18.3 22.2 3.0 0.51 0 110.9
06/05/14 20.5 11.1 1.2 0.40 0 122.2
05/05/14 17.7 14.8 0.0 0.49 2 145.0
04/05/14 9.1 14.8 0.0 0.58 1 178.6
03/05/14 13.4 20.4 0.3 0.32 0 177.0
02/05/14 10.4 9.3 0.6 0.97 0 120.7
01/05/14 17.0 16.7 0.3 0.72 0 120.0
30/04/14 23.6 9.3 0.3 0.32 0 143.5
29/04/14 22.7 18.5 0.3 0.36 0 133.0
28/04/14 18.4 9.3 0.9 0.65 0 116.4
27/04/14 17.8 13.0 40.8 0.75 0 140.8
26/04/14 22.1 14.8 2.4 0.55 0 154.1
25/04/14 22.7 14.8 0.0 0.49 4 180.2
24/04/14 19.4 16.7 0.0 0.65 3 158.0
23/04/14 21.0 13.0 0.0 0.46 2 110.4
22/04/14 20.8 13.0 0.0 0.47 1 112.2
21/04/14 19.6 16.7 1.5 0.48 0 135.7
20/04/14 19.7 16.7 0.0 0.48 1 117.0
19/04/14 15.7 20.4 0.3 0.72 0 96.5
18/04/14 11.4 24.1 9.3 0.45 0 118.5
17/04/14 16.5 14.8 0.0 0.32 2 128.4
16/04/14 14.3 18.5 0.0 0.36 1 159.8
15/04/14 8.4 22.2 1.8 0.67 0 128.3
14/04/14 9.4 29.6 8.7 0.70 0 127.2
13/04/14 13.9 20.4 0.0 0.53 3 123.3
12/04/14 17.0 11.1 0.0 0.54 2 125.0
11/04/14 14.9 64.8 0.0 0.68 1 137.4
10/04/14 11.3 18.5 2.4 0.87 0 83.4
09/04/14 10.9 18.5 5.4 0.68 0 96.0
08/04/14 17.9 27.8 1.8 0.53 0 173.2
07/04/14 22.1 13.0 0.0 0.52 1 200.3
06/04/14 20.2 13.0 0.3 0.46 0 166.2
05/04/14 16.8 13.0 0.9 0.72 0 143.8
04/04/14 15.3 9.3 0.0 0.67 1 143.7
03/04/14 24.7 13.0 0.3 0.31 0 178.2
02/04/14 23.8 13.0 0.3 0.31 0 134.8
01/04/14 21.2 20.4 3.0 0.45 0 122.9
05/03/14 9.9 13.0 0.0 0.66 6 109.0
04/03/14 11.3 13.0 0.0 0.63 5 88.9
03/03/14 12.1 31.5 0.0 0.48 4 75.0
02/03/14 9.7 11.1 0.0 0.54 3 47.0
01/03/14 10.6 13.0 0.0 0.62 2 53.0
09/02/14 6.0 14.8 0.0 0.70 1 47.7
08/02/14 9.9 18.5 7.2 0.55 0 50.7
07/02/14 12.0 24.1 1.8 0.47 0 70.1
06/02/14 8.6 20.4 0.0 0.58 1 75.7
05/02/14 10.3 14.8 0.3 0.48 0 65.4
04/02/14 7.4 16.7 2.1 0.62 0 56.3
03/02/14 5.4 13.0 0.3 0.76 0 51.7
02/02/14 8.5 9.3 0.0 0.60 1 52.5
01/02/14 9.2 16.7 0.6 0.42 0 43.3
31/01/14 5.7 13.0 0.3 0.59 0 23.2
30/01/14 2.3 7.4 0.0 0.66 3 16.5
29/01/14 -1.7 9.3 0.0 0.80 2 12.0
28/01/14 4.5 11.1 0.0 0.71 1 9.5
27/01/14 4.4 13.0 3.9 0.75 0 6.8
26/01/14 1.1 7.4 0.0 0.75 1 5.9
25/01/14 -5.9 5.6 3.9 0.78 0 3.9
24/01/14 -2.9 0.0 0.0 0.86 8 13.5
23/01/14 -2.1 3.7 0.0 0.87 7 21.6
22/01/14 -1.2 7.4 0.0 0.88 6 25.9
21/01/14 -1.5 7.4 0.0 0.89 5 23.9
20/01/14 0.4 9.3 0.0 0.92 4 29.4
19/01/14 3.9 13.0 0.0 0.90 3 33.8
18/01/14 10.3 7.4 0.0 0.50 2 48.4
17/01/14 7.8 9.3 0.0 0.71 1 47.5
16/01/14 7.4 14.8 3.6 0.75 0 35.3
15/01/14 5.3 14.8 0.6 0.72 0 31.5
14/01/14 7.4 11.1 0.0 0.72 2 26.1
13/01/14 6.2 16.7 0.0 0.44 1 18.7
12/01/14 3.4 22.2 0.6 0.73 0 9.3
11/01/14 6.0 29.6 5.7 0.68 0 5.9
10/01/14 5.8 22.2 2.4 0.70 0 6.1
09/01/14 11.3 24.1 5.1 0.68 0 16.9
08/01/14 10.3 24.1 2.7 0.71 0 18.8
07/01/14 11.3 22.2 3.0 0.64 0 34.4
06/01/14 10.1 18.5 9.3 0.73 0 50.8
05/01/14 7.5 16.7 3.6 0.72 0 75.9
04/01/14 8.4 13.0 0.0 0.65 1 80.4
03/01/14 10.0 33.3 3.6 0.69 0 73.7
02/01/14 8.9 16.7 0.6 0.64 0 61.0
01/01/14 7.1 14.8 0.3 0.23 0 71.1
31/12/13 9.7 13.0 0.0 0.22 2 50.2
30/12/13 4.3 14.8 0.0 0.66 1 33.1
29/12/13 5.5 16.7 6.3 0.81 0 25.7
28/12/13 10.5 18.5 3.0 0.61 0 48.8
27/12/13 8.6 22.2 0.0 0.52 1 24.8
26/12/13 5.4 11.1 3.6 0.90 0 30.0
25/12/13 12.8 22.2 5.4 0.54 0 46.2
24/12/13 13.6 27.8 1.8 0.46 0 59.5
23/12/13 9.9 20.4 0.0 0.68 1 70.4
22/12/13 9.3 18.5 5.7 0.42 0 79.5
21/12/13 6.5 25.9 0.0 0.42 1 113.6
20/12/13 6.4 14.8 0.3 0.75 0 100.1
19/12/13 9.3 16.7 2.7 0.64 0 110.4
18/12/13 9.1 16.7 0.0 0.55 3 114.4
17/12/13 10.1 13.0 0.0 0.45 2 126.4
16/12/13 11.7 22.2 0.0 0.32 1 111.0
15/12/13 6.9 18.5 0.6 0.55 0 72.9
14/12/13 4.5 16.7 0.0 0.63 2 54.0
13/12/13 9.3 7.4 0.0 0.54 1 46.9
12/12/13 13.4 14.8 0.3 0.33 0 52.1
11/12/13 10.5 7.4 0.3 0.83 0 37.3
10/12/13 9.9 11.1 0.0 0.84 1 19.5
09/12/13 7.5 16.7 8.7 0.88 0 15.5
08/12/13 6.4 16.7 5.4 0.87 0 33.7
07/12/13 3.3 31.5 0.9 0.71 0 40.0
06/12/13 1.5 37.0 0.6 0.69 0 45.5
05/12/13 6.4 50.0 10.8 0.68 0 40.1
04/12/13 4.5 20.4 3.9 0.71 0 34.8
03/12/13 9.5 13.0 0.0 0.41 2 38.1
02/12/13 8.3 13.0 0.0 0.73 1 24.8
01/12/13 6.4 14.8 0.9 0.86 0 18.3
30/11/13 4.4 16.7 4.5 0.86 0 23.0
29/11/13 5.5 20.4 10.2 0.82 0 23.3
28/11/13 7.0 18.5 0.6 0.83 0 21.0
27/11/13 4.4 16.7 0.3 0.79 0 14.7
26/11/13 1.5 9.3 0.0 0.83 2 11.0
25/11/13 2.1 14.8 0.0 0.68 1 7.7
24/11/13 4.6 20.4 1.8 0.66 0 5.9
23/11/13 5.1 11.1 2.4 0.98 0 4.5
22/11/13 3.0 3.7 6.3 0.94 0 6.8
21/11/13 0.5 0.0 0.0 0.90 1 7.9
20/11/13 4.2 14.8 10.2 0.86 0 17.2
19/11/13 5.2 11.1 1.2 0.76 0 26.7
18/11/13 5.2 11.1 0.0 0.78 2 33.4
17/11/13 7.0 9.3 0.0 0.87 1 40.9
16/11/13 11.2 7.4 2.4 0.54 0 55.3
15/11/13 7.4 13.0 0.0 0.65 1 51.8
14/11/13 8.5 9.3 0.3 0.60 0 41.5
13/11/13 9.5 11.1 0.3 0.73 0 33.2
12/11/13 7.9 13.0 0.0 0.54 2 28.1
11/11/13 11.1 13.0 0.0 0.61 1 14.4
10/11/13 6.8 14.8 3.9 0.77 0 3.4
09/11/13 11.7 20.4 3.9 0.63 0 10.4
08/11/13 12.4 11.1 3.0 0.74 0 4.1
07/11/13 13.5 16.7 15.6 0.87 0 2.2
06/11/13 9.4 20.4 10.2 0.79 0 18.7
05/11/13 10.0 13.0 5.4 0.71 0 18.5
04/11/13 11.3 24.1 12.0 0.76 0 20.5
03/11/13 11.9 18.5 14.1 0.66 0 21.2
02/11/13 12.7 16.7 5.7 0.83 0 26.8
01/11/13 11.5 16.7 0.6 0.66 0 25.9
11/10/13 5.4 1.9 0.0 0.99 1 12.2
10/10/13 10.4 13.0 6.0 0.87 0 11.9
09/10/13 16.8 14.8 4.8 0.73 0 51.2
08/10/13 17.3 5.6 0.0 0.61 3 86.2
07/10/13 13.5 20.4 0.0 0.97 2 109.5
06/10/13 13.5 20.4 0.0 0.99 1 137.6
05/10/13 14.7 9.3 8.4 0.82 0 146.7
04/10/13 19.3 13.0 0.0 0.43 7 229.6
03/10/13 19.7 11.1 0.0 0.22 6 223.5
02/10/13 15.7 13.0 0.0 0.29 5 182.9
01/10/13 15.6 14.8 0.0 0.42 4 171.0
23/09/13 16.7 13.0 0.0 0.82 3 139.7
22/09/13 19.5 53.7 0.0 0.68 2 146.8
21/09/13 19.4 13.0 0.0 0.52 1 51.1
20/09/13 16.0 14.8 3.0 0.77 0 53.2
19/09/13 17.2 14.8 0.0 0.62 1 63.4
18/09/13 11.2 16.7 2.4 0.83 0 44.1
17/09/13 15.7 11.1 0.6 0.57 0 64.1
16/09/13 13.7 13.0 7.2 0.79 0 43.2
15/09/13 19.1 11.1 0.6 0.49 0 47.1
14/09/13 19.0 16.7 0.9 0.79 0 15.4
13/09/13 20.3 9.3 2.4 0.71 0 6.4
12/09/13 15.2 9.3 0.6 0.79 0 72.8
11/09/13 12.5 11.1 10.8 0.92 0 132.3
10/09/13 15.3 25.9 10.5 0.71 0 196.7
09/09/13 18.4 11.1 8.4 0.65 0 226.6
08/09/13 24.6 16.7 1.2 0.65 0 262.8
07/09/13 30.3 13.0 0.0 0.41 5 249.8
06/09/13 32.5 9.3 0.0 0.28 4 217.1
05/09/13 31.5 9.3 0.0 0.34 3 152.1
04/09/13 25.8 11.1 0.0 0.55 2 132.2
03/09/13 21.9 16.7 0.0 0.73 1 148.2
02/09/13 15.6 16.7 4.8 0.75 0 80.8
01/09/13 17.7 18.5 0.3 0.54 0 123.6
16/08/13 17.7 0.0 0.0 0.66 2 142.4
15/08/13 24.3 11.1 0.0 0.44 1 198.4
14/08/13 21.7 16.7 0.3 0.42 0 211.2
13/08/13 20.0 24.1 5.1 0.61 0 193.0
12/08/13 22.8 16.7 6.9 0.52 0 215.0
11/08/13 22.6 16.7 0.0 0.44 1 201.2
10/08/13 25.1 16.7 0.6 0.45 0 239.6
09/08/13 24.9 13.0 0.0 0.37 1 237.4
08/08/13 21.6 13.0 0.3 0.74 0 185.0
07/08/13 25.0 11.1 0.3 0.69 0 307.7
06/08/13 31.6 18.5 3.3 0.36 0 413.9
05/08/13 33.1 13.0 0.0 0.31 2 431.1
04/08/13 26.2 14.8 0.0 0.45 1 436.8
03/08/13 32.1 18.5 2.7 0.37 0 499.0
02/08/13 36.9 14.8 0.0 0.24 10 471.0
01/08/13 33.4 11.1 0.0 0.36 9 371.9
17/07/13 27.9 16.7 0.0 0.44 8 334.7
16/07/13 27.8 20.4 0.0 0.36 7 300.0
15/07/13 24.6 18.5 0.0 0.45 6 254.0
14/07/13 20.0 13.0 0.0 0.71 5 253.4
13/07/13 22.3 16.7 0.0 0.53 4 313.0
12/07/13 22.0 14.8 0.0 0.53 3 348.4
11/07/13 21.0 16.7 0.0 0.56 2 365.3
10/07/13 22.9 20.4 0.0 0.54 1 370.9
09/07/13 27.9 14.8 0.6 0.43 0 350.3
08/07/13 27.4 18.5 0.0 0.42 1 288.1
07/07/13 27.2 18.5 0.3 0.41 0 249.4
06/07/13 25.4 14.8 0.0 0.43 2 132.4
05/07/13 25.4 14.8 0.0 0.55 1 153.3
04/07/13 25.2 11.1 0.9 0.54 0 109.2
03/07/13 27.8 14.8 4.8 0.52 0 103.0
02/07/13 25.2 11.1 0.9 0.43 0 134.2
01/07/13 27.3 20.4 23.7 0.43 0 148.6
30/06/13 32.3 13.0 0.0 0.39 1 138.4
29/06/13 16.7 22.2 4.2 0.75 0 71.4
28/06/13 18.0 11.1 1.8 0.58 0 70.5
27/06/13 17.8 11.1 0.9 0.62 0 94.1
26/06/13 16.0 18.5 0.3 0.60 0 132.4
25/06/13 13.9 22.2 0.0 0.76 1 51.1
24/06/13 21.3 14.8 1.2 0.55 0 134.0
23/06/13 23.3 16.7 1.5 0.44 0 202.3
22/06/13 24.4 11.1 0.0 0.51 1 232.5
21/06/13 25.2 16.7 0.3 0.48 0 297.6
20/06/13 30.8 16.7 9.6 0.56 0 220.0
19/06/13 35.5 13.0 0.0 0.44 4 202.3
18/06/13 30.7 13.0 0.0 0.49 3 117.3
17/06/13 26.7 14.8 0.0 0.46 2 98.5
16/06/13 22.6 14.8 0.0 0.46 1 112.3
15/06/13 24.4 22.2 6.0 0.44 0 127.3
14/06/13 21.6 20.4 2.1 0.45 0 153.3
13/06/13 28.2 24.1 3.3 0.45 0 228.6
12/06/13 26.3 9.3 0.0 0.36 10 238.8
11/06/13 22.0 11.1 0.0 0.54 9 283.8
10/06/13 20.3 14.8 0.0 0.51 8 313.1
09/06/13 20.2 14.8 0.0 0.68 7 310.5
08/06/13 25.4 14.8 0.0 0.44 6 334.3
07/06/13 25.4 14.8 0.0 0.47 5 317.8
06/06/13 24.8 18.5 0.0 0.25 4 266.0
05/06/13 23.0 14.8 0.0 0.31 3 178.4
04/06/13 22.3 13.0 0.0 0.53 2 143.1
03/06/13 17.2 24.1 0.0 0.50 1 109.3
02/06/13 14.0 27.8 0.3 0.57 0 112.5
01/06/13 16.0 18.5 1.2 0.87 0 27.3
31/05/13 17.5 20.4 20.7 0.81 0 79.5
30/05/13 15.2 22.2 0.6 0.70 0 23.0
29/05/13 20.7 13.0 4.8 0.49 0 16.1
28/05/13 20.7 18.5 0.0 0.43 1 52.4
27/05/13 14.6 9.3 8.1 0.79 0 2.2
26/05/13 10.1 20.4 37.5 0.97 0 30.8
25/05/13 14.2 22.2 8.1 0.58 0 10.0
24/05/13 11.6 11.1 1.8 0.60 0 28.1
23/05/13 11.7 13.0 4.2 0.43 0 10.2
22/05/13 12.0 22.2 18.6 0.79 0 4.4
21/05/13 20.3 13.0 0.0 0.51 1 66.5
20/05/13 17.3 13.0 6.0 0.63 0 6.3
19/05/13 19.7 13.0 0.3 0.63 0 22.0
18/05/13 14.2 13.0 13.2 0.79 0 2.9
17/05/13 21.3 14.8 1.5 0.72 0 10.5
16/05/13 22.4 16.7 0.0 0.61 1 74.3
15/05/13 26.3 14.8 5.4 0.36 0 127.1
14/05/13 14.5 14.8 2.4 0.61 0 115.1
13/05/13 14.3 20.4 3.0 0.74 0 151.9
12/05/13 14.1 16.7 3.0 0.61 0 153.7
11/05/13 18.4 16.7 0.0 0.46 2 207.1
10/05/13 18.1 29.6 0.0 0.45 1 223.4
09/05/13 22.7 20.4 3.3 0.51 0 228.4
08/05/13 24.3 11.1 0.3 0.44 0 235.2
07/05/13 15.7 9.3 1.5 0.82 0 207.1
06/05/13 23.8 16.7 0.0 0.37 12 242.2
05/05/13 24.6 13.0 0.0 0.31 11 214.1
04/05/13 22.0 13.0 0.0 0.33 10 179.7
03/05/13 15.8 20.4 0.0 0.53 9 167.8
02/05/13 12.0 13.0 0.0 0.82 8 182.7
01/05/13 15.3 16.7 0.0 0.55 7 281.9
22/04/13 16.2 14.8 0.0 0.36 6 291.4
21/04/13 15.5 13.0 0.0 0.52 5 255.6
20/04/13 11.6 22.2 0.0 0.42 4 345.6
19/04/13 15.1 22.2 0.0 0.34 3 345.6
18/04/13 21.3 27.8 0.0 0.24 2 294.4
17/04/13 21.6 14.8 0.0 0.52 1 186.6
16/04/13 20.7 18.5 1.2 0.43 0 174.7
15/04/13 28.1 20.4 0.9 0.27 0 149.0
14/04/13 20.7 14.8 0.0 0.50 1 37.0
13/04/13 13.7 20.4 1.5 0.49 0 46.8
12/04/13 15.9 11.1 4.8 0.51 0 9.8
11/04/13 17.0 14.8 4.5 0.57 0 42.8
10/04/13 13.2 11.1 3.3 0.59 0 42.9
09/04/13 10.9 9.3 1.8 0.52 0 50.8
08/04/13 9.3 20.4 0.0 0.36 1 58.0
07/04/13 9.9 16.7 9.3 0.34 0 48.0
06/04/13 7.1 11.1 32.4 0.44 0 64.4
05/04/13 1.0 14.8 0.9 0.72 0 69.4
04/04/13 2.7 14.8 0.0 0.59 3 66.9
03/04/13 2.3 16.7 0.0 0.50 2 58.2
02/04/13 3.5 16.7 0.0 0.52 1 49.8
01/04/13 8.4 14.8 0.9 0.35 0 52.5
31/03/13 3.7 13.0 0.3 0.56 0 48.1
30/03/13 4.6 11.1 2.1 0.62 0 60.5
29/03/13 1.1 3.7 0.3 0.74 0 76.7
28/03/13 0.5 11.1 0.0 0.67 6 91.5
27/03/13 2.2 16.7 0.0 0.32 5 94.3
26/03/13 1.2 22.2 0.0 0.43 4 77.0
25/03/13 0.4 24.1 0.0 0.41 3 65.6
24/03/13 -1.0 24.1 0.0 0.27 2 51.8
23/03/13 -3.9 20.4 0.0 0.44 1 41.3
22/03/13 1.4 16.7 0.3 0.63 0 52.4
21/03/13 4.7 13.0 3.0 0.53 0 71.8
20/03/13 1.2 14.8 0.0 0.67 2 75.6
19/03/13 1.3 13.0 0.0 0.71 1 77.5
18/03/13 7.8 14.8 0.6 0.67 0 71.5
17/03/13 5.6 16.7 0.0 0.27 2 66.4
16/03/13 7.6 14.8 0.0 0.27 1 43.5
15/03/13 2.6 9.3 0.3 0.49 0 20.0
14/03/13 1.4 16.7 0.6 0.58 0 14.1
13/03/13 3.8 11.1 1.8 0.41 0 12.6
12/03/13 -3.8 11.1 0.0 0.67 2 14.6
11/03/13 -4.5 0.0 0.0 0.73 1 40.3
10/03/13 0.7 7.4 3.0 0.85 0 58.5
09/03/13 2.0 5.6 0.9 0.86 0 72.4
08/03/13 3.8 13.0 0.6 0.87 0 79.9
07/03/13 6.8 9.3 0.9 0.71 0 93.8
06/03/13 16.5 11.1 0.0 0.28 3 91.5
05/03/13 15.7 7.4 0.0 0.29 2 60.5
04/03/13 12.3 9.3 0.0 0.45 1 41.0
03/03/13 3.9 16.7 0.6 0.68 0 25.4
02/03/13 7.8 16.7 0.0 0.53 1 18.8
01/03/13 1.7 16.7 1.5 0.72 0 7.1
28/02/13 3.5 13.0 3.3 0.72 0 9.8
27/02/13 0.3 0.0 0.3 0.83 0 10.0
26/02/13 0.8 9.3 1.5 0.91 0 14.1
25/02/13 0.9 7.4 0.0 0.90 8 29.1
24/02/13 -0.2 13.0 0.0 0.83 7 34.0
23/02/13 -2.5 14.8 0.0 0.79 6 34.9
22/02/13 -3.9 13.0 0.0 0.73 5 33.3
21/02/13 -2.4 14.8 0.0 0.75 4 29.2
20/02/13 -0.5 24.1 0.0 0.73 3 34.3
19/02/13 1.0 16.7 0.0 0.69 2 32.9
18/02/13 1.9 9.3 0.0 0.65 1 34.1
17/02/13 3.4 7.4 0.3 0.78 0 33.7
16/02/13 3.5 7.4 1.2 0.82 0 38.3
15/02/13 3.8 14.8 0.0 0.59 5 42.2
14/02/13 -0.6 14.8 0.0 0.58 4 36.4
13/02/13 4.3 11.1 0.0 0.51 3 32.6
12/02/13 -1.2 13.0 0.0 0.64 2 29.2
11/02/13 -1.3 16.7 0.0 0.67 1 38.4
10/02/13 4.0 9.3 1.5 0.43 0 35.7
09/02/13 -0.1 13.0 0.0 0.69 3 34.4
08/02/13 -0.3 11.1 0.0 0.66 2 28.5
07/02/13 1.0 16.7 0.0 0.70 1 23.0
06/02/13 7.6 14.8 0.9 0.50 0 15.4
05/02/13 4.5 22.2 3.0 0.74 0 4.9
04/02/13 6.8 31.5 14.1 0.74 0 5.4
03/02/13 2.7 16.7 1.2 0.68 0 4.0
02/02/13 1.9 22.2 1.5 0.67 0 15.3
01/02/13 6.0 31.5 4.5 0.84 0 14.9
31/01/13 6.7 31.5 4.2 0.64 0 28.7
30/01/13 11.1 31.5 11.1 0.68 0 29.1
29/01/13 8.6 22.2 11.1 0.75 0 26.9
28/01/13 6.2 18.5 0.3 0.71 0 24.5
27/01/13 4.1 18.5 3.0 0.69 0 20.3
26/01/13 -0.9 16.7 0.0 0.61 13 30.9
25/01/13 -3.9 9.3 0.0 0.67 12 26.2
24/01/13 -3.3 13.0 0.0 0.79 11 26.0
23/01/13 -5.9 9.3 0.0 0.76 10 24.7
22/01/13 -6.6 7.4 0.0 0.74 9 23.7
21/01/13 -4.8 13.0 0.0 0.79 8 23.5
20/01/13 -4.6 16.7 0.0 0.73 7 26.4
19/01/13 -6.2 16.7 0.0 0.71 6 23.6
18/01/13 -3.0 11.1 0.0 0.79 5 23.0
17/01/13 -2.3 11.1 0.0 0.85 4 21.8
16/01/13 -3.2 11.1 0.0 0.80 3 19.4
15/01/13 1.2 9.3 0.0 0.50 2 16.4
14/01/13 -3.0 7.4 0.0 0.73 1 9.2
13/01/13 -2.1 16.7 0.3 0.77 0 6.3
12/01/13 0.1 5.6 0.0 0.71 2 10.0
11/01/13 -1.4 0.0 0.0 0.71 1 7.0
10/01/13 4.6 18.5 4.8 0.84 0 8.2
09/01/13 6.1 20.4 9.6 0.91 0 16.9
08/01/13 6.5 11.1 2.4 0.86 0 17.2
07/01/13 6.5 18.5 0.9 0.84 0 15.7
06/01/13 7.2 22.2 1.5 0.91 0 12.0
05/01/13 7.9 25.9 6.0 0.93 0 22.4
04/01/13 9.7 27.8 0.3 0.85 0 21.1
03/01/13 9.5 24.1 4.2 0.83 0 33.7
02/01/13 5.1 16.7 1.5 0.79 0 46.5
01/01/13 7.4 24.1 9.9 0.71 0 33.6
31/12/12 8.0 18.5 0.6 0.72 0 28.8
30/12/12 9.5 20.4 3.0 0.66 0 26.0
29/12/12 10.2 20.4 0.0 0.65 2 19.7
28/12/12 5.4 18.5 0.0 0.56 1 15.6
27/12/12 7.3 24.1 10.5 0.79 0 3.4
26/12/12 7.9 18.5 3.9 0.77 0 4.7
25/12/12 11.6 22.2 6.0 0.63 0 9.0
24/12/12 11.4 20.4 3.6 0.65 0 12.1
23/12/12 11.4 18.5 20.4 0.86 0 4.9
22/12/12 5.2 11.1 1.2 0.86 0 7.3
21/12/12 0.2 0.0 0.0 0.85 2 7.9
20/12/12 2.3 9.3 0.0 0.90 1 6.7
19/12/12 5.5 3.7 0.3 0.85 0 4.4
18/12/12 5.3 7.4 3.0 0.88 0 4.6
17/12/12 7.0 9.3 0.6 0.82 0 4.1
16/12/12 6.5 13.0 4.5 0.84 0 2.9
15/12/12 7.8 16.7 4.5 0.82 0 3.9
14/12/12 6.1 16.7 15.6 0.71 0 12.1
13/12/12 0.8 0.0 0.0 0.63 3 21.1
12/12/12 -0.3 0.0 0.0 0.79 2 32.1
11/12/12 -2.6 0.0 0.0 0.83 1 45.5
10/12/12 1.6 22.2 5.4 0.88 0 52.0
09/12/12 1.6 18.5 0.0 0.67 5 49.4
08/12/12 1.4 13.0 0.0 0.49 4 46.5
07/12/12 2.6 16.7 0.0 0.49 3 40.6
06/12/12 -0.8 33.3 0.0 0.62 2 32.0
05/12/12 0.8 18.5 0.0 0.73 1 24.3
04/12/12 3.2 25.9 9.0 0.82 0 25.4
03/12/12 1.4 16.7 6.6 0.77 0 24.7
02/12/12 1.1 13.0 0.3 0.76 0 30.7
01/12/12 1.8 13.0 0.0 0.73 2 28.5
30/11/12 2.0 16.7 0.0 0.67 1 54.4
29/11/12 3.0 24.1 0.9 0.83 0 45.7
28/11/12 6.2 14.8 2.7 0.88 0 41.1
27/11/12 9.4 13.0 0.0 0.75 1 54.2
26/11/12 11.6 14.8 2.1 0.66 0 61.7
25/11/12 12.7 24.1 0.6 0.55 0 65.3
24/11/12 7.9 9.3 1.8 0.92 0 39.5
23/11/12 7.3 20.4 2.1 0.79 0 43.1
22/11/12 11.9 13.0 0.0 0.62 1 53.3
21/11/12 7.5 16.7 0.3 0.73 0 40.3
20/11/12 12.7 11.1 0.0 0.68 1 35.1
19/11/12 9.2 9.3 0.3 0.76 0 36.5
18/11/12 10.1 13.0 1.2 0.77 0 47.6
17/11/12 8.8 16.7 0.0 0.64 2 51.1
16/11/12 1.3 7.4 0.0 0.82 1 47.6
15/11/12 3.4 11.1 0.3 0.82 0 33.7
14/11/12 13.8 7.4 0.0 0.45 4 34.6
13/11/12 10.8 11.1 0.0 0.56 3 32.0
12/11/12 7.8 9.3 0.0 0.74 2 18.4
11/11/12 11.2 16.7 0.0 0.75 1 23.4
10/11/12 12.0 11.1 6.3 0.69 0 24.2
09/11/12 9.1 11.1 1.2 0.72 0 24.6
08/11/12 9.1 20.4 0.9 0.76 0 21.0
07/11/12 9.9 25.9 4.5 0.81 0 15.7
06/11/12 8.6 18.5 7.5 0.73 0 33.2
05/11/12 8.8 20.4 0.9 0.79 0 41.4
04/11/12 9.3 14.8 3.0 0.77 0 35.7
03/11/12 7.9 13.0 2.4 0.82 0 53.8
02/11/12 10.7 16.7 9.9 0.57 0 70.8
01/11/12 12.5 16.7 0.9 0.59 0 82.1
31/10/12 12.5 11.1 0.0 0.63 1 72.1
30/10/12 7.3 14.8 3.0 0.87 0 61.6
29/10/12 7.4 16.7 0.6 0.43 0 59.8
28/10/12 8.6 13.0 0.0 0.54 3 46.0
27/10/12 5.0 20.4 0.0 0.51 2 33.7
26/10/12 9.4 5.6 0.0 0.33 1 39.7
25/10/12 8.0 18.5 0.3 0.99 0 82.2
24/10/12 8.6 7.4 0.0 0.99 2 151.3
23/10/12 12.3 11.1 0.0 0.91 1 199.1
22/10/12 15.3 7.4 0.3 0.92 0 215.5
21/10/12 24.4 9.3 0.0 0.57 5 237.2
20/10/12 25.3 14.8 0.0 0.45 4 211.8
19/10/12 27.0 13.0 0.0 0.27 3 158.5
18/10/12 23.0 14.8 0.0 0.41 2 109.3
17/10/12 15.9 14.8 0.0 0.62 1 40.0
16/10/12 12.4 16.7 0.6 0.61 0 31.8
15/10/12 8.7 13.0 2.4 0.89 0 25.4
14/10/12 12.0 13.0 5.7 0.61 0 58.4
13/10/12 14.6 16.7 0.3 0.65 0 94.0
12/10/12 11.4 14.8 5.4 0.86 0 96.7
11/10/12 16.2 7.4 0.0 0.52 4 98.8
10/10/12 10.9 14.8 0.0 0.72 3 84.8
09/10/12 12.0 22.2 0.0 0.52 2 73.0
08/10/12 14.8 13.0 0.0 0.52 1 42.2
07/10/12 12.8 18.5 0.6 0.63 0 50.1
06/10/12 16.8 33.3 4.8 0.83 0 77.0
05/10/12 16.5 24.1 7.2 0.84 0 77.8
04/10/12 13.4 25.9 20.4 0.92 0 113.8
03/10/12 18.5 18.5 1.8 0.62 0 159.2
02/10/12 21.1 13.0 0.0 0.54 2 196.2
01/10/12 20.2 14.8 0.0 0.48 1 186.4
05/09/12 16.4 13.0 0.3 0.86 0 175.3
04/09/12 24.7 13.0 0.0 0.52 3 171.5
03/09/12 22.9 13.0 0.0 0.55 2 181.7
02/09/12 25.2 13.0 0.0 0.40 1 190.6
01/09/12 18.1 13.0 0.3 0.61 0 174.4
31/08/12 21.7 13.0 0.9 0.61 0 153.4
30/08/12 21.1 13.0 4.2 0.67 0 137.8
29/08/12 29.1 11.1 0.3 0.44 0 127.1
28/08/12 26.3 11.1 0.0 0.44 1 146.4
27/08/12 22.2 13.0 0.9 0.50 0 173.4
26/08/12 19.5 14.8 2.7 0.66 0 175.8
25/08/12 24.6 13.0 9.3 0.49 0 292.1
24/08/12 22.3 7.4 2.7 0.72 0 395.9
23/08/12 25.7 16.7 0.0 0.38 1 456.8
22/08/12 24.6 20.4 0.9 0.44 0 448.7
21/08/12 26.8 11.1 0.3 0.67 0 378.2
20/08/12 33.7 18.5 0.3 0.41 0 411.3
19/08/12 37.8 11.1 0.9 0.23 0 373.7
18/08/12 33.3 9.3 0.0 0.31 2 305.9
17/08/12 30.0 11.1 0.0 0.35 1 307.4
16/08/12 25.0 14.8 4.8 0.49 0 317.6
15/08/12 28.3 13.0 0.0 0.41 9 325.1
14/08/12 28.1 14.8 0.0 0.32 8 296.3
13/08/12 26.1 9.3 0.0 0.33 7 270.3
12/08/12 24.5 18.5 0.0 0.40 6 272.6
11/08/12 22.9 16.7 0.0 0.48 5 158.2
10/08/12 18.7 13.0 0.0 0.60 4 149.5
09/08/12 21.9 14.8 0.0 0.60 3 184.9
08/08/12 23.2 18.5 0.0 0.51 2 152.9
07/08/12 21.1 18.5 0.0 0.51 1 231.7
06/08/12 25.1 18.5 5.7 0.49 0 256.7
05/08/12 26.6 13.0 0.6 0.55 0 286.9
04/08/12 28.0 13.0 0.3 0.40 0 289.2
03/08/12 26.7 20.4 1.2 0.43 0 271.0
02/08/12 28.9 20.4 0.3 0.47 0 230.4
01/08/12 30.3 9.3 0.0 0.36 3 147.4
31/07/12 22.3 16.7 0.0 0.44 2 174.4
30/07/12 22.0 14.8 0.0 0.45 1 209.4
29/07/12 22.7 20.4 3.0 0.44 0 279.1
28/07/12 25.8 16.7 2.1 0.63 0 345.4
27/07/12 35.9 18.5 8.1 0.33 0 418.8
26/07/12 29.4 16.7 0.0 0.42 7 407.3
25/07/12 32.7 14.8 0.0 0.41 6 364.9
24/07/12 29.9 14.8 0.0 0.34 5 239.9
23/07/12 27.8 14.8 0.0 0.30 4 194.5
22/07/12 23.8 13.0 0.0 0.41 3 78.4
21/07/12 17.3 16.7 0.0 0.54 2 70.2
20/07/12 20.9 16.7 0.0 0.54 1 38.9
19/07/12 21.1 27.8 6.9 0.63 0 17.1
18/07/12 24.6 16.7 5.4 0.52 0 16.5
17/07/12 20.3 20.4 8.4 0.65 0 11.3
16/07/12 19.1 24.1 7.8 0.64 0 12.8
15/07/12 21.5 16.7 5.4 0.53 0 13.4
14/07/12 18.8 18.5 11.4 0.74 0 6.9
13/07/12 20.1 11.1 11.4 0.73 0 4.7
12/07/12 18.0 24.1 5.1 0.61 0 70.1
11/07/12 20.9 18.5 5.1 0.61 0 120.1
10/07/12 26.4 14.8 4.8 0.44 0 136.7
09/07/12 23.7 18.5 2.1 0.52 0 179.1
08/07/12 27.3 20.4 3.9 0.48 0 209.2
07/07/12 24.5 25.9 0.3 0.64 0 170.8
06/07/12 27.7 13.0 0.3 0.47 0 113.6
05/07/12 25.8 9.3 3.6 0.71 0 71.5
04/07/12 27.2 13.0 0.9 0.52 0 62.5
03/07/12 22.9 9.3 0.3 0.66 0 83.7
02/07/12 19.5 11.1 1.8 0.64 0 75.1
01/07/12 23.2 16.7 20.7 0.61 0 108.8
30/06/12 28.6 14.8 1.5 0.44 0 128.9
29/06/12 31.2 20.4 3.9 0.38 0 153.9
28/06/12 30.3 13.0 0.0 0.41 1 163.8
27/06/12 23.9 16.7 1.2 0.59 0 195.6
26/06/12 18.8 18.5 0.0 0.62 1 176.4
25/06/12 18.3 29.6 3.3 0.60 0 169.8
24/06/12 23.0 25.9 9.9 0.50 0 200.3
23/06/12 23.0 20.4 0.0 0.42 1 293.9
22/06/12 22.5 24.1 0.9 0.40 0 295.6
21/06/12 17.6 7.4 1.8 0.85 0 150.2
20/06/12 16.2 9.3 9.0 0.98 0 148.2
19/06/12 24.1 13.0 0.9 0.60 0 148.0
18/06/12 30.7 24.1 0.0 0.45 2 136.8
17/06/12 25.3 18.5 0.0 0.42 1 88.0
16/06/12 22.1 13.0 7.2 0.68 0 50.1
15/06/12 22.5 11.1 2.4 0.47 0 103.9
14/06/12 15.4 9.3 2.1 0.74 0 156.8
13/06/12 16.2 14.8 0.3 0.67 0 152.6
12/06/12 20.7 14.8 1.8 0.63 0 189.0
11/06/12 19.6 11.1 0.0 0.51 3 191.5
10/06/12 21.4 14.8 0.0 0.40 2 165.7
09/06/12 19.6 24.1 0.0 0.41 1 119.6
08/06/12 24.1 20.4 1.8 0.38 0 91.7
07/06/12 24.0 13.0 0.0 0.47 1 90.7
06/06/12 15.6 9.3 0.3 0.61 0 48.7
05/06/12 14.7 20.4 3.9 0.51 0 52.5
04/06/12 16.2 22.2 11.1 0.69 0 78.7
03/06/12 10.1 11.1 9.3 0.76 0 139.9
02/06/12 15.5 20.4 0.3 0.50 0 210.2
01/06/12 13.5 29.6 1.2 0.69 0 265.5
31/05/12 19.3 24.1 14.7 0.67 0 332.0
30/05/12 18.4 18.5 0.0 0.56 8 403.8
29/05/12 20.3 22.2 0.0 0.36 7 462.0
28/05/12 25.0 18.5 0.0 0.38 6 493.7
27/05/12 25.2 18.5 0.0 0.35 5 491.1
26/05/12 24.8 16.7 0.0 0.34 4 460.8
25/05/12 23.8 16.7 0.0 0.23 3 391.0
24/05/12 26.1 18.5 0.0 0.25 2 357.7
23/05/12 30.0 18.5 0.0 0.36 1 319.8
22/05/12 30.1 13.0 0.3 0.36 0 259.8
21/05/12 26.0 14.8 0.9 0.52 0 188.9
20/05/12 26.7 13.0 3.9 0.37 0 169.9
19/05/12 24.3 13.0 0.3 0.45 0 189.8
18/05/12 19.1 16.7 0.3 0.23 0 173.0
17/05/12 15.6 18.5 0.3 0.37 0 153.8
16/05/12 11.4 27.8 1.8 0.67 0 124.9
15/05/12 18.0 20.4 8.4 0.36 0 168.3
14/05/12 18.6 16.7 0.0 0.32 3 186.0
13/05/12 13.5 14.8 0.0 0.42 2 189.9
12/05/12 12.2 25.9 0.0 0.49 1 170.3
11/05/12 28.4 25.9 2.4 0.45 0 189.0
10/05/12 25.4 13.0 0.0 0.55 3 134.9
09/05/12 21.5 13.0 0.0 0.51 2 140.2
08/05/12 22.6 14.8 0.0 0.34 1 106.6
07/05/12 12.4 11.1 0.9 0.75 0 52.2
06/05/12 8.3 7.4 0.6 0.87 0 83.5
05/05/12 12.1 13.0 9.3 0.88 0 150.8
04/05/12 21.6 14.8 0.0 0.42 1 257.1
03/05/12 20.7 14.8 4.5 0.56 0 339.7
02/05/12 25.3 22.2 7.8 0.48 0 388.2
01/05/12 22.5 16.7 0.0 0.59 5 401.2
30/04/12 23.4 20.4 0.0 0.42 4 395.5
29/04/12 26.9 20.4 0.0 0.26 3 326.6
28/04/12 30.7 16.7 0.0 0.24 2 218.8
27/04/12 21.0 14.8 0.0 0.46 1 105.9
26/04/12 16.6 18.5 0.3 0.53 0 65.3
25/04/12 16.4 14.8 0.6 0.41 0 74.0
24/04/12 16.7 11.1 3.3 0.46 0 93.1
23/04/12 14.6 13.0 2.4 0.44 0 125.3
22/04/12 13.0 14.8 2.1 0.57 0 157.8
21/04/12 14.4 16.7 1.5 0.48 0 201.0
20/04/12 16.0 20.4 0.3 0.44 0 234.0
19/04/12 18.5 13.0 0.0 0.27 5 215.5
18/04/12 14.0 16.7 0.0 0.41 4 174.2
17/04/12 12.4 16.7 0.0 0.27 3 141.8
16/04/12 9.2 29.6 0.0 0.44 2 133.0
15/04/12 13.0 25.9 0.0 0.39 1 93.5
14/04/12 12.5 11.1 0.3 0.44 0 45.2
13/04/12 12.5 16.7 2.4 0.52 0 68.8
12/04/12 15.6 14.8 1.8 0.37 0 73.7
11/04/12 11.9 20.4 0.9 0.52 0 64.4
10/04/12 16.5 16.7 1.2 0.52 0 53.7
09/04/12 7.5 16.7 9.3 0.45 0 45.0
08/04/12 8.5 18.5 0.0 0.27 1 58.0
07/04/12 5.7 33.3 3.0 0.43 0 58.3
06/04/12 5.5 13.0 0.0 0.69 1 53.3
05/04/12 3.4 9.3 0.6 0.90 0 45.1
04/04/12 5.8 11.1 2.4 0.88 0 44.8
03/04/12 15.5 11.1 0.0 0.53 3 46.6
02/04/12 7.1 22.2 0.0 0.69 2 101.6
01/04/12 3.1 24.1 0.0 0.69 1 123.6
31/03/12 6.9 38.9 1.5 0.56 0 164.4
30/03/12 7.5 33.3 2.7 0.84 0 216.8
29/03/12 11.4 27.8 1.2 0.62 0 256.8
28/03/12 19.3 24.1 0.0 0.31 5 284.3
27/03/12 16.9 18.5 0.0 0.48 4 231.5
26/03/12 17.3 14.8 0.0 0.38 3 206.9
25/03/12 18.0 20.4 0.0 0.24 2 204.5
24/03/12 19.1 14.8 0.0 0.52 1 175.2
23/03/12 18.4 16.7 0.3 0.48 0 107.3
22/03/12 16.5 16.7 0.3 0.64 0 116.8
21/03/12 14.6 13.0 0.0 0.69 1 157.0
20/03/12 14.1 20.4 0.3 0.47 0 176.7
19/03/12 10.3 22.2 0.0 0.36 1 184.9
18/03/12 13.7 22.2 5.1 0.66 0 162.0
17/03/12 19.8 16.7 0.0 0.40 4 164.2
16/03/12 21.8 16.7 0.0 0.29 3 126.6
15/03/12 15.6 14.8 0.0 0.35 2 82.3
14/03/12 5.6 16.7 0.0 0.79 1 66.3
13/03/12 6.5 16.7 0.3 0.82 0 39.9
12/03/12 7.9 20.4 0.0 0.86 1 35.1
11/03/12 7.6 24.1 0.3 0.81 0 49.2
10/03/12 9.1 22.2 0.6 0.64 0 46.4
09/03/12 10.7 14.8 0.3 0.50 0 59.3
08/03/12 7.0 31.5 5.1 0.69 0 59.2
07/03/12 9.8 14.8 2.7 0.44 0 77.7
06/03/12 9.6 18.5 0.0 0.52 5 72.7
05/03/12 6.8 11.1 0.0 0.69 4 52.8
04/03/12 11.0 13.0 0.0 0.64 3 48.0
03/03/12 12.0 11.1 0.0 0.60 2 34.7
02/03/12 12.8 13.0 0.0 0.61 1 42.2
01/03/12 14.0 13.0 3.6 0.71 0 47.4
29/02/12 10.5 13.0 0.3 0.93 0 41.4
28/02/12 8.8 16.7 0.9 0.92 0 39.1
27/02/12 5.0 16.7 1.5 0.74 0 60.6
26/02/12 7.3 22.2 0.6 0.54 0 70.0
25/02/12 6.7 25.9 0.0 0.70 1 61.7
24/02/12 10.3 27.8 2.4 0.84 0 51.1
23/02/12 8.7 20.4 3.0 0.55 0 61.7
22/02/12 9.6 18.5 0.0 0.53 1 52.3
21/02/12 4.6 22.2 0.6 0.65 0 30.6
20/02/12 4.9 16.7 0.3 0.60 0 17.4
19/02/12 5.5 25.9 3.0 0.71 0 20.4
18/02/12 6.8 14.8 0.3 0.80 0 16.8
17/02/12 4.8 20.4 1.2 0.84 0 21.3
16/02/12 4.2 18.5 2.4 0.63 0 29.3
15/02/12 3.8 38.9 3.6 0.68 0 39.6
14/02/12 2.5 20.4 0.6 0.74 0 34.5
13/02/12 0.5 11.1 0.0 0.77 17 48.7
12/02/12 -3.0 16.7 0.0 0.53 16 48.2
11/02/12 -4.0 13.0 0.0 0.54 15 44.5
10/02/12 -6.4 14.8 0.0 0.44 14 42.5
09/02/12 -4.2 20.4 0.0 0.72 13 38.8
08/02/12 -4.6 13.0 0.0 0.54 12 37.7
07/02/12 -9.1 14.8 0.0 0.55 11 37.2
06/02/12 -8.7 13.0 0.0 0.38 10 39.7
05/02/12 -6.9 11.1 0.0 0.44 9 37.8
04/02/12 -5.4 9.3 0.0 0.56 8 35.6
03/02/12 -6.8 14.8 0.0 0.52 7 33.4
02/02/12 -7.8 14.8 0.0 0.42 6 29.8
01/02/12 -7.2 18.5 0.0 0.41 5 30.6
31/01/12 -7.1 14.8 0.0 0.61 4 23.1
30/01/12 -4.0 9.3 0.0 0.63 3 18.2
29/01/12 -4.3 11.1 0.0 0.79 2 14.2
28/01/12 0.5 11.1 0.0 0.84 1 11.2
27/01/12 4.1 13.0 0.3 0.66 0 8.0
26/01/12 4.7 0.0 0.3 0.57 0 0.7
25/01/12 2.8 5.6 1.5 0.82 0 0.8
24/01/12 2.8 14.8 2.4 0.85 0 1.7
23/01/12 4.3 22.2 5.4 0.82 0 2.2
22/01/12 5.1 29.6 9.6 0.75 0 4.3
21/01/12 5.6 33.3 6.0 0.77 0 10.7
20/01/12 3.1 25.9 3.9 0.75 0 12.3
19/01/12 4.8 27.8 7.5 0.78 0 9.6
18/01/12 5.6 16.7 4.2 0.42 0 14.9
17/01/12 3.4 13.0 7.5 0.42 0 10.0
16/01/12 3.4 9.3 0.0 0.58 2 17.7
15/01/12 0.1 7.4 0.0 0.86 1 25.3
14/01/12 5.9 29.6 6.3 0.63 0 29.8
13/01/12 3.8 35.2 1.5 0.71 0 31.2
12/01/12 9.0 33.3 4.8 0.74 0 32.9
11/01/12 7.9 16.7 0.0 0.73 1 24.0
10/01/12 6.5 31.5 0.3 0.78 0 13.4
09/01/12 6.7 20.4 3.3 0.85 0 3.0
08/01/12 4.7 22.2 5.7 0.86 0 1.8
07/01/12 6.1 31.5 7.2 0.75 0 4.9
06/01/12 4.3 35.2 4.5 0.72 0 8.2
05/01/12 5.3 42.6 27.6 0.72 0 14.0
04/01/12 6.3 29.6 4.8 0.69 0 8.8
03/01/12 8.8 31.5 6.0 0.71 0 13.8
02/01/12 12.4 20.4 13.2 0.81 0 18.2
01/01/12 12.2 18.5 2.7 0.82 0 27.3
31/12/11 6.1 14.8 0.3 0.75 0 22.6
30/12/11 3.3 22.2 7.5 0.83 0 22.6
29/12/11 4.8 24.1 7.5 0.72 0 19.5
28/12/11 6.5 20.4 0.3 0.81 0 15.6
27/12/11 9.1 18.5 0.0 0.81 1 9.1
26/12/11 9.1 22.2 1.5 0.90 0 2.6
25/12/11 6.7 18.5 0.9 0.86 0 5.1
24/12/11 6.6 35.2 5.7 0.85 0 9.1
23/12/11 8.4 13.0 2.1 0.87 0 13.9
22/12/11 7.3 16.7 3.0 0.89 0 13.9
21/12/11 3.7 27.8 3.3 0.84 0 15.6
20/12/11 3.6 29.6 5.1 0.77 0 15.6
19/12/11 4.6 16.7 0.0 0.80 1 13.0
18/12/11 2.2 18.5 0.6 0.76 0 6.4
17/12/11 3.0 27.8 3.6 0.79 0 4.4
16/12/11 6.9 33.3 16.5 0.78 0 11.2
15/12/11 5.5 18.5 1.8 0.71 0 11.2
14/12/11 8.1 18.5 2.4 0.75 0 11.3
13/12/11 6.8 24.1 15.3 0.69 0 11.3
12/12/11 6.5 22.2 6.0 0.67 0 11.1
11/12/11 3.3 11.1 0.0 0.63 1 7.4
10/12/11 2.8 16.7 4.5 0.65 0 4.4
09/12/11 8.2 35.2 9.6 0.59 0 10.4
08/12/11 7.2 35.2 6.3 0.75 0 6.0
07/12/11 4.6 38.9 11.7 0.74 0 5.7
06/12/11 2.7 14.8 9.9 0.80 0 1.5
05/12/11 5.8 24.1 8.1 0.72 0 19.0
04/12/11 7.1 20.4 3.3 0.72 0 34.7
03/12/11 6.7 24.1 16.2 0.76 0 49.3
02/12/11 11.4 27.8 4.5 0.67 0 41.3
01/12/11 10.2 20.4 7.8 0.48 0 47.0
30/11/11 9.7 16.7 0.0 0.63 3 70.3
29/11/11 7.8 18.5 0.0 0.64 2 68.6
28/11/11 9.3 22.2 0.0 0.68 1 86.7
27/11/11 9.1 31.5 5.7 0.66 0 80.6
26/11/11 7.6 18.5 0.9 0.76 0 77.2
25/11/11 9.3 22.2 0.3 0.44 0 77.3
24/11/11 10.0 14.8 0.0 0.61 1 60.2
23/11/11 14.2 9.3 0.3 0.45 0 45.1
22/11/11 8.4 5.6 0.0 0.73 4 39.0
21/11/11 13.6 3.7 0.0 0.58 3 35.5
20/11/11 12.0 7.4 0.0 0.55 2 30.3
19/11/11 11.8 9.3 0.0 0.57 1 27.4
18/11/11 9.8 13.0 3.3 0.78 0 23.3
17/11/11 5.2 13.0 0.3 0.72 0 24.0
16/11/11 1.1 5.6 0.0 0.88 3 22.3
15/11/11 -0.7 5.6 0.0 0.90 2 20.8
14/11/11 15.7 3.7 0.0 0.44 1 25.6
13/11/11 11.5 3.7 0.3 0.55 0 17.6
12/11/11 8.5 5.6 0.3 0.67 0 13.4
11/11/11 2.6 7.4 0.0 0.84 1 22.0
10/11/11 6.0 7.4 0.3 0.97 0 21.7
09/11/11 14.6 9.3 0.3 0.79 0 64.5
08/11/11 5.7 5.6 0.0 0.97 1 91.3
07/11/11 6.7 9.3 0.3 0.98 0 110.7
06/11/11 15.5 11.1 0.3 0.70 0 134.6
05/11/11 10.9 5.6 0.0 0.83 4 143.0
04/11/11 22.8 13.0 0.0 0.40 3 157.4
03/11/11 23.5 9.3 0.0 0.40 2 128.2
02/11/11 17.5 13.0 0.0 0.60 1 118.3
01/11/11 18.8 13.0 0.3 0.57 0 109.5
31/10/11 17.1 13.0 0.0 0.68 2 102.6
30/10/11 17.2 13.0 0.0 0.65 1 110.7
29/10/11 19.4 7.4 0.3 0.55 0 126.1
28/10/11 19.7 11.1 0.0 0.54 1 134.8
27/10/11 16.6 9.3 0.3 0.63 0 137.8
26/10/11 14.4 11.1 0.0 0.58 2 140.7
25/10/11 13.6 18.5 0.0 0.56 1 140.9
24/10/11 15.7 18.5 0.3 0.48 0 114.6
23/10/11 15.8 11.1 0.0 0.43 3 83.4
22/10/11 15.1 11.1 0.0 0.28 2 73.1
21/10/11 12.2 11.1 0.0 0.56 1 74.1
20/10/11 9.1 20.4 0.3 0.65 0 29.8
19/10/11 11.8 14.8 2.4 0.68 0 34.7
18/10/11 15.5 27.8 5.1 0.66 0 62.2
17/10/11 12.7 13.0 0.0 0.65 1 29.2
16/10/11 19.1 11.1 0.3 0.40 0 67.2
15/10/11 13.7 13.0 9.3 0.54 0 21.1
14/10/11 11.9 13.0 0.3 0.59 0 14.8
13/10/11 13.7 16.7 0.0 0.56 1 24.0
12/10/11 12.3 13.0 5.7 0.76 0 3.0
11/10/11 14.9 25.9 15.3 0.88 0 3.5
10/10/11 16.2 22.2 6.9 0.86 0 19.1
09/10/11 11.6 16.7 4.5 0.64 0 100.0
08/10/11 10.3 25.9 9.0 0.74 0 150.2
07/10/11 12.9 16.7 2.4 0.72 0 210.1
06/10/11 17.9 29.6 8.1 0.70 0 263.1
05/10/11 18.1 14.8 0.6 0.75 0 308.4
04/10/11 23.4 29.6 0.0 0.55 6 349.9
03/10/11 25.6 13.0 0.0 0.38 5 300.1
02/10/11 28.8 13.0 0.0 0.43 4 263.9
01/10/11 29.1 9.3 0.0 0.36 3 204.4
30/09/11 30.2 9.3 0.0 0.28 2 195.3
29/09/11 27.1 11.1 0.0 0.36 1 136.9
28/09/11 24.0 11.1 0.3 0.58 0 113.8
27/09/11 22.0 11.1 0.3 0.70 0 119.2
26/09/11 27.2 7.4 2.4 0.45 0 149.5
25/09/11 25.2 11.1 0.0 0.44 1 177.0
24/09/11 24.6 7.4 2.1 0.36 0 175.7
23/09/11 18.4 14.8 0.0 0.54 11 183.3
22/09/11 18.2 18.5 0.0 0.57 10 195.1
21/09/11 20.2 16.7 0.0 0.58 9 190.5
20/09/11 21.9 16.7 0.0 0.53 8 200.6
19/09/11 18.3 14.8 0.0 0.60 7 200.9
18/09/11 16.6 11.1 0.0 0.73 6 231.4
17/09/11 22.7 14.8 0.0 0.49 5 253.9
16/09/11 20.6 13.0 0.0 0.53 4 176.5
15/09/11 18.1 22.2 0.0 0.52 3 189.6
14/09/11 17.8 22.2 0.0 0.53 2 144.4
13/09/11 21.4 24.1 0.0 0.54 1 101.0
12/09/11 22.2 16.7 0.3 0.61 0 78.4
11/09/11 27.4 22.2 12.3 0.58 0 116.1
10/09/11 27.8 13.0 0.3 0.55 0 131.3
09/09/11 19.6 9.3 1.8 0.75 0 55.1
08/09/11 13.5 20.4 16.2 0.86 0 96.6
07/09/11 17.9 29.6 9.3 0.59 0 156.0
06/09/11 21.7 18.5 0.3 0.48 0 159.0
05/09/11 20.9 16.7 0.9 0.54 0 185.9
04/09/11 29.4 14.8 9.3 0.52 0 190.1
03/09/11 30.2 9.3 0.0 0.45 5 153.0
02/09/11 27.0 11.1 0.0 0.42 4 141.6
01/09/11 18.7 13.0 0.0 0.65 3 61.4
31/08/11 21.9 14.8 0.0 0.50 2 40.8
30/08/11 15.5 18.5 0.0 0.65 1 59.8
29/08/11 17.4 27.8 6.6 0.63 0 13.6
28/08/11 19.1 18.5 0.6 0.59 0 69.5
27/08/11 18.9 14.8 24.0 0.71 0 94.0
26/08/11 36.6 18.5 2.1 0.37 0 202.1
25/08/11 27.0 13.0 0.3 0.61 0 87.8
24/08/11 30.4 18.5 7.2 0.50 0 121.3
23/08/11 26.8 25.9 19.5 0.63 0 74.2
22/08/11 26.7 14.8 0.0 0.50 1 97.7
21/08/11 29.5 9.3 0.3 0.44 0 111.2
20/08/11 26.2 13.0 8.1 0.42 0 127.5
19/08/11 20.4 24.1 17.4 0.60 0 83.8
18/08/11 30.8 35.2 7.2 0.43 0 150.4
17/08/11 27.3 11.1 0.0 0.44 2 70.4
16/08/11 20.8 11.1 0.0 0.57 1 77.7
15/08/11 24.4 13.0 0.9 0.47 0 95.3
14/08/11 24.0 14.8 6.9 0.67 0 63.0
13/08/11 22.1 13.0 0.3 0.67 0 76.0
12/08/11 21.8 9.3 10.8 0.59 0 59.9
11/08/11 24.5 16.7 0.0 0.48 1 54.3
10/08/11 18.7 24.1 1.2 0.52 0 24.9
09/08/11 19.7 40.7 3.9 0.55 0 103.6
08/08/11 20.2 13.0 9.6 0.58 0 8.6
07/08/11 21.9 22.2 3.0 0.45 0 84.3
06/08/11 29.8 13.0 2.1 0.45 0 104.7
05/08/11 27.3 13.0 10.2 0.52 0 101.8
04/08/11 28.4 14.8 0.3 0.46 0 136.5
03/08/11 31.3 11.1 6.0 0.35 0 142.6
02/08/11 26.9 14.8 0.0 0.50 2 169.0
01/08/11 22.6 11.1 0.0 0.63 1 160.3
31/07/11 15.7 16.7 0.3 0.80 0 196.4
30/07/11 14.0 18.5 6.3 0.84 0 187.6
29/07/11 20.1 22.2 0.0 0.56 3 205.2
28/07/11 24.2 14.8 0.0 0.48 2 205.5
27/07/11 25.4 13.0 0.0 0.47 1 190.6
26/07/11 23.3 16.7 0.3 0.50 0 250.3
25/07/11 20.2 7.4 3.9 0.57 0 305.6
24/07/11 16.0 14.8 0.6 0.67 0 342.5
23/07/11 18.9 20.4 0.9 0.47 0 280.4
22/07/11 15.4 25.9 0.0 0.64 4 237.3
21/07/11 29.7 20.4 0.0 0.38 3 203.7
20/07/11 29.7 18.5 0.0 0.38 2 97.5
19/07/11 25.6 11.1 0.0 0.39 1 45.3
18/07/11 22.1 18.5 5.1 0.52 0 15.7
17/07/11 22.6 16.7 2.7 0.47 0 59.1
16/07/11 26.5 11.1 2.1 0.33 0 110.0
15/07/11 15.6 14.8 4.5 0.71 0 91.9
14/07/11 20.9 14.8 2.4 0.47 0 186.2
13/07/11 24.8 9.3 13.8 0.66 0 229.1
12/07/11 27.6 7.4 0.0 0.36 2 262.9
11/07/11 25.9 13.0 0.0 0.43 1 281.8
10/07/11 24.1 13.0 1.2 0.55 0 267.2
09/07/11 30.5 14.8 0.0 0.36 2 255.7
08/07/11 26.5 13.0 0.0 0.38 1 168.1
07/07/11 27.6 9.3 0.3 0.44 0 115.5
06/07/11 30.1 11.1 0.9 0.42 0 109.2
05/07/11 24.6 7.4 0.0 0.60 1 23.3
04/07/11 16.1 7.4 0.9 0.85 0 4.1
03/07/11 12.8 14.8 17.1 0.97 0 70.6
02/07/11 15.0 14.8 11.1 0.74 0 130.2
01/07/11 18.8 14.8 0.0 0.50 1 194.9
30/06/11 19.8 20.4 26.7 0.48 0 178.1
29/06/11 30.8 13.0 1.5 0.39 0 197.0
28/06/11 32.7 11.1 0.0 0.36 3 164.8
27/06/11 31.0 11.1 0.0 0.44 2 93.7
26/06/11 25.3 13.0 0.0 0.57 1 37.0
25/06/11 19.2 9.3 4.8 0.56 0 9.1
24/06/11 18.6 16.7 11.1 0.53 0 11.2
23/06/11 21.7 13.0 6.3 0.56 0 9.9
22/06/11 26.7 14.8 7.5 0.54 0 44.6
21/06/11 24.4 14.8 3.6 0.60 0 47.1

CumulusUtils Version 5.2.0 - generated at 14/06/2021 14:15 - © Hans Rottier
Science background here. Prediction: https://www.yourweather.co.uk/